Darstellungsparameter: Aktuell verwendete Einstellungen:
Skalierung der Graphiken ... ?
xyx+y,   Skalierungsfaktor:      Skalierung: Modus: x, Faktor: 1
Darstellungszeitraum ... ?
Vom - - bis: - -   Zeitraum: 01.10.2018 - 30.12.2018
Min/Max/Avg-Anzeige ... ?
Zeige MMA aktuell
Zeige MMA Monat
Zeige MMA alles
Zeige --A aktuell
Zeige --A Monat
Zeige --A alles
Keine MMA-Anzeige
MMA:
Average (ber die Originaldaten)
MMA-Basis: 01.10.2018 - 30.12.2018
Quicknavigation für Darstellung... ?
Tage:      1T, 2T, 3T, 5T -1T -2T -3T -5T +1T +2T +3T +5T
Wochen: 1W, 2W, 3W -1W -2W -3W +1W +2W +3W
Monate: 1M, 3M, 6M -1M -3M -6M +1M +3M +6M
Jahre:    1J, 3J, 5J, 10J -1J -3J -5J -10J +1J +3J +5J +10J
Nutze für die Darstellung ... ?
Originaldaten oder Mittelwerte auf ...
Stundenbasis Tagesbasis Wochenbasis
Monatsbasis Jahresbasis      Datenbasis: Original-Daten
Darstellen als:
Statistik (Auto) Statistik J:M      Darstellung:
Zur Graphik,    zurück zur Übersicht aller Sensoren.
 
Tabellarische Datenbersicht: ?
 
Sensor: Nr:Datum:Temp:Abs-Feuchte:Windchill:Wind:
Aussen-T/F 1 01-10-2018 00:00:00 8.3 C 7.08 g/m*3 8.3 C 0 km/h
2 01-10-2018 00:05:00 8.2 C 7.03 g/m*3 8.2 C 0 km/h
3 01-10-2018 00:10:00 8.1 C 7.07 g/m*3 8.1 C 0 km/h
4 01-10-2018 00:15:00 8.1 C 7.07 g/m*3 8.1 C 0 km/h
5 01-10-2018 00:20:00 8 C 7.03 g/m*3 8 C 0 km/h
6 01-10-2018 00:25:00 7.9 C 7.06 g/m*3 7.9 C 0 km/h
7 01-10-2018 00:30:00 7.9 C 7.06 g/m*3 7.9 C 0 km/h
8 01-10-2018 00:35:00 7.8 C 7.02 g/m*3 7.8 C 0 km/h
9 01-10-2018 00:40:00 7.8 C 7.02 g/m*3 7.8 C 0 km/h
10 01-10-2018 00:45:00 7.8 C 7.02 g/m*3 7.8 C 1.6 km/h
11 01-10-2018 00:50:00 7.8 C 7.1 g/m*3 7.8 C 0 km/h
12 01-10-2018 00:55:00 7.8 C 7.1 g/m*3 7.8 C 3.2 km/h
13 01-10-2018 01:00:00 7.8 C 7.1 g/m*3 7.8 C 4.8 km/h
14 01-10-2018 01:05:00 7.8 C 7.1 g/m*3 7.8 C 0 km/h
15 01-10-2018 01:10:00 7.7 C 7.05 g/m*3 7.7 C 0 km/h
16 01-10-2018 01:15:00 7.7 C 7.05 g/m*3 7.7 C 0 km/h
17 01-10-2018 01:20:00 7.7 C 7.05 g/m*3 7.7 C 0 km/h
18 01-10-2018 01:25:00 7.6 C 7.01 g/m*3 7.6 C 0 km/h
19 01-10-2018 01:30:00 7.6 C 7.09 g/m*3 7.6 C 0 km/h
20 01-10-2018 01:35:00 7.6 C 7.09 g/m*3 7.6 C 0 km/h
21 01-10-2018 01:40:00 7.4 C 7 g/m*3 7.4 C 0 km/h
22 01-10-2018 01:45:00 7.4 C 7 g/m*3 7.4 C 0 km/h
23 01-10-2018 01:50:00 7.3 C 6.95 g/m*3 7.3 C 0 km/h
24 01-10-2018 01:55:00 7.3 C 7.03 g/m*3 7.3 C 0 km/h
25 01-10-2018 02:00:00 7.3 C 7.03 g/m*3 7.3 C 3.2 km/h
Sensor: Nr:Datum:Temp:Abs-Feuchte:Windchill:Wind:
Aussen-T/F 26 01-10-2018 02:05:00 7.3 C 7.03 g/m*3 7.3 C 0 km/h
27 01-10-2018 02:10:00 7.3 C 7.03 g/m*3 7.3 C 0 km/h
28 01-10-2018 02:15:00 7.3 C 7.03 g/m*3 7.3 C 0 km/h
29 01-10-2018 02:20:00 7.3 C 7.03 g/m*3 7.3 C 0 km/h
30 01-10-2018 02:25:00 7.3 C 7.03 g/m*3 7.3 C 0 km/h
31 01-10-2018 02:30:00 7.3 C 7.11 g/m*3 7.3 C 0 km/h
32 01-10-2018 02:35:00 7.3 C 7.11 g/m*3 7.3 C 0 km/h
33 01-10-2018 02:40:00 7.2 C 7.06 g/m*3 7.2 C 0 km/h
34 01-10-2018 02:45:00 7.2 C 7.06 g/m*3 7.2 C 0 km/h
35 01-10-2018 02:50:00 7.3 C 7.11 g/m*3 7.3 C 0 km/h
36 01-10-2018 02:55:00 7.3 C 7.11 g/m*3 7.3 C 0 km/h
37 01-10-2018 03:00:00 7.3 C 7.11 g/m*3 7.3 C 0 km/h
38 01-10-2018 03:05:00 7.3 C 7.19 g/m*3 7.3 C 0 km/h
39 01-10-2018 03:10:00 7.3 C 7.19 g/m*3 7.3 C 0 km/h
40 01-10-2018 03:15:00 7.4 C 7.24 g/m*3 7.4 C 0 km/h
41 01-10-2018 03:20:00 7.4 C 7.24 g/m*3 7.4 C 0 km/h
42 01-10-2018 03:25:00 7.4 C 7.24 g/m*3 7.4 C 0 km/h
43 01-10-2018 03:30:00 7.4 C 7.24 g/m*3 7.4 C 0 km/h
44 01-10-2018 03:35:00 7.4 C 7.24 g/m*3 7.4 C 0 km/h
45 01-10-2018 03:40:00 7.4 C 7.24 g/m*3 7.4 C 0 km/h
46 01-10-2018 03:45:00 7.4 C 7.24 g/m*3 7.4 C 0 km/h
47 01-10-2018 03:50:00 7.3 C 7.19 g/m*3 7.3 C 0 km/h
48 01-10-2018 03:55:00 7.3 C 7.11 g/m*3 7.3 C 0 km/h
49 01-10-2018 04:00:00 7.3 C 7.19 g/m*3 7.3 C 0 km/h
50 01-10-2018 04:05:00 7.2 C 7.14 g/m*3 7.2 C 0 km/h
Sensor: Nr:Datum:Temp:Abs-Feuchte:Windchill:Wind:
Aussen-T/F 51 01-10-2018 04:10:00 7.2 C 7.14 g/m*3 7.2 C 0 km/h
52 01-10-2018 04:15:00 7.3 C 7.19 g/m*3 7.3 C 0 km/h
53 01-10-2018 04:20:00 7.3 C 7.19 g/m*3 7.3 C 0 km/h
54 01-10-2018 04:25:00 7.3 C 7.19 g/m*3 7.3 C 0 km/h
55 01-10-2018 04:30:00 7.3 C 7.19 g/m*3 7.3 C 0 km/h
56 01-10-2018 04:35:00 7.3 C 7.19 g/m*3 7.3 C 0 km/h
57 01-10-2018 04:40:00 7.3 C 7.27 g/m*3 7.3 C 0 km/h
58 01-10-2018 04:45:00 7.3 C 7.27 g/m*3 7.3 C 0 km/h
59 01-10-2018 04:50:00 7.4 C 7.32 g/m*3 7.4 C 0 km/h
60 01-10-2018 04:55:00 7.4 C 7.32 g/m*3 7.4 C 0 km/h
61 01-10-2018 05:00:00 7.5 C 7.36 g/m*3 7.5 C 0 km/h
62 01-10-2018 05:05:00 7.6 C 7.41 g/m*3 7.6 C 0 km/h
63 01-10-2018 05:10:00 7.7 C 7.46 g/m*3 7.7 C 0 km/h
64 01-10-2018 05:15:00 7.8 C 7.51 g/m*3 7.8 C 0 km/h
65 01-10-2018 05:20:00 7.8 C 7.51 g/m*3 7.8 C 0 km/h
66 01-10-2018 05:25:00 7.9 C 7.56 g/m*3 7.9 C 0 km/h
67 01-10-2018 05:30:00 7.9 C 7.56 g/m*3 7.9 C 0 km/h
68 01-10-2018 05:35:00 7.9 C 7.56 g/m*3 7.9 C 0 km/h
69 01-10-2018 05:40:00 7.9 C 7.56 g/m*3 7.9 C 0 km/h
70 01-10-2018 05:45:00 8 C 7.61 g/m*3 8 C 0 km/h
71 01-10-2018 05:50:00 8 C 7.61 g/m*3 8 C 0 km/h
72 01-10-2018 05:55:00 8 C 7.61 g/m*3 8 C 0 km/h
73 01-10-2018 06:00:00 8.1 C 7.66 g/m*3 8.1 C 0 km/h
74 01-10-2018 06:05:00 8.1 C 7.66 g/m*3 8.1 C 0 km/h
75 01-10-2018 06:10:00 8.2 C 7.7 g/m*3 8.2 C 0 km/h
Sensor: Nr:Datum:Temp:Abs-Feuchte:Windchill:Wind:
Aussen-T/F 76 01-10-2018 06:15:00 8.2 C 7.7 g/m*3 8.2 C 0 km/h
77 01-10-2018 06:20:00 8.2 C 7.7 g/m*3 8.2 C 0 km/h
78 01-10-2018 06:25:00 8.2 C 7.7 g/m*3 8.2 C 0 km/h
79 01-10-2018 06:30:00 8.3 C 7.75 g/m*3 8.3 C 0 km/h
80 01-10-2018 06:35:00 8.3 C 7.75 g/m*3 8.3 C 0 km/h
81 01-10-2018 06:40:00 8.3 C 7.75 g/m*3 8.3 C 0 km/h
82 01-10-2018 06:45:00 8.3 C 7.75 g/m*3 8.3 C 0 km/h
83 01-10-2018 06:50:00 8.3 C 7.75 g/m*3 8.3 C 0 km/h
84 01-10-2018 06:55:00 8.3 C 7.75 g/m*3 8.3 C 0 km/h
85 01-10-2018 07:00:00 8.4 C 7.8 g/m*3 8.4 C 0 km/h
86 01-10-2018 07:05:00 8.5 C 7.85 g/m*3 8.5 C 0 km/h
87 01-10-2018 07:10:00 8.5 C 7.85 g/m*3 8.5 C 0 km/h
88 01-10-2018 07:15:00 8.6 C 7.91 g/m*3 8.6 C 0 km/h
89 01-10-2018 07:20:00 8.6 C 7.91 g/m*3 8.6 C 0 km/h
90 01-10-2018 07:25:00 8.6 C 7.91 g/m*3 8.6 C 0 km/h
91 01-10-2018 07:30:00 8.6 C 7.91 g/m*3 8.6 C 0 km/h
92 01-10-2018 07:35:00 8.5 C 7.77 g/m*3 8.5 C 0 km/h
93 01-10-2018 07:40:00 8.4 C 7.72 g/m*3 8.4 C 0 km/h
94 01-10-2018 07:45:00 8.4 C 7.72 g/m*3 8.4 C 0 km/h
95 01-10-2018 07:50:00 8.4 C 7.8 g/m*3 8.4 C 0 km/h
96 01-10-2018 07:55:00 8.4 C 7.8 g/m*3 8.4 C 0 km/h
97 01-10-2018 08:00:00 8.4 C 7.8 g/m*3 8.4 C 0 km/h
98 01-10-2018 08:05:00 8.4 C 7.8 g/m*3 8.4 C 0 km/h
99 01-10-2018 08:10:00 8.4 C 7.8 g/m*3 8.4 C 0 km/h
100 01-10-2018 08:15:00 8.5 C 7.85 g/m*3 8.5 C 0 km/h
Sensor: Nr:Datum:Temp:Abs-Feuchte:Windchill:Wind:
Aussen-T/F 101 01-10-2018 08:20:00 8.5 C 7.85 g/m*3 8.5 C 0 km/h
102 01-10-2018 08:25:00 8.5 C 7.85 g/m*3 8.5 C 0 km/h
103 01-10-2018 08:30:00 8.5 C 7.85 g/m*3 8.5 C 0 km/h
104 01-10-2018 08:35:00 8.7 C 7.96 g/m*3 8.7 C 0 km/h
105 01-10-2018 08:40:00 8.8 C 8.01 g/m*3 8.8 C 0 km/h
106 01-10-2018 08:45:00 8.9 C 8.06 g/m*3 8.9 C 0 km/h
107 01-10-2018 08:50:00 9 C 8.11 g/m*3 9 C 0 km/h
108 01-10-2018 08:55:00 9.1 C 8.16 g/m*3 9.1 C 0 km/h
109 01-10-2018 09:00:00 9.2 C 8.22 g/m*3 9.2 C 0 km/h
110 01-10-2018 09:05:00 9.3 C 8.27 g/m*3 9.3 C 0 km/h
111 01-10-2018 09:10:00 9.4 C 8.32 g/m*3 9.4 C 0 km/h
112 01-10-2018 09:15:00 9.5 C 8.37 g/m*3 9.5 C 0 km/h
113 01-10-2018 09:20:00 9.6 C 8.34 g/m*3 9.6 C 0 km/h
114 01-10-2018 09:25:00 9.7 C 8.39 g/m*3 9.7 C 0 km/h
115 01-10-2018 09:30:00 9.8 C 8.44 g/m*3 9.8 C 0 km/h
116 01-10-2018 09:35:00 9.8 C 8.44 g/m*3 9.8 C 0 km/h
117 01-10-2018 09:40:00 9.9 C 8.4 g/m*3 9.9 C 0 km/h
118 01-10-2018 09:45:00 10.1 C 8.42 g/m*3 10.1 C 0 km/h
119 01-10-2018 09:50:00 10.2 C 8.47 g/m*3 10.2 C 0 km/h
120 01-10-2018 09:55:00 10.3 C 8.52 g/m*3 10.3 C 0 km/h
121 01-10-2018 10:00:00 10.4 C 8.48 g/m*3 10.4 C 0 km/h
122 01-10-2018 10:05:00 10.6 C 8.49 g/m*3 9.14 C 11.3 km/h
123 01-10-2018 10:10:00 10.7 C 8.45 g/m*3 9.26 C 11.3 km/h
124 01-10-2018 10:15:00 10.8 C 8.4 g/m*3 10.29 C 6.4 km/h
125 01-10-2018 10:20:00 10.8 C 8.4 g/m*3 10.29 C 6.4 km/h
Sensor: Nr:Datum:Temp:Abs-Feuchte:Windchill:Wind:
Aussen-T/F 126 01-10-2018 10:25:00 10.9 C 8.45 g/m*3 10.04 C 8.1 km/h
127 01-10-2018 10:30:00 11.1 C 8.56 g/m*3 11.1 C 8.1 km/h
128 01-10-2018 10:35:00 11.2 C 8.51 g/m*3 11.2 C 9.7 km/h
129 01-10-2018 10:40:00 11.3 C 8.36 g/m*3 11.3 C 6.4 km/h
130 01-10-2018 10:45:00 11.3 C 8.36 g/m*3 11.3 C 9.7 km/h
131 01-10-2018 10:50:00 11.4 C 8.42 g/m*3 11.4 C 8.1 km/h
132 01-10-2018 10:55:00 11.4 C 8.31 g/m*3 11.4 C 8.1 km/h
133 01-10-2018 11:00:00 11.5 C 8.26 g/m*3 11.5 C 11.3 km/h
134 01-10-2018 11:05:00 11.6 C 8.32 g/m*3 11.6 C 6.4 km/h
135 01-10-2018 11:10:00 11.7 C 8.26 g/m*3 11.7 C 11.3 km/h
136 01-10-2018 11:15:00 11.8 C 8.31 g/m*3 11.8 C 8.1 km/h
137 01-10-2018 11:20:00 11.9 C 8.37 g/m*3 11.9 C 12.9 km/h
138 01-10-2018 11:25:00 12 C 8.42 g/m*3 12 C 11.3 km/h
139 01-10-2018 11:30:00 12.1 C 8.26 g/m*3 12.1 C 11.3 km/h
140 01-10-2018 11:35:00 12.1 C 8.04 g/m*3 12.1 C 9.7 km/h
141 01-10-2018 11:40:00 12.1 C 7.94 g/m*3 12.1 C 12.9 km/h
142 01-10-2018 11:45:00 12 C 7.99 g/m*3 12 C 9.7 km/h
143 01-10-2018 11:50:00 12 C 7.99 g/m*3 12 C 11.3 km/h
144 01-10-2018 11:55:00 12.2 C 8.2 g/m*3 12.2 C 12.9 km/h
145 01-10-2018 12:00:00 12.4 C 8.09 g/m*3 12.4 C 12.9 km/h
146 01-10-2018 12:05:00 12.7 C 7.79 g/m*3 12.7 C 16.1 km/h
147 01-10-2018 12:10:00 12.8 C 7.84 g/m*3 12.8 C 11.3 km/h
148 01-10-2018 12:15:00 12.8 C 7.62 g/m*3 12.8 C 17.7 km/h
149 01-10-2018 12:20:00 12.9 C 7.78 g/m*3 12.9 C 12.9 km/h
150 01-10-2018 12:25:00 13 C 7.83 g/m*3 13 C 12.9 km/h
Sensor: Nr:Datum:Temp:Abs-Feuchte:Windchill:Wind:
Aussen-T/F 151 01-10-2018 12:30:00 12.9 C 7.78 g/m*3 12.9 C 6.4 km/h
152 01-10-2018 12:35:00 12.8 C 7.84 g/m*3 12.8 C 8.1 km/h
153 01-10-2018 12:40:00 12.8 C 8.06 g/m*3 12.8 C 6.4 km/h
154 01-10-2018 12:45:00 12.7 C 8.01 g/m*3 12.7 C 9.7 km/h
155 01-10-2018 12:50:00 12.7 C 8.01 g/m*3 12.7 C 6.4 km/h
156 01-10-2018 12:55:00 12.6 C 7.97 g/m*3 12.6 C 4.8 km/h
157 01-10-2018 13:00:00 12.8 C 8.06 g/m*3 12.8 C 6.4 km/h
158 01-10-2018 13:05:00 12.9 C 7.89 g/m*3 12.9 C 12.9 km/h
159 01-10-2018 13:10:00 12.8 C 7.73 g/m*3 12.8 C 16.1 km/h
160 01-10-2018 13:15:00 12.7 C 7.9 g/m*3 12.7 C 8.1 km/h
161 01-10-2018 13:20:00 12.7 C 7.9 g/m*3 12.7 C 12.9 km/h
162 01-10-2018 13:25:00 12.7 C 7.79 g/m*3 12.7 C 11.3 km/h
163 01-10-2018 13:30:00 12.7 C 7.68 g/m*3 12.7 C 9.7 km/h
164 01-10-2018 13:35:00 12.8 C 7.84 g/m*3 12.8 C 14.5 km/h
165 01-10-2018 13:40:00 12.9 C 7.89 g/m*3 12.9 C 11.3 km/h
166 01-10-2018 13:45:00 13 C 7.48 g/m*3 13 C 12.9 km/h
167 01-10-2018 13:50:00 13.2 C 7.58 g/m*3 13.2 C 11.3 km/h
168 01-10-2018 13:55:00 13.4 C 7.56 g/m*3 13.4 C 11.3 km/h
169 01-10-2018 14:00:00 13.7 C 7.34 g/m*3 13.7 C 16.1 km/h
170 01-10-2018 14:05:00 13.8 C 7.15 g/m*3 13.8 C 12.9 km/h
171 01-10-2018 14:10:00 13.8 C 7.27 g/m*3 13.8 C 12.9 km/h
172 01-10-2018 14:15:00 14 C 7.24 g/m*3 14 C 8.1 km/h
173 01-10-2018 14:20:00 14.1 C 7.28 g/m*3 14.1 C 12.9 km/h
174 01-10-2018 14:25:00 14 C 7.48 g/m*3 14 C 20.9 km/h
175 01-10-2018 14:30:00 13.3 C 8.09 g/m*3 13.3 C 20.9 km/h
Sensor: Nr:Datum:Temp:Abs-Feuchte:Windchill:Wind:
Aussen-T/F 176 01-10-2018 14:35:00 12.6 C 8.3 g/m*3 12.6 C 11.3 km/h
177 01-10-2018 14:40:00 11.9 C 8.15 g/m*3 11.9 C 11.3 km/h
178 01-10-2018 14:45:00 11.6 C 8 g/m*3 11.6 C 16.1 km/h
179 01-10-2018 14:50:00 11.6 C 8.11 g/m*3 11.6 C 6.4 km/h
180 01-10-2018 14:55:00 11.8 C 8.31 g/m*3 11.8 C 12.9 km/h
181 01-10-2018 15:00:00 12 C 7.99 g/m*3 12 C 9.7 km/h
182 01-10-2018 15:05:00 12.3 C 7.82 g/m*3 12.3 C 16.1 km/h
183 01-10-2018 15:10:00 12.6 C 7.97 g/m*3 12.6 C 16.1 km/h
184 01-10-2018 15:15:00 12.7 C 7.9 g/m*3 12.7 C 16.1 km/h
185 01-10-2018 15:20:00 12.8 C 7.84 g/m*3 12.8 C 17.7 km/h
186 01-10-2018 15:25:00 12.7 C 7.68 g/m*3 12.7 C 9.7 km/h
187 01-10-2018 15:30:00 12.7 C 7.68 g/m*3 12.7 C 12.9 km/h
188 01-10-2018 15:35:00 12.8 C 7.73 g/m*3 12.8 C 11.3 km/h
189 01-10-2018 15:40:00 12.8 C 7.95 g/m*3 12.8 C 25.7 km/h
190 01-10-2018 15:45:00 12.6 C 7.74 g/m*3 12.6 C 29 km/h
191 01-10-2018 15:50:00 12.4 C 7.87 g/m*3 12.4 C 16.1 km/h
192 01-10-2018 15:55:00 12.2 C 7.77 g/m*3 12.2 C 14.5 km/h
193 01-10-2018 16:00:00 11.9 C 7.63 g/m*3 11.9 C 17.7 km/h
194 01-10-2018 16:05:00 11.7 C 7.64 g/m*3 11.7 C 16.1 km/h
195 01-10-2018 16:10:00 11.6 C 7.59 g/m*3 11.6 C 14.5 km/h
196 01-10-2018 16:15:00 11.5 C 7.64 g/m*3 11.5 C 9.7 km/h
197 01-10-2018 16:20:00 11.5 C 7.54 g/m*3 11.5 C 14.5 km/h
198 01-10-2018 16:25:00 11.4 C 7.39 g/m*3 11.4 C 17.7 km/h
199 01-10-2018 16:30:00 11.4 C 7.39 g/m*3 11.4 C 11.3 km/h
200 01-10-2018 16:35:00 11.4 C 7.49 g/m*3 11.4 C 12.9 km/h
Sensor: Nr:Datum:Temp:Abs-Feuchte:Windchill:Wind:
Aussen-T/F 201 01-10-2018 16:40:00 11.6 C 7.48 g/m*3 11.6 C 14.5 km/h
202 01-10-2018 16:45:00 11.6 C 7.38 g/m*3 11.6 C 16.1 km/h
203 01-10-2018 16:50:00 11.7 C 7.53 g/m*3 11.7 C 14.5 km/h
204 01-10-2018 16:55:00 11.6 C 7.48 g/m*3 11.6 C 9.7 km/h
205 01-10-2018 17:00:00 11.6 C 7.48 g/m*3 11.6 C 9.7 km/h
206 01-10-2018 17:05:00 11.6 C 7.59 g/m*3 11.6 C 6.4 km/h
207 01-10-2018 17:10:00 11.4 C 7.19 g/m*3 11.4 C 24.1 km/h
208 01-10-2018 17:15:00 11.4 C 7.29 g/m*3 11.4 C 9.7 km/h
209 01-10-2018 17:20:00 11.3 C 7.24 g/m*3 11.3 C 6.4 km/h
210 01-10-2018 17:25:00 11.3 C 7.14 g/m*3 11.3 C 14.5 km/h
211 01-10-2018 17:30:00 11.2 C 7.1 g/m*3 11.2 C 11.3 km/h
212 01-10-2018 17:35:00 11.1 C 7.15 g/m*3 11.1 C 9.7 km/h
213 01-10-2018 17:40:00 11 C 7.11 g/m*3 8.86 C 17.7 km/h
214 01-10-2018 17:45:00 10.9 C 7.06 g/m*3 8.43 C 20.9 km/h
215 01-10-2018 17:50:00 10.8 C 7.12 g/m*3 8.3 C 20.9 km/h
216 01-10-2018 17:55:00 10.7 C 7.07 g/m*3 10.18 C 6.4 km/h
217 01-10-2018 18:00:00 10.6 C 7.12 g/m*3 10.06 C 6.4 km/h
218 01-10-2018 18:05:00 10.6 C 6.73 g/m*3 10.06 C 6.4 km/h
219 01-10-2018 18:10:00 10.6 C 6.73 g/m*3 10.6 C 4.8 km/h
220 01-10-2018 18:15:00 10.9 C 7.16 g/m*3 10.9 C 1.6 km/h
221 01-10-2018 18:20:00 11.2 C 7.1 g/m*3 11.2 C 1.6 km/h
222 01-10-2018 18:25:00 11.3 C 6.94 g/m*3 11.3 C 3.2 km/h
223 01-10-2018 18:30:00 11.4 C 7.19 g/m*3 11.4 C 1.6 km/h
224 01-10-2018 18:35:00 11.4 C 7.29 g/m*3 11.4 C 0 km/h
225 01-10-2018 18:40:00 11.3 C 7.34 g/m*3 11.3 C 0 km/h
Sensor: Nr:Datum:Temp:Abs-Feuchte:Windchill:Wind:
Aussen-T/F 226 01-10-2018 18:45:00 11.1 C 7.35 g/m*3 11.1 C 0 km/h
227 01-10-2018 18:50:00 10.9 C 7.36 g/m*3 10.9 C 0 km/h
228 01-10-2018 18:55:00 10.7 C 7.37 g/m*3 10.7 C 0 km/h
229 01-10-2018 19:00:00 10.5 C 7.37 g/m*3 10.5 C 0 km/h
230 01-10-2018 19:05:00 10.3 C 7.37 g/m*3 10.3 C 0 km/h
231 01-10-2018 19:10:00 10.1 C 7.38 g/m*3 10.1 C 0 km/h
232 01-10-2018 19:15:00 9.9 C 7.28 g/m*3 9.9 C 0 km/h
233 01-10-2018 19:20:00 9.8 C 7.33 g/m*3 8.75 C 8.1 km/h
234 01-10-2018 19:25:00 9.8 C 7.14 g/m*3 9.14 C 6.4 km/h
235 01-10-2018 19:30:00 9.8 C 7.05 g/m*3 9.8 C 0 km/h
236 01-10-2018 19:35:00 9.9 C 7.19 g/m*3 9.9 C 4.8 km/h
237 01-10-2018 19:40:00 9.8 C 7.14 g/m*3 9.8 C 1.6 km/h
238 01-10-2018 19:45:00 9.8 C 7.14 g/m*3 8.18 C 11.3 km/h
239 01-10-2018 19:50:00 9.8 C 7.05 g/m*3 9.14 C 6.4 km/h
240 01-10-2018 19:55:00 9.8 C 7.05 g/m*3 8.45 C 9.7 km/h
241 01-10-2018 20:00:00 9.8 C 6.96 g/m*3 9.14 C 6.4 km/h
242 01-10-2018 20:05:00 9.9 C 6.91 g/m*3 9.9 C 4.8 km/h
243 01-10-2018 20:10:00 9.9 C 6.82 g/m*3 9.9 C 4.8 km/h
244 01-10-2018 20:15:00 9.9 C 6.82 g/m*3 8.3 C 11.3 km/h
245 01-10-2018 20:20:00 9.9 C 6.82 g/m*3 8.3 C 11.3 km/h
246 01-10-2018 20:25:00 9.8 C 6.77 g/m*3 8.18 C 11.3 km/h
247 01-10-2018 20:30:00 9.8 C 6.77 g/m*3 9.8 C 4.8 km/h
248 01-10-2018 20:35:00 9.8 C 6.87 g/m*3 9.8 C 4.8 km/h
249 01-10-2018 20:40:00 9.8 C 6.87 g/m*3 8.18 C 11.3 km/h
250 01-10-2018 20:45:00 9.8 C 6.87 g/m*3 8.18 C 11.3 km/h
Sensor: Nr:Datum:Temp:Abs-Feuchte:Windchill:Wind:
Aussen-T/F 251 01-10-2018 20:50:00 9.8 C 6.87 g/m*3 7.73 C 14.5 km/h
252 01-10-2018 20:55:00 9.8 C 6.96 g/m*3 7.94 C 12.9 km/h
253 01-10-2018 21:00:00 9.8 C 6.96 g/m*3 7.73 C 14.5 km/h
254 01-10-2018 21:05:00 9.8 C 7.05 g/m*3 8.45 C 9.7 km/h
255 01-10-2018 21:10:00 9.7 C 7.01 g/m*3 8.63 C 8.1 km/h
256 01-10-2018 21:15:00 9.7 C 7.01 g/m*3 8.06 C 11.3 km/h
257 01-10-2018 21:20:00 9.6 C 6.96 g/m*3 9.6 C 4.8 km/h
258 01-10-2018 21:25:00 9.6 C 6.96 g/m*3 9.6 C 4.8 km/h
259 01-10-2018 21:30:00 9.4 C 6.87 g/m*3 8.68 C 6.4 km/h
260 01-10-2018 21:35:00 9.4 C 6.87 g/m*3 8.68 C 6.4 km/h
261 01-10-2018 21:40:00 9.3 C 6.83 g/m*3 8.56 C 6.4 km/h
262 01-10-2018 21:45:00 9.2 C 6.79 g/m*3 9.2 C 3.2 km/h
263 01-10-2018 21:50:00 9.1 C 6.83 g/m*3 7.33 C 11.3 km/h
264 01-10-2018 21:55:00 8.9 C 6.75 g/m*3 8.1 C 6.4 km/h
265 01-10-2018 22:00:00 8.8 C 6.79 g/m*3 7.58 C 8.1 km/h
266 01-10-2018 22:05:00 8.8 C 6.79 g/m*3 8.8 C 4.8 km/h
267 01-10-2018 22:10:00 8.8 C 6.88 g/m*3 8.8 C 3.2 km/h
268 01-10-2018 22:15:00 8.7 C 6.83 g/m*3 8.7 C 4.8 km/h
269 01-10-2018 22:20:00 8.7 C 6.92 g/m*3 7.87 C 6.4 km/h
270 01-10-2018 22:25:00 8.6 C 6.87 g/m*3 8.6 C 4.8 km/h
271 01-10-2018 22:30:00 8.5 C 6.83 g/m*3 8.5 C 4.8 km/h
272 01-10-2018 22:35:00 8.3 C 6.74 g/m*3 8.3 C 1.6 km/h
273 01-10-2018 22:40:00 8.2 C 6.78 g/m*3 8.2 C 3.2 km/h
274 01-10-2018 22:45:00 8.1 C 6.82 g/m*3 6.75 C 8.1 km/h
275 01-10-2018 22:50:00 8 C 6.78 g/m*3 8 C 1.6 km/h
Sensor: Nr:Datum:Temp:Abs-Feuchte:Windchill:Wind:
Aussen-T/F 276 01-10-2018 22:55:00 7.9 C 6.74 g/m*3 7.9 C 1.6 km/h
277 01-10-2018 23:00:00 7.8 C 6.77 g/m*3 7.8 C 4.8 km/h
278 01-10-2018 23:05:00 7.8 C 6.77 g/m*3 7.8 C 3.2 km/h
279 01-10-2018 23:10:00 7.7 C 6.73 g/m*3 7.7 C 0 km/h
280 01-10-2018 23:15:00 7.5 C 6.64 g/m*3 7.5 C 0 km/h
281 01-10-2018 23:20:00 7.3 C 6.64 g/m*3 7.3 C 0 km/h
282 01-10-2018 23:25:00 7.2 C 6.59 g/m*3 7.2 C 0 km/h
283 01-10-2018 23:30:00 7.1 C 6.63 g/m*3 7.1 C 0 km/h
284 01-10-2018 23:35:00 7 C 6.66 g/m*3 7 C 0 km/h
285 01-10-2018 23:40:00 6.9 C 6.62 g/m*3 6.9 C 1.6 km/h
286 01-10-2018 23:45:00 6.9 C 6.62 g/m*3 6.9 C 0 km/h
287 01-10-2018 23:50:00 6.8 C 6.65 g/m*3 6.8 C 0 km/h
288 01-10-2018 23:55:00 6.8 C 6.65 g/m*3 6.8 C 0 km/h
289 02-10-2018 00:00:00 6.8 C 6.65 g/m*3 6.8 C 1.6 km/h
290 02-10-2018 00:05:00 6.8 C 6.65 g/m*3 6.8 C 0 km/h
291 02-10-2018 00:10:00 6.8 C 6.65 g/m*3 6.8 C 0 km/h
292 02-10-2018 00:15:00 6.8 C 6.65 g/m*3 6.8 C 0 km/h
293 02-10-2018 00:20:00 6.8 C 6.65 g/m*3 6.8 C 0 km/h
294 02-10-2018 00:25:00 6.9 C 6.77 g/m*3 6.9 C 0 km/h
295 02-10-2018 00:30:00 7 C 6.74 g/m*3 7 C 0 km/h
296 02-10-2018 00:35:00 7.1 C 6.79 g/m*3 7.1 C 0 km/h
297 02-10-2018 00:40:00 7.1 C 6.79 g/m*3 7.1 C 0 km/h
298 02-10-2018 00:45:00 7.2 C 6.83 g/m*3 7.2 C 0 km/h
299 02-10-2018 00:50:00 7.2 C 6.83 g/m*3 7.2 C 0 km/h
300 02-10-2018 00:55:00 7.2 C 6.83 g/m*3 7.2 C 0 km/h
Sensor: Nr:Datum:Temp:Abs-Feuchte:Windchill:Wind:
Aussen-T/F 301 02-10-2018 01:00:00 7.2 C 6.83 g/m*3 7.2 C 0 km/h
302 02-10-2018 01:05:00 7.2 C 6.83 g/m*3 7.2 C 1.6 km/h
303 02-10-2018 01:10:00 7.2 C 6.83 g/m*3 7.2 C 0 km/h
304 02-10-2018 01:15:00 7.2 C 6.83 g/m*3 7.2 C 0 km/h
305 02-10-2018 01:20:00 7.2 C 6.83 g/m*3 7.2 C 0 km/h
306 02-10-2018 01:25:00 7.3 C 6.87 g/m*3 7.3 C 0 km/h
307 02-10-2018 01:30:00 7.3 C 6.87 g/m*3 7.3 C 0 km/h
308 02-10-2018 01:35:00 7.3 C 6.87 g/m*3 7.3 C 3.2 km/h
309 02-10-2018 01:40:00 7.3 C 6.87 g/m*3 7.3 C 0 km/h
310 02-10-2018 01:45:00 7.3 C 6.87 g/m*3 7.3 C 0 km/h
311 02-10-2018 01:50:00 7.3 C 6.87 g/m*3 7.3 C 0 km/h
312 02-10-2018 01:55:00 7.3 C 6.79 g/m*3 7.3 C 4.8 km/h
313 02-10-2018 02:00:00 7.4 C 6.84 g/m*3 7.4 C 1.6 km/h
314 02-10-2018 02:05:00 7.5 C 6.88 g/m*3 7.5 C 1.6 km/h
315 02-10-2018 02:10:00 7.6 C 6.93 g/m*3 7.6 C 4.8 km/h
316 02-10-2018 02:15:00 7.6 C 6.93 g/m*3 7.6 C 1.6 km/h
317 02-10-2018 02:20:00 7.7 C 7.05 g/m*3 7.7 C 3.2 km/h
318 02-10-2018 02:25:00 7.7 C 7.05 g/m*3 7.7 C 0 km/h
319 02-10-2018 02:30:00 7.7 C 7.05 g/m*3 7.7 C 1.6 km/h
320 02-10-2018 02:35:00 7.7 C 7.05 g/m*3 7.7 C 1.6 km/h
321 02-10-2018 02:40:00 7.7 C 7.05 g/m*3 7.7 C 4.8 km/h
322 02-10-2018 02:45:00 7.7 C 7.05 g/m*3 7.7 C 0 km/h
323 02-10-2018 02:50:00 7.7 C 7.14 g/m*3 7.7 C 4.8 km/h
324 02-10-2018 02:55:00 7.7 C 7.14 g/m*3 7.7 C 1.6 km/h
325 02-10-2018 03:00:00 7.7 C 7.05 g/m*3 7.7 C 0 km/h
Sensor: Nr:Datum:Temp:Abs-Feuchte:Windchill:Wind:
Aussen-T/F 326 02-10-2018 03:05:00 7.6 C 7.01 g/m*3 7.6 C 1.6 km/h
327 02-10-2018 03:10:00 7.6 C 7.01 g/m*3 7.6 C 0 km/h
328 02-10-2018 03:15:00 7.6 C 7.01 g/m*3 7.6 C 4.8 km/h
329 02-10-2018 03:20:00 7.6 C 7.01 g/m*3 7.6 C 1.6 km/h
330 02-10-2018 03:25:00 7.6 C 7.01 g/m*3 7.6 C 1.6 km/h
331 02-10-2018 03:30:00 7.6 C 7.01 g/m*3 7.6 C 4.8 km/h
332 02-10-2018 03:35:00 7.6 C 7.01 g/m*3 7.6 C 1.6 km/h
333 02-10-2018 03:40:00 7.6 C 7.01 g/m*3 7.6 C 3.2 km/h
334 02-10-2018 03:45:00 7.6 C 6.93 g/m*3 7.6 C 3.2 km/h
335 02-10-2018 03:50:00 7.7 C 6.97 g/m*3 7.7 C 3.2 km/h
336 02-10-2018 03:55:00 7.7 C 6.97 g/m*3 7.7 C 3.2 km/h
337 02-10-2018 04:00:00 7.7 C 6.97 g/m*3 7.7 C 3.2 km/h
338 02-10-2018 04:05:00 7.7 C 6.89 g/m*3 6.28 C 8.1 km/h
339 02-10-2018 04:10:00 7.8 C 6.94 g/m*3 6.06 C 9.7 km/h
340 02-10-2018 04:15:00 7.7 C 6.89 g/m*3 7.7 C 3.2 km/h
341 02-10-2018 04:20:00 7.8 C 6.94 g/m*3 7.8 C 3.2 km/h
342 02-10-2018 04:25:00 7.7 C 6.89 g/m*3 7.7 C 3.2 km/h
343 02-10-2018 04:30:00 7.7 C 6.89 g/m*3 7.7 C 1.6 km/h
344 02-10-2018 04:35:00 7.7 C 6.89 g/m*3 7.7 C 3.2 km/h
345 02-10-2018 04:40:00 7.8 C 6.94 g/m*3 7.8 C 4.8 km/h
346 02-10-2018 04:45:00 7.8 C 6.94 g/m*3 6.83 C 6.4 km/h
347 02-10-2018 04:50:00 7.8 C 6.94 g/m*3 7.8 C 1.6 km/h
348 02-10-2018 04:55:00 7.8 C 6.94 g/m*3 7.8 C 1.6 km/h
349 02-10-2018 05:00:00 7.8 C 6.94 g/m*3 7.8 C 1.6 km/h
350 02-10-2018 05:05:00 7.8 C 6.94 g/m*3 7.8 C 1.6 km/h
Sensor: Nr:Datum:Temp:Abs-Feuchte:Windchill:Wind:
Aussen-T/F 351 02-10-2018 05:10:00 7.7 C 6.89 g/m*3 7.7 C 1.6 km/h
352 02-10-2018 05:15:00 7.7 C 6.89 g/m*3 7.7 C 1.6 km/h
353 02-10-2018 05:20:00 7.7 C 6.89 g/m*3 7.7 C 1.6 km/h
354 02-10-2018 05:25:00 7.7 C 6.89 g/m*3 7.7 C 0 km/h
355 02-10-2018 05:30:00 7.7 C 6.89 g/m*3 7.7 C 4.8 km/h
356 02-10-2018 05:35:00 7.7 C 6.89 g/m*3 6.71 C 6.4 km/h
357 02-10-2018 05:40:00 7.7 C 6.89 g/m*3 7.7 C 4.8 km/h
358 02-10-2018 05:45:00 7.7 C 6.89 g/m*3 7.7 C 3.2 km/h
359 02-10-2018 05:50:00 7.7 C 6.89 g/m*3 6.71 C 6.4 km/h
360 02-10-2018 05:55:00 7.7 C 6.89 g/m*3 6.71 C 6.4 km/h
361 02-10-2018 06:00:00 7.7 C 6.89 g/m*3 7.7 C 3.2 km/h
362 02-10-2018 06:05:00 7.7 C 6.89 g/m*3 6.71 C 6.4 km/h
363 02-10-2018 06:10:00 7.7 C 6.89 g/m*3 7.7 C 4.8 km/h
364 02-10-2018 06:15:00 7.7 C 6.89 g/m*3 6.28 C 8.1 km/h
365 02-10-2018 06:20:00 7.7 C 6.89 g/m*3 6.28 C 8.1 km/h
366 02-10-2018 06:25:00 7.8 C 6.94 g/m*3 7.8 C 4.8 km/h
367 02-10-2018 06:30:00 7.8 C 6.94 g/m*3 6.4 C 8.1 km/h
368 02-10-2018 06:35:00 7.8 C 6.94 g/m*3 6.06 C 9.7 km/h
369 02-10-2018 06:40:00 7.8 C 6.94 g/m*3 6.4 C 8.1 km/h
370 02-10-2018 06:45:00 7.8 C 6.94 g/m*3 6.83 C 6.4 km/h
371 02-10-2018 06:50:00 7.8 C 6.94 g/m*3 5.27 C 14.5 km/h
372 02-10-2018 06:55:00 7.8 C 6.94 g/m*3 5.51 C 12.9 km/h
373 02-10-2018 07:00:00 7.8 C 6.94 g/m*3 5.51 C 12.9 km/h
374 02-10-2018 07:05:00 7.8 C 6.94 g/m*3 6.83 C 6.4 km/h
375 02-10-2018 07:10:00 7.8 C 6.94 g/m*3 6.06 C 9.7 km/h
Sensor: Nr:Datum:Temp:Abs-Feuchte:Windchill:Wind:
Aussen-T/F 376 02-10-2018 07:15:00 7.8 C 6.94 g/m*3 6.06 C 9.7 km/h
377 02-10-2018 07:20:00 7.8 C 6.94 g/m*3 5.77 C 11.3 km/h
378 02-10-2018 07:25:00 7.8 C 6.94 g/m*3 6.83 C 6.4 km/h
379 02-10-2018 07:30:00 7.8 C 6.94 g/m*3 6.06 C 9.7 km/h
380 02-10-2018 07:35:00 7.9 C 6.98 g/m*3 5.89 C 11.3 km/h
381 02-10-2018 07:40:00 7.9 C 6.98 g/m*3 6.52 C 8.1 km/h
382 02-10-2018 07:45:00 7.9 C 6.98 g/m*3 5.63 C 12.9 km/h
383 02-10-2018 07:50:00 8 C 7.03 g/m*3 6.64 C 8.1 km/h
384 02-10-2018 07:55:00 8.1 C 7.07 g/m*3 8.1 C 4.8 km/h
385 02-10-2018 08:00:00 8.1 C 6.99 g/m*3 6.13 C 11.3 km/h
386 02-10-2018 08:05:00 8.2 C 7.03 g/m*3 6.54 C 9.7 km/h
387 02-10-2018 08:10:00 8.2 C 7.03 g/m*3 7.29 C 6.4 km/h
388 02-10-2018 08:15:00 8.2 C 7.03 g/m*3 6.87 C 8.1 km/h
389 02-10-2018 08:20:00 8.2 C 6.95 g/m*3 6.54 C 9.7 km/h
390 02-10-2018 08:25:00 8.3 C 7 g/m*3 6.37 C 11.3 km/h
391 02-10-2018 08:30:00 8.3 C 7 g/m*3 6.37 C 11.3 km/h
392 02-10-2018 08:35:00 8.4 C 7.04 g/m*3 6.49 C 11.3 km/h
393 02-10-2018 08:40:00 8.4 C 7.04 g/m*3 6.24 C 12.9 km/h
394 02-10-2018 08:45:00 8.4 C 7.04 g/m*3 6.78 C 9.7 km/h
395 02-10-2018 08:50:00 8.5 C 7.09 g/m*3 6.9 C 9.7 km/h
396 02-10-2018 08:55:00 8.6 C 7.05 g/m*3 6.48 C 12.9 km/h
397 02-10-2018 09:00:00 8.7 C 7.09 g/m*3 7.13 C 9.7 km/h
398 02-10-2018 09:05:00 8.7 C 7.09 g/m*3 6.85 C 11.3 km/h
399 02-10-2018 09:10:00 8.7 C 7.09 g/m*3 6.6 C 12.9 km/h
400 02-10-2018 09:15:00 8.7 C 7.01 g/m*3 6.85 C 11.3 km/h
Sensor: Nr:Datum:Temp:Abs-Feuchte:Windchill:Wind:
Aussen-T/F 401 02-10-2018 09:20:00 8.8 C 6.96 g/m*3 6.11 C 17.7 km/h
402 02-10-2018 09:25:00 8.8 C 6.96 g/m*3 6.3 C 16.1 km/h
403 02-10-2018 09:30:00 8.8 C 6.96 g/m*3 7.25 C 9.7 km/h
404 02-10-2018 09:35:00 8.8 C 6.96 g/m*3 5.77 C 20.9 km/h
405 02-10-2018 09:40:00 8.8 C 7.05 g/m*3 5.62 C 22.5 km/h
406 02-10-2018 09:45:00 8.9 C 7.1 g/m*3 6.85 C 12.9 km/h
407 02-10-2018 09:50:00 8.9 C 7.1 g/m*3 6.62 C 14.5 km/h
408 02-10-2018 09:55:00 8.9 C 7.18 g/m*3 7.37 C 9.7 km/h
409 02-10-2018 10:00:00 8.8 C 7.22 g/m*3 5.93 C 19.3 km/h
410 02-10-2018 10:05:00 8.7 C 7.18 g/m*3 6.85 C 11.3 km/h
411 02-10-2018 10:10:00 8.7 C 7.18 g/m*3 6.6 C 12.9 km/h
412 02-10-2018 10:15:00 8.7 C 7.18 g/m*3 6.38 C 14.5 km/h
413 02-10-2018 10:20:00 8.8 C 7.31 g/m*3 6.11 C 17.7 km/h
414 02-10-2018 10:25:00 8.8 C 7.4 g/m*3 6.3 C 16.1 km/h
415 02-10-2018 10:30:00 8.8 C 7.49 g/m*3 6.72 C 12.9 km/h
416 02-10-2018 10:35:00 8.7 C 7.52 g/m*3 6.17 C 16.1 km/h
417 02-10-2018 10:40:00 8.7 C 7.52 g/m*3 6.17 C 16.1 km/h
418 02-10-2018 10:45:00 8.6 C 7.56 g/m*3 6.73 C 11.3 km/h
419 02-10-2018 10:50:00 8.6 C 7.56 g/m*3 5.68 C 19.3 km/h
420 02-10-2018 10:55:00 8.5 C 7.51 g/m*3 5.73 C 17.7 km/h
421 02-10-2018 11:00:00 8.4 C 7.47 g/m*3 6.24 C 12.9 km/h
422 02-10-2018 11:05:00 8.4 C 7.38 g/m*3 5.8 C 16.1 km/h
423 02-10-2018 11:10:00 8.4 C 7.47 g/m*3 5.8 C 16.1 km/h
424 02-10-2018 11:15:00 8.4 C 7.47 g/m*3 6.49 C 11.3 km/h
425 02-10-2018 11:20:00 8.5 C 7.6 g/m*3 7.22 C 8.1 km/h
Sensor: Nr:Datum:Temp:Abs-Feuchte:Windchill:Wind:
Aussen-T/F 426 02-10-2018 11:25:00 8.6 C 7.65 g/m*3 6.73 C 11.3 km/h
427 02-10-2018 11:30:00 8.6 C 7.56 g/m*3 6.25 C 14.5 km/h
428 02-10-2018 11:35:00 8.6 C 7.56 g/m*3 5.68 C 19.3 km/h
429 02-10-2018 11:40:00 8.6 C 7.56 g/m*3 6.48 C 12.9 km/h
430 02-10-2018 11:45:00 8.6 C 7.56 g/m*3 7.01 C 9.7 km/h
431 02-10-2018 11:50:00 8.6 C 7.56 g/m*3 8.6 C 4.8 km/h
432 02-10-2018 11:55:00 8.7 C 7.61 g/m*3 7.46 C 8.1 km/h
433 02-10-2018 12:00:00 8.7 C 7.61 g/m*3 6.85 C 11.3 km/h
434 02-10-2018 12:05:00 8.7 C 7.52 g/m*3 6.6 C 12.9 km/h
435 02-10-2018 12:10:00 8.7 C 7.52 g/m*3 7.13 C 9.7 km/h
436 02-10-2018 12:15:00 8.7 C 7.61 g/m*3 7.46 C 8.1 km/h
437 02-10-2018 12:20:00 8.7 C 7.61 g/m*3 7.13 C 9.7 km/h
438 02-10-2018 12:25:00 8.7 C 7.61 g/m*3 8.7 C 4.8 km/h
439 02-10-2018 12:30:00 8.8 C 7.57 g/m*3 7.25 C 9.7 km/h
440 02-10-2018 12:35:00 8.8 C 7.66 g/m*3 5.62 C 22.5 km/h
441 02-10-2018 12:40:00 8.8 C 7.75 g/m*3 6.97 C 11.3 km/h
442 02-10-2018 12:45:00 8.8 C 7.75 g/m*3 7.58 C 8.1 km/h
443 02-10-2018 12:50:00 8.8 C 7.83 g/m*3 6.72 C 12.9 km/h
444 02-10-2018 12:55:00 8.8 C 7.83 g/m*3 6.72 C 12.9 km/h
445 02-10-2018 13:00:00 8.8 C 7.92 g/m*3 6.72 C 12.9 km/h
446 02-10-2018 13:05:00 8.8 C 7.92 g/m*3 6.97 C 11.3 km/h
447 02-10-2018 13:10:00 8.7 C 7.78 g/m*3 6.38 C 14.5 km/h
448 02-10-2018 13:15:00 8.7 C 7.87 g/m*3 6.85 C 11.3 km/h
449 02-10-2018 13:20:00 8.7 C 7.87 g/m*3 7.13 C 9.7 km/h
450 02-10-2018 13:25:00 8.7 C 7.87 g/m*3 5.98 C 17.7 km/h
Sensor: Nr:Datum:Temp:Abs-Feuchte:Windchill:Wind:
Aussen-T/F 451 02-10-2018 13:30:00 8.7 C 7.87 g/m*3 7.46 C 8.1 km/h
452 02-10-2018 13:35:00 8.7 C 7.87 g/m*3 6.6 C 12.9 km/h
453 02-10-2018 13:40:00 8.7 C 7.87 g/m*3 6.17 C 16.1 km/h
454 02-10-2018 13:45:00 8.8 C 7.92 g/m*3 6.5 C 14.5 km/h
455 02-10-2018 13:50:00 8.9 C 7.97 g/m*3 6.62 C 14.5 km/h
456 02-10-2018 13:55:00 8.9 C 7.97 g/m*3 6.85 C 12.9 km/h
457 02-10-2018 14:00:00 8.9 C 7.97 g/m*3 6.23 C 17.7 km/h
458 02-10-2018 14:05:00 9 C 8.02 g/m*3 6.97 C 12.9 km/h
459 02-10-2018 14:10:00 9.1 C 8.07 g/m*3 7.09 C 12.9 km/h
460 02-10-2018 14:15:00 9.2 C 8.13 g/m*3 6.79 C 16.1 km/h
461 02-10-2018 14:20:00 9.2 C 8.13 g/m*3 5.86 C 25.7 km/h
462 02-10-2018 14:25:00 9.2 C 8.04 g/m*3 6.28 C 20.9 km/h
463 02-10-2018 14:30:00 9.3 C 8.09 g/m*3 6.41 C 20.9 km/h
464 02-10-2018 14:35:00 9.3 C 8.09 g/m*3 6.56 C 19.3 km/h
465 02-10-2018 14:40:00 9.3 C 8.09 g/m*3 6.73 C 17.7 km/h
466 02-10-2018 14:45:00 9.4 C 8.14 g/m*3 7.24 C 14.5 km/h
467 02-10-2018 14:50:00 9.4 C 8.14 g/m*3 6.86 C 17.7 km/h
468 02-10-2018 14:55:00 9.6 C 8.24 g/m*3 6.79 C 20.9 km/h
469 02-10-2018 15:00:00 9.6 C 8.24 g/m*3 6.94 C 19.3 km/h
470 02-10-2018 15:05:00 9.6 C 8.24 g/m*3 7.11 C 17.7 km/h
471 02-10-2018 15:10:00 9.7 C 8.3 g/m*3 8.06 C 11.3 km/h
472 02-10-2018 15:15:00 9.7 C 8.3 g/m*3 6.77 C 22.5 km/h
473 02-10-2018 15:20:00 9.7 C 8.3 g/m*3 7.61 C 14.5 km/h
474 02-10-2018 15:25:00 9.7 C 8.3 g/m*3 7.07 C 19.3 km/h
475 02-10-2018 15:30:00 9.7 C 8.3 g/m*3 7.23 C 17.7 km/h
Sensor: Nr:Datum:Temp:Abs-Feuchte:Windchill:Wind:
Aussen-T/F 476 02-10-2018 15:35:00 9.8 C 8.26 g/m*3 7.19 C 19.3 km/h
477 02-10-2018 15:40:00 9.8 C 8.26 g/m*3 7.54 C 16.1 km/h
478 02-10-2018 15:45:00 9.9 C 8.31 g/m*3 6.76 C 25.7 km/h
479 02-10-2018 15:50:00 9.9 C 8.31 g/m*3 7.48 C 17.7 km/h
480 02-10-2018 15:55:00 9.9 C 8.31 g/m*3 7.48 C 17.7 km/h
481 02-10-2018 16:00:00 9.9 C 8.31 g/m*3 7.66 C 16.1 km/h
482 02-10-2018 16:05:00 10 C 8.36 g/m*3 8.42 C 11.3 km/h
483 02-10-2018 16:10:00 10.1 C 8.42 g/m*3 8.31 C 12.9 km/h
484 02-10-2018 16:15:00 10.1 C 8.32 g/m*3 7.42 C 20.9 km/h
485 02-10-2018 16:20:00 10.2 C 8.47 g/m*3 8.22 C 14.5 km/h
486 02-10-2018 16:25:00 10.2 C 8.37 g/m*3 7.7 C 19.3 km/h
487 02-10-2018 16:30:00 10.3 C 8.43 g/m*3 9.72 C 6.4 km/h
488 02-10-2018 16:35:00 10.3 C 8.43 g/m*3 7.82 C 19.3 km/h
489 02-10-2018 16:40:00 10.4 C 8.48 g/m*3 8.67 C 12.9 km/h
490 02-10-2018 16:45:00 10.4 C 8.48 g/m*3 8.67 C 12.9 km/h
491 02-10-2018 16:50:00 10.5 C 8.53 g/m*3 9.02 C 11.3 km/h
492 02-10-2018 16:55:00 10.5 C 8.63 g/m*3 8.59 C 14.5 km/h
493 02-10-2018 17:00:00 10.5 C 8.53 g/m*3 8.59 C 14.5 km/h
494 02-10-2018 17:05:00 10.5 C 8.63 g/m*3 9.02 C 11.3 km/h
495 02-10-2018 17:10:00 10.6 C 8.69 g/m*3 9.69 C 8.1 km/h
496 02-10-2018 17:15:00 10.6 C 8.69 g/m*3 8.05 C 20.9 km/h
497 02-10-2018 17:20:00 10.7 C 8.74 g/m*3 9.04 C 12.9 km/h
498 02-10-2018 17:25:00 10.8 C 8.7 g/m*3 9.38 C 11.3 km/h
499 02-10-2018 17:30:00 10.8 C 8.7 g/m*3 8.78 C 16.1 km/h
500 02-10-2018 17:35:00 10.9 C 8.75 g/m*3 9.76 C 9.7 km/h
Sensor: Nr:Datum:Temp:Abs-Feuchte:Windchill:Wind:
Aussen-T/F 501 02-10-2018 17:40:00 10.9 C 8.75 g/m*3 9.51 C 11.3 km/h
502 02-10-2018 17:45:00 10.9 C 8.75 g/m*3 8.58 C 19.3 km/h
503 02-10-2018 17:50:00 10.9 C 8.75 g/m*3 9.51 C 11.3 km/h
504 02-10-2018 17:55:00 10.9 C 8.75 g/m*3 8.9 C 16.1 km/h
505 02-10-2018 18:00:00 10.9 C 8.75 g/m*3 9.28 C 12.9 km/h
506 02-10-2018 18:05:00 10.9 C 8.75 g/m*3 9.28 C 12.9 km/h
507 02-10-2018 18:10:00 11 C 8.81 g/m*3 9.63 C 11.3 km/h
508 02-10-2018 18:15:00 10.9 C 8.75 g/m*3 8.9 C 16.1 km/h
509 02-10-2018 18:20:00 11 C 8.91 g/m*3 9.63 C 11.3 km/h
510 02-10-2018 18:25:00 11 C 8.91 g/m*3 9.88 C 9.7 km/h
511 02-10-2018 18:30:00 11 C 8.91 g/m*3 9.02 C 16.1 km/h
512 02-10-2018 18:35:00 11 C 8.91 g/m*3 9.21 C 14.5 km/h
513 02-10-2018 18:40:00 11 C 8.91 g/m*3 9.4 C 12.9 km/h
514 02-10-2018 18:45:00 11 C 8.91 g/m*3 9.4 C 12.9 km/h
515 02-10-2018 18:50:00 11 C 8.91 g/m*3 9.02 C 16.1 km/h
516 02-10-2018 18:55:00 11 C 8.91 g/m*3 9.4 C 12.9 km/h
517 02-10-2018 19:00:00 11 C 8.91 g/m*3 9.88 C 9.7 km/h
518 02-10-2018 19:05:00 10.9 C 8.85 g/m*3 8.73 C 17.7 km/h
519 02-10-2018 19:10:00 10.9 C 8.95 g/m*3 9.76 C 9.7 km/h
520 02-10-2018 19:15:00 10.9 C 8.95 g/m*3 9.51 C 11.3 km/h
521 02-10-2018 19:20:00 11 C 9.01 g/m*3 9.4 C 12.9 km/h
522 02-10-2018 19:25:00 11.1 C 9.07 g/m*3 11.1 C 12.9 km/h
523 02-10-2018 19:30:00 11 C 9.01 g/m*3 9.88 C 9.7 km/h
524 02-10-2018 19:35:00 11.1 C 9.07 g/m*3 11.1 C 9.7 km/h
525 02-10-2018 19:40:00 11.1 C 9.07 g/m*3 11.1 C 8.1 km/h
Sensor: Nr:Datum:Temp:Abs-Feuchte:Windchill:Wind:
Aussen-T/F 526 02-10-2018 19:45:00 11.1 C 9.07 g/m*3 11.1 C 14.5 km/h
527 02-10-2018 19:50:00 11.1 C 9.07 g/m*3 11.1 C 16.1 km/h
528 02-10-2018 19:55:00 11.1 C 9.07 g/m*3 11.1 C 8.1 km/h
529 02-10-2018 20:00:00 11.1 C 9.07 g/m*3 11.1 C 14.5 km/h
530 02-10-2018 20:05:00 11.2 C 9.12 g/m*3 11.2 C 16.1 km/h
531 02-10-2018 20:10:00 11.2 C 9.12 g/m*3 11.2 C 6.4 km/h
532 02-10-2018 20:15:00 11.2 C 9.12 g/m*3 11.2 C 9.7 km/h
533 02-10-2018 20:20:00 11.2 C 9.12 g/m*3 11.2 C 9.7 km/h
534 02-10-2018 20:25:00 11.2 C 9.12 g/m*3 11.2 C 12.9 km/h
535 02-10-2018 20:30:00 11.3 C 9.18 g/m*3 11.3 C 12.9 km/h
536 02-10-2018 20:35:00 11.3 C 9.18 g/m*3 11.3 C 6.4 km/h
537 02-10-2018 20:40:00 11.3 C 9.18 g/m*3 11.3 C 11.3 km/h
538 02-10-2018 20:45:00 11.4 C 9.24 g/m*3 11.4 C 16.1 km/h
539 02-10-2018 20:50:00 11.4 C 9.24 g/m*3 11.4 C 16.1 km/h
540 02-10-2018 20:55:00 11.5 C 9.3 g/m*3 11.5 C 14.5 km/h
541 02-10-2018 21:00:00 11.5 C 9.3 g/m*3 11.5 C 11.3 km/h
542 02-10-2018 21:05:00 11.6 C 9.35 g/m*3 11.6 C 12.9 km/h
543 02-10-2018 21:10:00 11.5 C 9.19 g/m*3 11.5 C 9.7 km/h
544 02-10-2018 21:15:00 11.4 C 9.14 g/m*3 11.4 C 6.4 km/h
545 02-10-2018 21:20:00 11.3 C 9.18 g/m*3 11.3 C 14.5 km/h
546 02-10-2018 21:25:00 11.3 C 9.18 g/m*3 11.3 C 9.7 km/h
547 02-10-2018 21:30:00 11.3 C 9.18 g/m*3 11.3 C 4.8 km/h
548 02-10-2018 21:35:00 11.2 C 9.12 g/m*3 11.2 C 11.3 km/h
549 02-10-2018 21:40:00 11.2 C 9.22 g/m*3 11.2 C 14.5 km/h
550 02-10-2018 21:45:00 11.2 C 9.22 g/m*3 11.2 C 8.1 km/h
Sensor: Nr:Datum:Temp:Abs-Feuchte:Windchill:Wind:
Aussen-T/F 551 02-10-2018 21:50:00 11.2 C 9.22 g/m*3 11.2 C 11.3 km/h
552 02-10-2018 21:55:00 11.2 C 9.22 g/m*3 11.2 C 3.2 km/h
553 02-10-2018 22:00:00 11.2 C 9.22 g/m*3 11.2 C 6.4 km/h
554 02-10-2018 22:05:00 11.2 C 9.22 g/m*3 11.2 C 11.3 km/h
555 02-10-2018 22:10:00 11.3 C 9.28 g/m*3 11.3 C 9.7 km/h
556 02-10-2018 22:15:00 11.4 C 9.34 g/m*3 11.4 C 12.9 km/h
557 02-10-2018 22:20:00 11.4 C 9.34 g/m*3 11.4 C 14.5 km/h
558 02-10-2018 22:25:00 11.5 C 9.4 g/m*3 11.5 C 8.1 km/h
559 02-10-2018 22:30:00 11.5 C 9.4 g/m*3 11.5 C 11.3 km/h
560 02-10-2018 22:35:00 11.5 C 9.4 g/m*3 11.5 C 11.3 km/h
561 02-10-2018 22:40:00 11.6 C 9.46 g/m*3 11.6 C 16.1 km/h
562 02-10-2018 22:45:00 11.6 C 9.46 g/m*3 11.6 C 9.7 km/h
563 02-10-2018 22:50:00 11.7 C 9.52 g/m*3 11.7 C 9.7 km/h
564 02-10-2018 22:55:00 11.8 C 9.58 g/m*3 11.8 C 19.3 km/h
565 02-10-2018 23:00:00 11.8 C 9.47 g/m*3 11.8 C 12.9 km/h
566 02-10-2018 23:05:00 11.8 C 9.47 g/m*3 11.8 C 17.7 km/h
567 02-10-2018 23:10:00 11.8 C 9.47 g/m*3 11.8 C 16.1 km/h
568 02-10-2018 23:15:00 11.7 C 9.41 g/m*3 11.7 C 6.4 km/h
569 02-10-2018 23:20:00 11.7 C 9.41 g/m*3 11.7 C 12.9 km/h
570 02-10-2018 23:25:00 11.7 C 9.41 g/m*3 11.7 C 12.9 km/h
571 02-10-2018 23:30:00 11.7 C 9.52 g/m*3 11.7 C 9.7 km/h
572 02-10-2018 23:35:00 11.7 C 9.52 g/m*3 11.7 C 14.5 km/h
573 02-10-2018 23:40:00 11.7 C 9.52 g/m*3 11.7 C 8.1 km/h
574 02-10-2018 23:45:00 11.7 C 9.52 g/m*3 11.7 C 3.2 km/h
575 02-10-2018 23:50:00 11.7 C 9.52 g/m*3 11.7 C 4.8 km/h
Sensor: Nr:Datum:Temp:Abs-Feuchte:Windchill:Wind:
Aussen-T/F 576 02-10-2018 23:55:00 11.7 C 9.52 g/m*3 11.7 C 8.1 km/h
577 03-10-2018 00:00:00 11.8 C 9.58 g/m*3 11.8 C 9.7 km/h
578 03-10-2018 00:05:00 11.8 C 9.58 g/m*3 11.8 C 8.1 km/h
579 03-10-2018 00:10:00 11.8 C 9.58 g/m*3 11.8 C 3.2 km/h
580 03-10-2018 00:15:00 11.8 C 9.58 g/m*3 11.8 C 9.7 km/h
581 03-10-2018 00:20:00 11.8 C 9.58 g/m*3 11.8 C 8.1 km/h
582 03-10-2018 00:25:00 11.8 C 9.58 g/m*3 11.8 C 3.2 km/h
583 03-10-2018 00:30:00 11.8 C 9.58 g/m*3 11.8 C 11.3 km/h
584 03-10-2018 00:35:00 11.7 C 9.52 g/m*3 11.7 C 4.8 km/h
585 03-10-2018 00:40:00 11.8 C 9.58 g/m*3 11.8 C 6.4 km/h
586 03-10-2018 00:45:00 11.8 C 9.68 g/m*3 11.8 C 12.9 km/h
587 03-10-2018 00:50:00 11.8 C 9.68 g/m*3 11.8 C 12.9 km/h
588 03-10-2018 00:55:00 11.8 C 9.68 g/m*3 11.8 C 8.1 km/h
589 03-10-2018 01:00:00 11.8 C 9.68 g/m*3 11.8 C 16.1 km/h
590 03-10-2018 01:05:00 11.8 C 9.58 g/m*3 11.8 C 9.7 km/h
591 03-10-2018 01:10:00 11.8 C 9.68 g/m*3 11.8 C 8.1 km/h
592 03-10-2018 01:15:00 11.7 C 9.62 g/m*3 11.7 C 14.5 km/h
593 03-10-2018 01:20:00 11.7 C 9.62 g/m*3 11.7 C 4.8 km/h
594 03-10-2018 01:25:00 11.7 C 9.62 g/m*3 11.7 C 3.2 km/h
595 03-10-2018 01:30:00 11.6 C 9.56 g/m*3 11.6 C 3.2 km/h
596 03-10-2018 01:35:00 11.5 C 9.5 g/m*3 11.5 C 1.6 km/h
597 03-10-2018 01:40:00 11.4 C 9.44 g/m*3 11.4 C 1.6 km/h
598 03-10-2018 01:45:00 11.4 C 9.44 g/m*3 11.4 C 3.2 km/h
599 03-10-2018 01:50:00 11.4 C 9.55 g/m*3 11.4 C 4.8 km/h
600 03-10-2018 01:55:00 11.4 C 9.55 g/m*3 11.4 C 4.8 km/h
Sensor: Nr:Datum:Temp:Abs-Feuchte:Windchill:Wind:
Aussen-T/F 601 03-10-2018 02:00:00 11.4 C 9.55 g/m*3 11.4 C 8.1 km/h
602 03-10-2018 02:05:00 11.4 C 9.55 g/m*3 11.4 C 4.8 km/h
603 03-10-2018 02:10:00 11.3 C 9.49 g/m*3 11.3 C 6.4 km/h
604 03-10-2018 02:15:00 11.4 C 9.55 g/m*3 11.4 C 9.7 km/h
605 03-10-2018 02:20:00 11.5 C 9.61 g/m*3 11.5 C 4.8 km/h
606 03-10-2018 02:25:00 11.4 C 9.55 g/m*3 11.4 C 14.5 km/h
607 03-10-2018 02:30:00 11.6 C 9.77 g/m*3 11.6 C 8.1 km/h
608 03-10-2018 02:35:00 11.7 C 9.83 g/m*3 11.7 C 9.7 km/h
609 03-10-2018 02:40:00 11.7 C 9.73 g/m*3 11.7 C 1.6 km/h
610 03-10-2018 02:45:00 11.7 C 9.73 g/m*3 11.7 C 8.1 km/h
611 03-10-2018 02:50:00 11.8 C 9.79 g/m*3 11.8 C 11.3 km/h
612 03-10-2018 02:55:00 11.9 C 9.85 g/m*3 11.9 C 4.8 km/h
613 03-10-2018 03:00:00 11.9 C 9.85 g/m*3 11.9 C 1.6 km/h
614 03-10-2018 03:05:00 11.9 C 9.85 g/m*3 11.9 C 8.1 km/h
615 03-10-2018 03:10:00 12 C 9.91 g/m*3 12 C 8.1 km/h
616 03-10-2018 03:15:00 12.1 C 9.97 g/m*3 12.1 C 1.6 km/h
617 03-10-2018 03:20:00 12 C 9.91 g/m*3 12 C 9.7 km/h
618 03-10-2018 03:25:00 12 C 9.91 g/m*3 12 C 6.4 km/h
619 03-10-2018 03:30:00 12 C 9.91 g/m*3 12 C 8.1 km/h
620 03-10-2018 03:35:00 11.9 C 9.74 g/m*3 11.9 C 6.4 km/h
621 03-10-2018 03:40:00 11.9 C 9.85 g/m*3 11.9 C 6.4 km/h
622 03-10-2018 03:45:00 11.8 C 9.79 g/m*3 11.8 C 3.2 km/h
623 03-10-2018 03:50:00 11.7 C 9.73 g/m*3 11.7 C 0 km/h
624 03-10-2018 03:55:00 11.7 C 9.73 g/m*3 11.7 C 3.2 km/h
625 03-10-2018 04:00:00 11.6 C 9.67 g/m*3 11.6 C 1.6 km/h
Sensor: Nr:Datum:Temp:Abs-Feuchte:Windchill:Wind:
Aussen-T/F 626 03-10-2018 04:05:00 11.6 C 9.67 g/m*3 11.6 C 6.4 km/h
627 03-10-2018 04:10:00 11.6 C 9.67 g/m*3 11.6 C 1.6 km/h
628 03-10-2018 04:15:00 11.5 C 9.61 g/m*3 11.5 C 6.4 km/h
629 03-10-2018 04:20:00 11.4 C 9.55 g/m*3 11.4 C 0 km/h
630 03-10-2018 04:25:00 11.4 C 9.55 g/m*3 11.4 C 3.2 km/h
631 03-10-2018 04:30:00 11.4 C 9.55 g/m*3 11.4 C 1.6 km/h
632 03-10-2018 04:35:00 11.4 C 9.65 g/m*3 11.4 C 3.2 km/h
633 03-10-2018 04:40:00 11.4 C 9.65 g/m*3 11.4 C 1.6 km/h
634 03-10-2018 04:45:00 11.4 C 9.65 g/m*3 11.4 C 4.8 km/h
635 03-10-2018 04:50:00 11.3 C 9.59 g/m*3 11.3 C 0 km/h
636 03-10-2018 04:55:00 11.3 C 9.59 g/m*3 11.3 C 4.8 km/h
637 03-10-2018 05:00:00 11.3 C 9.59 g/m*3 11.3 C 3.2 km/h
638 03-10-2018 05:05:00 11.4 C 9.65 g/m*3 11.4 C 4.8 km/h
639 03-10-2018 05:10:00 11.4 C 9.65 g/m*3 11.4 C 4.8 km/h
640 03-10-2018 05:15:00 11.4 C 9.65 g/m*3 11.4 C 6.4 km/h
641 03-10-2018 05:20:00 11.4 C 9.65 g/m*3 11.4 C 1.6 km/h
642 03-10-2018 05:25:00 11.3 C 9.59 g/m*3 11.3 C 1.6 km/h
643 03-10-2018 05:30:00 11.2 C 9.53 g/m*3 11.2 C 3.2 km/h
644 03-10-2018 05:35:00 11.1 C 9.47 g/m*3 11.1 C 0 km/h
645 03-10-2018 05:40:00 11 C 9.41 g/m*3 11 C 3.2 km/h
646 03-10-2018 05:45:00 10.9 C 9.35 g/m*3 10.9 C 0 km/h
647 03-10-2018 05:50:00 10.9 C 9.35 g/m*3 10.9 C 0 km/h
648 03-10-2018 05:55:00 11 C 9.41 g/m*3 11 C 3.2 km/h
649 03-10-2018 06:00:00 11.1 C 9.57 g/m*3 11.1 C 0 km/h
650 03-10-2018 06:05:00 11.1 C 9.57 g/m*3 11.1 C 1.6 km/h
Sensor: Nr:Datum:Temp:Abs-Feuchte:Windchill:Wind:
Aussen-T/F 651 03-10-2018 06:10:00 11.1 C 9.57 g/m*3 11.1 C 3.2 km/h
652 03-10-2018 06:15:00 11.1 C 9.57 g/m*3 11.1 C 0 km/h
653 03-10-2018 06:20:00 10.9 C 9.35 g/m*3 10.9 C 0 km/h
654 03-10-2018 06:25:00 10.8 C 9.29 g/m*3 10.8 C 1.6 km/h
655 03-10-2018 06:30:00 10.8 C 9.29 g/m*3 10.8 C 0 km/h
656 03-10-2018 06:35:00 10.7 C 9.23 g/m*3 10.7 C 0 km/h
657 03-10-2018 06:40:00 10.6 C 9.17 g/m*3 10.6 C 0 km/h
658 03-10-2018 06:45:00 10.5 C 9.12 g/m*3 10.5 C 0 km/h
659 03-10-2018 06:50:00 10.4 C 9.06 g/m*3 10.4 C 0 km/h
660 03-10-2018 06:55:00 10.4 C 9.06 g/m*3 10.4 C 0 km/h
661 03-10-2018 07:00:00 10.3 C 9 g/m*3 10.3 C 0 km/h
662 03-10-2018 07:05:00 10.4 C 9.16 g/m*3 10.4 C 3.2 km/h
663 03-10-2018 07:10:00 10.4 C 9.16 g/m*3 10.4 C 0 km/h
664 03-10-2018 07:15:00 10.5 C 9.21 g/m*3 10.5 C 0 km/h
665 03-10-2018 07:20:00 10.6 C 9.27 g/m*3 10.6 C 0 km/h
666 03-10-2018 07:25:00 10.6 C 9.27 g/m*3 10.6 C 0 km/h
667 03-10-2018 07:30:00 10.6 C 9.27 g/m*3 10.6 C 0 km/h
668 03-10-2018 07:35:00 10.5 C 9.21 g/m*3 10.5 C 0 km/h
669 03-10-2018 07:40:00 10.4 C 9.16 g/m*3 10.4 C 1.6 km/h
670 03-10-2018 07:45:00 10.4 C 9.16 g/m*3 10.4 C 0 km/h
671 03-10-2018 07:50:00 10.4 C 9.16 g/m*3 10.4 C 0 km/h
672 03-10-2018 07:55:00 10.4 C 9.16 g/m*3 10.4 C 4.8 km/h
673 03-10-2018 08:00:00 10.4 C 9.16 g/m*3 10.4 C 0 km/h
674 03-10-2018 08:05:00 10.4 C 9.16 g/m*3 10.4 C 0 km/h
675 03-10-2018 08:10:00 10.3 C 9.1 g/m*3 10.3 C 1.6 km/h
Sensor: Nr:Datum:Temp:Abs-Feuchte:Windchill:Wind:
Aussen-T/F 676 03-10-2018 08:15:00 10.4 C 9.16 g/m*3 10.4 C 1.6 km/h
677 03-10-2018 08:20:00 10.4 C 9.16 g/m*3 10.4 C 0 km/h
678 03-10-2018 08:25:00 10.4 C 9.16 g/m*3 10.4 C 1.6 km/h
679 03-10-2018 08:30:00 10.4 C 9.16 g/m*3 10.4 C 0 km/h
680 03-10-2018 08:35:00 10.4 C 9.16 g/m*3 10.4 C 1.6 km/h
681 03-10-2018 08:40:00 10.4 C 9.16 g/m*3 10.4 C 1.6 km/h
682 03-10-2018 08:45:00 10.4 C 9.16 g/m*3 10.4 C 1.6 km/h
683 03-10-2018 08:50:00 10.4 C 9.16 g/m*3 10.4 C 0 km/h
684 03-10-2018 08:55:00 10.5 C 9.21 g/m*3 10.5 C 0 km/h
685 03-10-2018 09:00:00 10.6 C 9.27 g/m*3 10.6 C 0 km/h
686 03-10-2018 09:05:00 10.6 C 9.27 g/m*3 10.6 C 1.6 km/h
687 03-10-2018 09:10:00 10.6 C 9.27 g/m*3 10.6 C 0 km/h
688 03-10-2018 09:15:00 10.7 C 9.33 g/m*3 10.7 C 0 km/h
689 03-10-2018 09:20:00 10.7 C 9.33 g/m*3 10.7 C 0 km/h
690 03-10-2018 09:25:00 10.8 C 9.39 g/m*3 10.8 C 0 km/h
691 03-10-2018 09:30:00 10.9 C 9.45 g/m*3 10.9 C 0 km/h
692 03-10-2018 09:35:00 11 C 9.51 g/m*3 11 C 1.6 km/h
693 03-10-2018 09:40:00 11.2 C 9.63 g/m*3 11.2 C 4.8 km/h
694 03-10-2018 09:45:00 11.3 C 9.69 g/m*3 11.3 C 0 km/h
695 03-10-2018 09:50:00 11.4 C 9.75 g/m*3 11.4 C 0 km/h
696 03-10-2018 09:55:00 11.5 C 9.71 g/m*3 11.5 C 0 km/h
697 03-10-2018 10:00:00 11.6 C 9.77 g/m*3 11.6 C 1.6 km/h
698 03-10-2018 10:05:00 11.7 C 9.83 g/m*3 11.7 C 1.6 km/h
699 03-10-2018 10:10:00 11.8 C 9.79 g/m*3 11.8 C 0 km/h
700 03-10-2018 10:15:00 11.8 C 9.79 g/m*3 11.8 C 1.6 km/h
Sensor: Nr:Datum:Temp:Abs-Feuchte:Windchill:Wind:
Aussen-T/F 701 03-10-2018 10:20:00 11.9 C 9.74 g/m*3 11.9 C 0 km/h
702 03-10-2018 10:25:00 12.1 C 9.87 g/m*3 12.1 C 0 km/h
703 03-10-2018 10:30:00 12.2 C 9.93 g/m*3 12.2 C 0 km/h
704 03-10-2018 10:35:00 12.3 C 9.99 g/m*3 12.3 C 1.6 km/h
705 03-10-2018 10:40:00 12.4 C 9.83 g/m*3 12.4 C 3.2 km/h
706 03-10-2018 10:45:00 12.6 C 9.85 g/m*3 12.6 C 1.6 km/h
707 03-10-2018 10:50:00 12.7 C 9.8 g/m*3 12.7 C 0 km/h
708 03-10-2018 10:55:00 12.9 C 9.92 g/m*3 12.9 C 1.6 km/h
709 03-10-2018 11:00:00 13.1 C 9.81 g/m*3 13.1 C 0 km/h
710 03-10-2018 11:05:00 13.2 C 9.76 g/m*3 13.2 C 0 km/h
711 03-10-2018 11:10:00 13.3 C 9.59 g/m*3 13.3 C 9.7 km/h
712 03-10-2018 11:15:00 13.5 C 9.36 g/m*3 13.5 C 9.7 km/h
713 03-10-2018 11:20:00 13.6 C 9.18 g/m*3 13.6 C 9.7 km/h
714 03-10-2018 11:25:00 13.8 C 9.17 g/m*3 13.8 C 6.4 km/h
715 03-10-2018 11:30:00 13.9 C 9.35 g/m*3 13.9 C 4.8 km/h
716 03-10-2018 11:35:00 13.9 C 9.11 g/m*3 13.9 C 9.7 km/h
717 03-10-2018 11:40:00 14 C 9.17 g/m*3 14 C 14.5 km/h
718 03-10-2018 11:45:00 14 C 9.17 g/m*3 14 C 9.7 km/h
719 03-10-2018 11:50:00 14.1 C 9.1 g/m*3 14.1 C 9.7 km/h
720 03-10-2018 11:55:00 14.2 C 9.04 g/m*3 14.2 C 9.7 km/h
721 03-10-2018 12:00:00 14.3 C 9.09 g/m*3 14.3 C 8.1 km/h
722 03-10-2018 12:05:00 14.4 C 9.15 g/m*3 14.4 C 12.9 km/h
723 03-10-2018 12:10:00 14.4 C 9.02 g/m*3 14.4 C 14.5 km/h
724 03-10-2018 12:15:00 14.6 C 9.13 g/m*3 14.6 C 9.7 km/h
725 03-10-2018 12:20:00 14.6 C 9.13 g/m*3 14.6 C 14.5 km/h
Sensor: Nr:Datum:Temp:Abs-Feuchte:Windchill:Wind:
Aussen-T/F 726 03-10-2018 12:25:00 14.6 C 8.88 g/m*3 14.6 C 12.9 km/h
727 03-10-2018 12:30:00 14.7 C 8.94 g/m*3 14.7 C 11.3 km/h
728 03-10-2018 12:35:00 14.7 C 8.94 g/m*3 14.7 C 9.7 km/h
729 03-10-2018 12:40:00 14.7 C 9.07 g/m*3 14.7 C 11.3 km/h
730 03-10-2018 12:45:00 14.7 C 9.07 g/m*3 14.7 C 14.5 km/h
731 03-10-2018 12:50:00 14.6 C 9.01 g/m*3 14.6 C 16.1 km/h
732 03-10-2018 12:55:00 14.7 C 9.07 g/m*3 14.7 C 14.5 km/h
733 03-10-2018 13:00:00 14.7 C 9.07 g/m*3 14.7 C 11.3 km/h
734 03-10-2018 13:05:00 14.7 C 8.94 g/m*3 14.7 C 11.3 km/h
735 03-10-2018 13:10:00 14.8 C 8.99 g/m*3 14.8 C 11.3 km/h
736 03-10-2018 13:15:00 14.9 C 8.92 g/m*3 14.9 C 11.3 km/h
737 03-10-2018 13:20:00 15.1 C 8.77 g/m*3 15.1 C 12.9 km/h
738 03-10-2018 13:25:00 15.1 C 8.77 g/m*3 15.1 C 14.5 km/h
739 03-10-2018 13:30:00 14.9 C 8.54 g/m*3 14.9 C 11.3 km/h
740 03-10-2018 13:35:00 14.9 C 8.54 g/m*3 14.9 C 12.9 km/h
741 03-10-2018 13:40:00 14.8 C 8.36 g/m*3 14.8 C 8.1 km/h
742 03-10-2018 13:45:00 14.8 C 8.36 g/m*3 14.8 C 11.3 km/h
743 03-10-2018 13:50:00 14.9 C 8.28 g/m*3 14.9 C 12.9 km/h
744 03-10-2018 13:55:00 14.9 C 8.54 g/m*3 14.9 C 11.3 km/h
745 03-10-2018 14:00:00 15 C 8.33 g/m*3 15 C 8.1 km/h
746 03-10-2018 14:05:00 15.1 C 8.39 g/m*3 15.1 C 9.7 km/h
747 03-10-2018 14:10:00 15.1 C 8 g/m*3 15.1 C 9.7 km/h
748 03-10-2018 14:15:00 15.2 C 8.31 g/m*3 15.2 C 12.9 km/h
749 03-10-2018 14:20:00 15.3 C 8.23 g/m*3 15.3 C 12.9 km/h
750 03-10-2018 14:25:00 15.6 C 8.25 g/m*3 15.6 C 11.3 km/h
Sensor: Nr:Datum:Temp:Abs-Feuchte:Windchill:Wind:
Aussen-T/F 751 03-10-2018 14:30:00 15.6 C 8.11 g/m*3 15.6 C 11.3 km/h
752 03-10-2018 14:35:00 15.6 C 8.11 g/m*3 15.6 C 11.3 km/h
753 03-10-2018 14:40:00 15.6 C 8.11 g/m*3 15.6 C 9.7 km/h
754 03-10-2018 14:45:00 15.7 C 8.3 g/m*3 15.7 C 4.8 km/h
755 03-10-2018 14:50:00 15.8 C 8.21 g/m*3 15.8 C 6.4 km/h
756 03-10-2018 14:55:00 15.8 C 7.94 g/m*3 15.8 C 12.9 km/h
757 03-10-2018 15:00:00 15.7 C 7.89 g/m*3 15.7 C 11.3 km/h
758 03-10-2018 15:05:00 15.7 C 7.89 g/m*3 15.7 C 14.5 km/h
759 03-10-2018 15:10:00 15.7 C 8.03 g/m*3 15.7 C 9.7 km/h
760 03-10-2018 15:15:00 15.7 C 8.03 g/m*3 15.7 C 14.5 km/h
761 03-10-2018 15:20:00 15.7 C 8.16 g/m*3 15.7 C 17.7 km/h
762 03-10-2018 15:25:00 15.7 C 8.43 g/m*3 15.7 C 12.9 km/h
763 03-10-2018 15:30:00 15.6 C 8.11 g/m*3 15.6 C 11.3 km/h
764 03-10-2018 15:35:00 15.6 C 7.98 g/m*3 15.6 C 12.9 km/h
765 03-10-2018 15:40:00 15.6 C 8.11 g/m*3 15.6 C 8.1 km/h
766 03-10-2018 15:45:00 15.6 C 8.25 g/m*3 15.6 C 9.7 km/h
767 03-10-2018 15:50:00 15.7 C 7.89 g/m*3 15.7 C 12.9 km/h
768 03-10-2018 15:55:00 15.7 C 8.03 g/m*3 15.7 C 12.9 km/h
769 03-10-2018 16:00:00 15.7 C 8.03 g/m*3 15.7 C 11.3 km/h
770 03-10-2018 16:05:00 15.7 C 8.03 g/m*3 15.7 C 11.3 km/h
771 03-10-2018 16:10:00 15.7 C 8.16 g/m*3 15.7 C 11.3 km/h
772 03-10-2018 16:15:00 15.7 C 7.89 g/m*3 15.7 C 14.5 km/h
773 03-10-2018 16:20:00 15.8 C 8.08 g/m*3 15.8 C 9.7 km/h
774 03-10-2018 16:25:00 15.8 C 7.81 g/m*3 15.8 C 9.7 km/h
775 03-10-2018 16:30:00 15.8 C 7.94 g/m*3 15.8 C 12.9 km/h
Sensor: Nr:Datum:Temp:Abs-Feuchte:Windchill:Wind:
Aussen-T/F 776 03-10-2018 16:35:00 15.7 C 7.76 g/m*3 15.7 C 11.3 km/h
777 03-10-2018 16:40:00 15.7 C 7.76 g/m*3 15.7 C 12.9 km/h
778 03-10-2018 16:45:00 15.7 C 7.89 g/m*3 15.7 C 9.7 km/h
779 03-10-2018 16:50:00 15.7 C 7.89 g/m*3 15.7 C 9.7 km/h
780 03-10-2018 16:55:00 15.7 C 7.76 g/m*3 15.7 C 11.3 km/h
781 03-10-2018 17:00:00 15.6 C 7.85 g/m*3 15.6 C 11.3 km/h
782 03-10-2018 17:05:00 15.6 C 7.85 g/m*3 15.6 C 11.3 km/h
783 03-10-2018 17:10:00 15.6 C 7.98 g/m*3 15.6 C 9.7 km/h
784 03-10-2018 17:15:00 15.5 C 8.06 g/m*3 15.5 C 8.1 km/h
785 03-10-2018 17:20:00 15.4 C 7.88 g/m*3 15.4 C 9.7 km/h
786 03-10-2018 17:25:00 15.4 C 7.88 g/m*3 15.4 C 4.8 km/h
787 03-10-2018 17:30:00 15.3 C 7.84 g/m*3 15.3 C 4.8 km/h
788 03-10-2018 17:35:00 15.3 C 7.97 g/m*3 15.3 C 4.8 km/h
789 03-10-2018 17:40:00 15.3 C 7.97 g/m*3 15.3 C 3.2 km/h
790 03-10-2018 17:45:00 15.2 C 8.05 g/m*3 15.2 C 6.4 km/h
791 03-10-2018 17:50:00 15.2 C 7.92 g/m*3 15.2 C 6.4 km/h
792 03-10-2018 17:55:00 15.2 C 8.18 g/m*3 15.2 C 0 km/h
793 03-10-2018 18:00:00 15.1 C 8 g/m*3 15.1 C 6.4 km/h
794 03-10-2018 18:05:00 15 C 8.08 g/m*3 15 C 6.4 km/h
795 03-10-2018 18:10:00 14.9 C 8.16 g/m*3 14.9 C 3.2 km/h
796 03-10-2018 18:15:00 14.9 C 8.28 g/m*3 14.9 C 0 km/h
797 03-10-2018 18:20:00 14.9 C 8.16 g/m*3 14.9 C 0 km/h
798 03-10-2018 18:25:00 14.9 C 8.03 g/m*3 14.9 C 3.2 km/h
799 03-10-2018 18:30:00 15 C 8.08 g/m*3 15 C 0 km/h
800 03-10-2018 18:35:00 14.9 C 8.03 g/m*3 14.9 C 0 km/h
Sensor: Nr:Datum:Temp:Abs-Feuchte:Windchill:Wind:
Aussen-T/F 801 03-10-2018 18:40:00 14.9 C 8.16 g/m*3 14.9 C 0 km/h
802 03-10-2018 18:45:00 14.9 C 8.41 g/m*3 14.9 C 0 km/h
803 03-10-2018 18:50:00 14.8 C 8.61 g/m*3 14.8 C 0 km/h
804 03-10-2018 18:55:00 14.5 C 8.46 g/m*3 14.5 C 0 km/h
805 03-10-2018 19:00:00 14.2 C 8.3 g/m*3 14.2 C 0 km/h
806 03-10-2018 19:05:00 13.9 C 8.15 g/m*3 13.9 C 0 km/h
807 03-10-2018 19:10:00 13.7 C 8.29 g/m*3 13.7 C 0 km/h
808 03-10-2018 19:15:00 13.4 C 8.25 g/m*3 13.4 C 0 km/h
809 03-10-2018 19:20:00 13.1 C 8.22 g/m*3 13.1 C 1.6 km/h
810 03-10-2018 19:25:00 12.8 C 8.18 g/m*3 12.8 C 0 km/h
811 03-10-2018 19:30:00 12.6 C 8.3 g/m*3 12.6 C 4.8 km/h
812 03-10-2018 19:35:00 12.3 C 8.14 g/m*3 12.3 C 0 km/h
813 03-10-2018 19:40:00 12.1 C 8.26 g/m*3 12.1 C 1.6 km/h
814 03-10-2018 19:45:00 11.9 C 8.15 g/m*3 11.9 C 0 km/h
815 03-10-2018 19:50:00 11.7 C 8.16 g/m*3 11.7 C 0 km/h
816 03-10-2018 19:55:00 11.6 C 8.11 g/m*3 11.6 C 0 km/h
817 03-10-2018 20:00:00 11.5 C 8.16 g/m*3 11.5 C 0 km/h
818 03-10-2018 20:05:00 11.4 C 8.11 g/m*3 11.4 C 0 km/h
819 03-10-2018 20:10:00 11.3 C 8.06 g/m*3 11.3 C 0 km/h
820 03-10-2018 20:15:00 11.3 C 7.96 g/m*3 11.3 C 0 km/h
821 03-10-2018 20:20:00 11.2 C 8.01 g/m*3 11.2 C 0 km/h
822 03-10-2018 20:25:00 11.2 C 8.01 g/m*3 11.2 C 1.6 km/h
823 03-10-2018 20:30:00 11.2 C 8.01 g/m*3 11.2 C 0 km/h
824 03-10-2018 20:35:00 11.2 C 8.01 g/m*3 11.2 C 0 km/h
825 03-10-2018 20:40:00 11.1 C 7.96 g/m*3 11.1 C 0 km/h
Sensor: Nr:Datum:Temp:Abs-Feuchte:Windchill:Wind:
Aussen-T/F 826 03-10-2018 20:45:00 11.1 C 8.06 g/m*3 11.1 C 0 km/h
827 03-10-2018 20:50:00 10.9 C 7.96 g/m*3 10.9 C 0 km/h
828 03-10-2018 20:55:00 10.8 C 7.91 g/m*3 10.8 C 0 km/h
829 03-10-2018 21:00:00 10.7 C 7.96 g/m*3 10.7 C 0 km/h
830 03-10-2018 21:05:00 10.4 C 7.9 g/m*3 10.4 C 0 km/h
831 03-10-2018 21:10:00 10.2 C 7.8 g/m*3 10.2 C 0 km/h
832 03-10-2018 21:15:00 9.9 C 7.75 g/m*3 9.9 C 0 km/h
833 03-10-2018 21:20:00 9.7 C 7.74 g/m*3 9.7 C 0 km/h
834 03-10-2018 21:25:00 9.6 C 7.79 g/m*3 9.6 C 0 km/h
835 03-10-2018 21:30:00 9.4 C 7.69 g/m*3 9.4 C 0 km/h
836 03-10-2018 21:35:00 9.3 C 7.73 g/m*3 9.3 C 0 km/h
837 03-10-2018 21:40:00 9.2 C 7.68 g/m*3 9.2 C 0 km/h
838 03-10-2018 21:45:00 9 C 7.67 g/m*3 9 C 0 km/h
839 03-10-2018 21:50:00 8.9 C 7.62 g/m*3 8.9 C 0 km/h
840 03-10-2018 21:55:00 8.8 C 7.66 g/m*3 8.8 C 0 km/h
841 03-10-2018 22:00:00 8.8 C 7.66 g/m*3 8.8 C 0 km/h
842 03-10-2018 22:05:00 8.7 C 7.61 g/m*3 8.7 C 0 km/h
843 03-10-2018 22:10:00 8.7 C 7.61 g/m*3 8.7 C 0 km/h
844 03-10-2018 22:15:00 8.7 C 7.61 g/m*3 8.7 C 0 km/h
845 03-10-2018 22:20:00 8.6 C 7.65 g/m*3 8.6 C 0 km/h
846 03-10-2018 22:25:00 8.6 C 7.65 g/m*3 8.6 C 4.8 km/h
847 03-10-2018 22:30:00 8.6 C 7.65 g/m*3 8.6 C 0 km/h
848 03-10-2018 22:35:00 8.5 C 7.6 g/m*3 8.5 C 0 km/h
849 03-10-2018 22:40:00 8.4 C 7.55 g/m*3 8.4 C 0 km/h
850 03-10-2018 22:45:00 8.4 C 7.55 g/m*3 8.4 C 0 km/h
Sensor: Nr:Datum:Temp:Abs-Feuchte:Windchill:Wind:
Aussen-T/F 851 03-10-2018 22:50:00 8.4 C 7.55 g/m*3 8.4 C 0 km/h
852 03-10-2018 22:55:00 8.3 C 7.5 g/m*3 8.3 C 0 km/h
853 03-10-2018 23:00:00 8.3 C 7.59 g/m*3 8.3 C 0 km/h
854 03-10-2018 23:05:00 8.3 C 7.59 g/m*3 8.3 C 0 km/h
855 03-10-2018 23:10:00 8.3 C 7.59 g/m*3 8.3 C 0 km/h
856 03-10-2018 23:15:00 8.2 C 7.54 g/m*3 8.2 C 0 km/h
857 03-10-2018 23:20:00 8.2 C 7.54 g/m*3 8.2 C 0 km/h
858 03-10-2018 23:25:00 8.1 C 7.49 g/m*3 8.1 C 0 km/h
859 03-10-2018 23:30:00 8.1 C 7.49 g/m*3 8.1 C 0 km/h
860 03-10-2018 23:35:00 8 C 7.44 g/m*3 8 C 0 km/h
861 03-10-2018 23:40:00 8 C 7.44 g/m*3 8 C 3.2 km/h
862 03-10-2018 23:45:00 7.9 C 7.39 g/m*3 7.9 C 0 km/h
863 03-10-2018 23:50:00 7.8 C 7.35 g/m*3 7.8 C 0 km/h
864 03-10-2018 23:55:00 7.8 C 7.35 g/m*3 7.8 C 0 km/h
865 04-10-2018 00:00:00 7.8 C 7.43 g/m*3 7.8 C 0 km/h
866 04-10-2018 00:05:00 7.7 C 7.38 g/m*3 7.7 C 0 km/h
867 04-10-2018 00:10:00 7.7 C 7.38 g/m*3 7.7 C 3.2 km/h
868 04-10-2018 00:15:00 7.7 C 7.38 g/m*3 7.7 C 0 km/h
869 04-10-2018 00:20:00 7.7 C 7.38 g/m*3 7.7 C 0 km/h
870 04-10-2018 00:25:00 7.7 C 7.38 g/m*3 7.7 C 0 km/h
871 04-10-2018 00:30:00 7.6 C 7.33 g/m*3 7.6 C 0 km/h
872 04-10-2018 00:35:00 7.5 C 7.28 g/m*3 7.5 C 0 km/h
873 04-10-2018 00:40:00 7.4 C 7.24 g/m*3 7.4 C 0 km/h
874 04-10-2018 00:45:00 7.2 C 7.14 g/m*3 7.2 C 0 km/h
875 04-10-2018 00:50:00 7.1 C 7.1 g/m*3 7.1 C 0 km/h
Sensor: Nr:Datum:Temp:Abs-Feuchte:Windchill:Wind:
Aussen-T/F 876 04-10-2018 00:55:00 7 C 7.05 g/m*3 7 C 0 km/h
877 04-10-2018 01:00:00 6.9 C 7.01 g/m*3 6.9 C 0 km/h
878 04-10-2018 01:05:00 6.8 C 7.04 g/m*3 6.8 C 1.6 km/h
879 04-10-2018 01:10:00 6.8 C 7.04 g/m*3 6.8 C 0 km/h
880 04-10-2018 01:15:00 6.8 C 7.04 g/m*3 6.8 C 0 km/h
881 04-10-2018 01:20:00 6.7 C 6.99 g/m*3 6.7 C 0 km/h
882 04-10-2018 01:25:00 6.7 C 6.99 g/m*3 6.7 C 0 km/h
883 04-10-2018 01:30:00 6.7 C 6.99 g/m*3 6.7 C 0 km/h
884 04-10-2018 01:35:00 6.6 C 6.95 g/m*3 6.6 C 0 km/h
885 04-10-2018 01:40:00 6.6 C 6.95 g/m*3 6.6 C 0 km/h
886 04-10-2018 01:45:00 6.5 C 6.9 g/m*3 6.5 C 0 km/h
887 04-10-2018 01:50:00 6.4 C 6.85 g/m*3 6.4 C 0 km/h
888 04-10-2018 01:55:00 6.3 C 6.88 g/m*3 6.3 C 0 km/h
889 04-10-2018 02:00:00 6.3 C 6.81 g/m*3 6.3 C 0 km/h
890 04-10-2018 02:05:00 6.3 C 6.88 g/m*3 6.3 C 0 km/h
891 04-10-2018 02:10:00 6.2 C 6.84 g/m*3 6.2 C 0 km/h
892 04-10-2018 02:15:00 6.2 C 6.84 g/m*3 6.2 C 0 km/h
893 04-10-2018 02:20:00 6.1 C 6.79 g/m*3 6.1 C 0 km/h
894 04-10-2018 02:25:00 6 C 6.75 g/m*3 6 C 0 km/h
895 04-10-2018 02:30:00 6 C 6.75 g/m*3 6 C 0 km/h
896 04-10-2018 02:35:00 5.9 C 6.71 g/m*3 5.9 C 0 km/h
897 04-10-2018 02:40:00 5.9 C 6.71 g/m*3 5.9 C 0 km/h
898 04-10-2018 02:45:00 5.9 C 6.71 g/m*3 5.9 C 0 km/h
899 04-10-2018 02:50:00 5.9 C 6.71 g/m*3 5.9 C 0 km/h
900 04-10-2018 02:55:00 5.8 C 6.73 g/m*3 5.8 C 0 km/h
Sensor: Nr:Datum:Temp:Abs-Feuchte:Windchill:Wind:
Aussen-T/F 901 04-10-2018 03:00:00 5.8 C 6.73 g/m*3 5.8 C 0 km/h
902 04-10-2018 03:05:00 5.9 C 6.78 g/m*3 5.9 C 0 km/h
903 04-10-2018 03:10:00 5.9 C 6.78 g/m*3 5.9 C 0 km/h
904 04-10-2018 03:15:00 5.9 C 6.78 g/m*3 5.9 C 0 km/h
905 04-10-2018 03:20:00 5.9 C 6.78 g/m*3 5.9 C 0 km/h
906 04-10-2018 03:25:00 5.8 C 6.73 g/m*3 5.8 C 0 km/h
907 04-10-2018 03:30:00 5.8 C 6.73 g/m*3 5.8 C 0 km/h
908 04-10-2018 03:35:00 5.7 C 6.69 g/m*3 5.7 C 0 km/h
909 04-10-2018 03:40:00 5.7 C 6.69 g/m*3 5.7 C 0 km/h
910 04-10-2018 03:45:00 5.6 C 6.65 g/m*3 5.6 C 0 km/h
911 04-10-2018 03:50:00 5.6 C 6.65 g/m*3 5.6 C 0 km/h
912 04-10-2018 03:55:00 5.6 C 6.65 g/m*3 5.6 C 0 km/h
913 04-10-2018 04:00:00 5.7 C 6.69 g/m*3 5.7 C 3.2 km/h
914 04-10-2018 04:05:00 5.7 C 6.69 g/m*3 5.7 C 3.2 km/h
915 04-10-2018 04:10:00 5.7 C 6.69 g/m*3 5.7 C 1.6 km/h
916 04-10-2018 04:15:00 5.7 C 6.69 g/m*3 5.7 C 0 km/h
917 04-10-2018 04:20:00 5.5 C 6.6 g/m*3 5.5 C 0 km/h
918 04-10-2018 04:25:00 5.4 C 6.56 g/m*3 5.4 C 0 km/h
919 04-10-2018 04:30:00 5.4 C 6.56 g/m*3 5.4 C 0 km/h
920 04-10-2018 04:35:00 5.4 C 6.63 g/m*3 5.4 C 0 km/h
921 04-10-2018 04:40:00 5.5 C 6.67 g/m*3 5.5 C 0 km/h
922 04-10-2018 04:45:00 5.4 C 6.63 g/m*3 5.4 C 0 km/h
923 04-10-2018 04:50:00 5.3 C 6.52 g/m*3 5.3 C 0 km/h
924 04-10-2018 04:55:00 5.3 C 6.52 g/m*3 5.3 C 0 km/h
925 04-10-2018 05:00:00 5.2 C 6.47 g/m*3 5.2 C 0 km/h
Sensor: Nr:Datum:Temp:Abs-Feuchte:Windchill:Wind:
Aussen-T/F 926 04-10-2018 05:05:00 5.2 C 6.47 g/m*3 5.2 C 0 km/h
927 04-10-2018 05:10:00 5.2 C 6.47 g/m*3 5.2 C 0 km/h
928 04-10-2018 05:15:00 5.2 C 6.47 g/m*3 5.2 C 0 km/h
929 04-10-2018 05:20:00 5.2 C 6.47 g/m*3 5.2 C 0 km/h
930 04-10-2018 05:25:00 5.1 C 6.5 g/m*3 5.1 C 0 km/h
931 04-10-2018 05:30:00 5.1 C 6.43 g/m*3 5.1 C 0 km/h
932 04-10-2018 05:35:00 5 C 6.39 g/m*3 5 C 0 km/h
933 04-10-2018 05:40:00 5.1 C 6.5 g/m*3 5.1 C 0 km/h
934 04-10-2018 05:45:00 5.1 C 6.5 g/m*3 5.1 C 0 km/h
935 04-10-2018 05:50:00 5.1 C 6.5 g/m*3 5.1 C 0 km/h
936 04-10-2018 05:55:00 5 C 6.46 g/m*3 5 C 0 km/h
937 04-10-2018 06:00:00 4.9 C 6.41 g/m*3 4.9 C 0 km/h
938 04-10-2018 06:05:00 4.8 C 6.37 g/m*3 4.8 C 0 km/h
939 04-10-2018 06:10:00 4.8 C 6.37 g/m*3 4.8 C 0 km/h
940 04-10-2018 06:15:00 4.8 C 6.37 g/m*3 4.8 C 0 km/h
941 04-10-2018 06:20:00 4.8 C 6.37 g/m*3 4.8 C 0 km/h
942 04-10-2018 06:25:00 4.9 C 6.41 g/m*3 4.9 C 0 km/h
943 04-10-2018 06:30:00 4.9 C 6.41 g/m*3 4.9 C 0 km/h
944 04-10-2018 06:35:00 4.8 C 6.37 g/m*3 4.8 C 0 km/h
945 04-10-2018 06:40:00 4.7 C 6.33 g/m*3 4.7 C 0 km/h
946 04-10-2018 06:45:00 4.6 C 6.29 g/m*3 4.6 C 0 km/h
947 04-10-2018 06:50:00 4.6 C 6.29 g/m*3 4.6 C 0 km/h
948 04-10-2018 06:55:00 4.7 C 6.33 g/m*3 4.7 C 0 km/h
949 04-10-2018 07:00:00 4.7 C 6.33 g/m*3 4.7 C 0 km/h
950 04-10-2018 07:05:00 4.7 C 6.33 g/m*3 4.7 C 0 km/h
Sensor: Nr:Datum:Temp:Abs-Feuchte:Windchill:Wind:
Aussen-T/F 951 04-10-2018 07:10:00 4.7 C 6.33 g/m*3 4.7 C 0 km/h
952 04-10-2018 07:15:00 4.6 C 6.29 g/m*3 4.6 C 0 km/h
953 04-10-2018 07:20:00 4.6 C 6.29 g/m*3 4.6 C 0 km/h
954 04-10-2018 07:25:00 4.4 C 6.2 g/m*3 4.4 C 0 km/h
955 04-10-2018 07:30:00 4.4 C 6.2 g/m*3 4.4 C 0 km/h
956 04-10-2018 07:35:00 4.3 C 6.16 g/m*3 4.3 C 0 km/h
957 04-10-2018 07:40:00 4.3 C 6.16 g/m*3 4.3 C 0 km/h
958 04-10-2018 07:45:00 4.3 C 6.16 g/m*3 4.3 C 0 km/h
959 04-10-2018 07:50:00 4.3 C 6.16 g/m*3 4.3 C 0 km/h
960 04-10-2018 07:55:00 4.3 C 6.16 g/m*3 4.3 C 0 km/h
961 04-10-2018 08:00:00 4.3 C 6.16 g/m*3 4.3 C 0 km/h
962 04-10-2018 08:05:00 4.4 C 6.2 g/m*3 4.4 C 0 km/h
963 04-10-2018 08:10:00 4.4 C 6.2 g/m*3 4.4 C 0 km/h
964 04-10-2018 08:15:00 4.4 C 6.2 g/m*3 4.4 C 0 km/h
965 04-10-2018 08:20:00 4.4 C 6.2 g/m*3 4.4 C 0 km/h
966 04-10-2018 08:25:00 4.5 C 6.31 g/m*3 4.5 C 0 km/h
967 04-10-2018 08:30:00 4.7 C 6.39 g/m*3 4.7 C 0 km/h
968 04-10-2018 08:35:00 4.8 C 6.44 g/m*3 4.8 C 0 km/h
969 04-10-2018 08:40:00 4.9 C 6.48 g/m*3 4.9 C 0 km/h
970 04-10-2018 08:45:00 5.1 C 6.57 g/m*3 5.1 C 0 km/h
971 04-10-2018 08:50:00 5.2 C 6.61 g/m*3 5.2 C 0 km/h
972 04-10-2018 08:55:00 5.4 C 6.7 g/m*3 5.4 C 0 km/h
973 04-10-2018 09:00:00 5.6 C 6.79 g/m*3 5.6 C 0 km/h
974 04-10-2018 09:05:00 5.8 C 6.88 g/m*3 5.8 C 0 km/h
975 04-10-2018 09:10:00 5.9 C 6.92 g/m*3 5.9 C 0 km/h
Sensor: Nr:Datum:Temp:Abs-Feuchte:Windchill:Wind:
Aussen-T/F 976 04-10-2018 09:15:00 6.1 C 7.01 g/m*3 6.1 C 0 km/h
977 04-10-2018 09:20:00 6.2 C 7.06 g/m*3 6.2 C 0 km/h
978 04-10-2018 09:25:00 6.3 C 7.11 g/m*3 6.3 C 1.6 km/h
979 04-10-2018 09:30:00 6.5 C 7.2 g/m*3 6.5 C 1.6 km/h
980 04-10-2018 09:35:00 6.6 C 7.25 g/m*3 6.6 C 0 km/h
981 04-10-2018 09:40:00 6.7 C 7.29 g/m*3 6.7 C 0 km/h
982 04-10-2018 09:45:00 6.8 C 7.34 g/m*3 6.8 C 0 km/h
983 04-10-2018 09:50:00 7 C 7.44 g/m*3 7 C 0 km/h
984 04-10-2018 09:55:00 7.1 C 7.49 g/m*3 7.1 C 0 km/h
985 04-10-2018 10:00:00 7.2 C 7.54 g/m*3 7.2 C 0 km/h
986 04-10-2018 10:05:00 7.3 C 7.58 g/m*3 7.3 C 0 km/h
987 04-10-2018 10:10:00 7.4 C 7.63 g/m*3 7.4 C 1.6 km/h
988 04-10-2018 10:15:00 7.6 C 7.73 g/m*3 7.6 C 0 km/h
989 04-10-2018 10:20:00 7.7 C 7.7 g/m*3 7.7 C 0 km/h
990 04-10-2018 10:25:00 7.8 C 7.75 g/m*3 7.8 C 0 km/h
991 04-10-2018 10:30:00 8 C 7.85 g/m*3 8 C 0 km/h
992 04-10-2018 10:35:00 8.2 C 7.96 g/m*3 8.2 C 1.6 km/h
993 04-10-2018 10:40:00 8.3 C 7.92 g/m*3 8.3 C 0 km/h
994 04-10-2018 10:45:00 8.4 C 7.97 g/m*3 8.4 C 0 km/h
995 04-10-2018 10:50:00 8.6 C 7.99 g/m*3 8.6 C 0 km/h
996 04-10-2018 10:55:00 8.8 C 8.09 g/m*3 8.8 C 0 km/h
997 04-10-2018 11:00:00 9.1 C 8.25 g/m*3 9.1 C 0 km/h
998 04-10-2018 11:05:00 9.2 C 8.22 g/m*3 9.2 C 0 km/h
999 04-10-2018 11:10:00 9.5 C 8.37 g/m*3 9.5 C 0 km/h
1000 04-10-2018 11:15:00 9.7 C 8.48 g/m*3 9.7 C 1.6 km/h
Sensor: Nr:Datum:Temp:Abs-Feuchte:Windchill:Wind:
Aussen-T/F 1001 04-10-2018 11:20:00 9.9 C 8.5 g/m*3 9.9 C 0 km/h
1002 04-10-2018 11:25:00 10.2 C 8.56 g/m*3 10.2 C 0 km/h
1003 04-10-2018 11:30:00 10.4 C 8.67 g/m*3 10.4 C 0 km/h
1004 04-10-2018 11:35:00 10.7 C 8.74 g/m*3 10.7 C 0 km/h
1005 04-10-2018 11:40:00 10.9 C 8.75 g/m*3 10.9 C 1.6 km/h
1006 04-10-2018 11:45:00 11.2 C 8.92 g/m*3 11.2 C 0 km/h
1007 04-10-2018 11:50:00 11.4 C 8.83 g/m*3 11.4 C 0 km/h
1008 04-10-2018 11:55:00 11.7 C 8.89 g/m*3 11.7 C 1.6 km/h
1009 04-10-2018 12:00:00 11.7 C 8.79 g/m*3 11.7 C 1.6 km/h
1010 04-10-2018 12:05:00 11.8 C 8.95 g/m*3 11.8 C 0 km/h
1011 04-10-2018 12:10:00 11.8 C 8.84 g/m*3 11.8 C 0 km/h
1012 04-10-2018 12:15:00 11.9 C 8.9 g/m*3 11.9 C 0 km/h
1013 04-10-2018 12:20:00 11.9 C 9 g/m*3 11.9 C 0 km/h
1014 04-10-2018 12:25:00 11.9 C 9.11 g/m*3 11.9 C 0 km/h
1015 04-10-2018 12:30:00 12 C 9.17 g/m*3 12 C 0 km/h
1016 04-10-2018 12:35:00 12.1 C 9.33 g/m*3 12.1 C 0 km/h
1017 04-10-2018 12:40:00 12.2 C 9.39 g/m*3 12.2 C 0 km/h
1018 04-10-2018 12:45:00 12.3 C 9.34 g/m*3 12.3 C 0 km/h
1019 04-10-2018 12:50:00 12.4 C 9.51 g/m*3 12.4 C 0 km/h
1020 04-10-2018 12:55:00 12.6 C 9.62 g/m*3 12.6 C 0 km/h
1021 04-10-2018 13:00:00 12.7 C 9.46 g/m*3 12.7 C 0 km/h
1022 04-10-2018 13:05:00 12.7 C 9.46 g/m*3 12.7 C 0 km/h
1023 04-10-2018 13:10:00 12.8 C 9.63 g/m*3 12.8 C 0 km/h
1024 04-10-2018 13:15:00 12.8 C 9.63 g/m*3 12.8 C 0 km/h
1025 04-10-2018 13:20:00 12.8 C 9.63 g/m*3 12.8 C 0 km/h
Sensor: Nr:Datum:Temp:Abs-Feuchte:Windchill:Wind:
Aussen-T/F 1026 04-10-2018 13:25:00 12.8 C 9.63 g/m*3 12.8 C 0 km/h
1027 04-10-2018 13:30:00 12.9 C 9.69 g/m*3 12.9 C 0 km/h
1028 04-10-2018 13:35:00 12.9 C 9.69 g/m*3 12.9 C 0 km/h
1029 04-10-2018 13:40:00 12.8 C 9.63 g/m*3 12.8 C 0 km/h
1030 04-10-2018 13:45:00 12.9 C 9.69 g/m*3 12.9 C 0 km/h
1031 04-10-2018 13:50:00 12.9 C 9.69 g/m*3 12.9 C 0 km/h
1032 04-10-2018 13:55:00 12.9 C 9.81 g/m*3 12.9 C 0 km/h
1033 04-10-2018 14:00:00 13.1 C 9.93 g/m*3 13.1 C 0 km/h
1034 04-10-2018 14:05:00 13.3 C 9.94 g/m*3 13.3 C 0 km/h
1035 04-10-2018 14:10:00 13.5 C 10.06 g/m*3 13.5 C 0 km/h
1036 04-10-2018 14:15:00 13.7 C 10.18 g/m*3 13.7 C 0 km/h
1037 04-10-2018 14:20:00 13.9 C 10.19 g/m*3 13.9 C 0 km/h
1038 04-10-2018 14:25:00 14.2 C 10.38 g/m*3 14.2 C 0 km/h
1039 04-10-2018 14:30:00 14.6 C 10.01 g/m*3 14.6 C 4.8 km/h
1040 04-10-2018 14:35:00 15.1 C 9.8 g/m*3 15.1 C 4.8 km/h
1041 04-10-2018 14:40:00 15.8 C 9.69 g/m*3 15.8 C 6.4 km/h
1042 04-10-2018 14:45:00 16.2 C 9.93 g/m*3 16.2 C 3.2 km/h
1043 04-10-2018 14:50:00 16.5 C 9.69 g/m*3 16.5 C 3.2 km/h
1044 04-10-2018 14:55:00 16.6 C 9.75 g/m*3 16.6 C 3.2 km/h
1045 04-10-2018 15:00:00 16.7 C 9.95 g/m*3 16.7 C 1.6 km/h
1046 04-10-2018 15:05:00 16.7 C 9.66 g/m*3 16.7 C 1.6 km/h
1047 04-10-2018 15:10:00 16.6 C 9.46 g/m*3 16.6 C 6.4 km/h
1048 04-10-2018 15:15:00 16.6 C 9.89 g/m*3 16.6 C 4.8 km/h
1049 04-10-2018 15:20:00 16.5 C 9.41 g/m*3 16.5 C 3.2 km/h
1050 04-10-2018 15:25:00 16.5 C 9.41 g/m*3 16.5 C 3.2 km/h
Sensor: Nr:Datum:Temp:Abs-Feuchte:Windchill:Wind:
Aussen-T/F 1051 04-10-2018 15:30:00 16.6 C 9.61 g/m*3 16.6 C 8.1 km/h
1052 04-10-2018 15:35:00 16.6 C 9.46 g/m*3 16.6 C 8.1 km/h
1053 04-10-2018 15:40:00 16.7 C 9.52 g/m*3 16.7 C 6.4 km/h
1054 04-10-2018 15:45:00 16.7 C 9.52 g/m*3 16.7 C 3.2 km/h
1055 04-10-2018 15:50:00 16.7 C 9.66 g/m*3 16.7 C 8.1 km/h
1056 04-10-2018 15:55:00 16.8 C 9.58 g/m*3 16.8 C 4.8 km/h
1057 04-10-2018 16:00:00 16.8 C 9.58 g/m*3 16.8 C 6.4 km/h
1058 04-10-2018 16:05:00 16.9 C 9.49 g/m*3 16.9 C 11.3 km/h
1059 04-10-2018 16:10:00 17 C 9.55 g/m*3 17 C 4.8 km/h
1060 04-10-2018 16:15:00 17 C 9.41 g/m*3 17 C 8.1 km/h
1061 04-10-2018 16:20:00 17 C 9.41 g/m*3 17 C 6.4 km/h
1062 04-10-2018 16:25:00 17 C 9.69 g/m*3 17 C 6.4 km/h
1063 04-10-2018 16:30:00 17 C 9.55 g/m*3 17 C 4.8 km/h
1064 04-10-2018 16:35:00 17 C 9.69 g/m*3 17 C 3.2 km/h
1065 04-10-2018 16:40:00 16.9 C 9.92 g/m*3 16.9 C 4.8 km/h
1066 04-10-2018 16:45:00 16.9 C 9.64 g/m*3 16.9 C 9.7 km/h
1067 04-10-2018 16:50:00 17.2 C 9.67 g/m*3 17.2 C 6.4 km/h
1068 04-10-2018 16:55:00 17.4 C 9.63 g/m*3 17.4 C 6.4 km/h
1069 04-10-2018 17:00:00 17.5 C 9.69 g/m*3 17.5 C 4.8 km/h
1070 04-10-2018 17:05:00 17.5 C 9.69 g/m*3 17.5 C 8.1 km/h
1071 04-10-2018 17:10:00 17.5 C 9.69 g/m*3 17.5 C 6.4 km/h
1072 04-10-2018 17:15:00 17.5 C 9.54 g/m*3 17.5 C 6.4 km/h
1073 04-10-2018 17:20:00 17.5 C 9.84 g/m*3 17.5 C 3.2 km/h
1074 04-10-2018 17:25:00 17.5 C 10.14 g/m*3 17.5 C 3.2 km/h
1075 04-10-2018 17:30:00 17.4 C 9.93 g/m*3 17.4 C 4.8 km/h
Sensor: Nr:Datum:Temp:Abs-Feuchte:Windchill:Wind:
Aussen-T/F 1076 04-10-2018 17:35:00 17.6 C 10.35 g/m*3 17.6 C 0 km/h
1077 04-10-2018 17:40:00 17.6 C 10.5 g/m*3 17.6 C 3.2 km/h
1078 04-10-2018 17:45:00 17.5 C 10.44 g/m*3 17.5 C 0 km/h
1079 04-10-2018 17:50:00 17.4 C 10.37 g/m*3 17.4 C 1.6 km/h
1080 04-10-2018 17:55:00 17.3 C 10.46 g/m*3 17.3 C 0 km/h
1081 04-10-2018 18:00:00 17.1 C 10.48 g/m*3 17.1 C 0 km/h
1082 04-10-2018 18:05:00 17 C 10.42 g/m*3 17 C 0 km/h
1083 04-10-2018 18:10:00 16.9 C 10.5 g/m*3 16.9 C 0 km/h
1084 04-10-2018 18:15:00 16.8 C 10.29 g/m*3 16.8 C 0 km/h
1085 04-10-2018 18:20:00 16.7 C 10.23 g/m*3 16.7 C 0 km/h
1086 04-10-2018 18:25:00 16.5 C 10.25 g/m*3 16.5 C 0 km/h
1087 04-10-2018 18:30:00 16.2 C 10.07 g/m*3 16.2 C 0 km/h
1088 04-10-2018 18:35:00 16 C 10.08 g/m*3 16 C 0 km/h
1089 04-10-2018 18:40:00 15.7 C 10.03 g/m*3 15.7 C 0 km/h
1090 04-10-2018 18:45:00 15.4 C 9.99 g/m*3 15.4 C 0 km/h
1091 04-10-2018 18:50:00 15.2 C 9.86 g/m*3 15.2 C 0 km/h
1092 04-10-2018 18:55:00 14.9 C 9.81 g/m*3 14.9 C 0 km/h
1093 04-10-2018 19:00:00 14.7 C 9.82 g/m*3 14.7 C 0 km/h
1094 04-10-2018 19:05:00 14.4 C 9.64 g/m*3 14.4 C 0 km/h
1095 04-10-2018 19:10:00 14.1 C 9.59 g/m*3 14.1 C 1.6 km/h
1096 04-10-2018 19:15:00 13.9 C 9.59 g/m*3 13.9 C 1.6 km/h
1097 04-10-2018 19:20:00 13.7 C 9.47 g/m*3 13.7 C 1.6 km/h
1098 04-10-2018 19:25:00 13.6 C 9.53 g/m*3 13.6 C 0 km/h
1099 04-10-2018 19:30:00 13.4 C 9.42 g/m*3 13.4 C 0 km/h
1100 04-10-2018 19:35:00 13.3 C 9.47 g/m*3 13.3 C 0 km/h
Sensor: Nr:Datum:Temp:Abs-Feuchte:Windchill:Wind:
Aussen-T/F 1101 04-10-2018 19:40:00 13.2 C 9.42 g/m*3 13.2 C 0 km/h
1102 04-10-2018 19:45:00 13 C 9.41 g/m*3 13 C 0 km/h
1103 04-10-2018 19:50:00 12.9 C 9.35 g/m*3 12.9 C 0 km/h
1104 04-10-2018 19:55:00 12.7 C 9.35 g/m*3 12.7 C 0 km/h
1105 04-10-2018 20:00:00 12.5 C 9.24 g/m*3 12.5 C 0 km/h
1106 04-10-2018 20:05:00 12.3 C 9.23 g/m*3 12.3 C 0 km/h
1107 04-10-2018 20:10:00 12.1 C 9.12 g/m*3 12.1 C 0 km/h
1108 04-10-2018 20:15:00 11.8 C 9.05 g/m*3 11.8 C 0 km/h
1109 04-10-2018 20:20:00 11.7 C 8.99 g/m*3 11.7 C 0 km/h
1110 04-10-2018 20:25:00 11.6 C 8.94 g/m*3 11.6 C 0 km/h
1111 04-10-2018 20:30:00 11.4 C 8.93 g/m*3 11.4 C 0 km/h
1112 04-10-2018 20:35:00 11.3 C 8.98 g/m*3 11.3 C 0 km/h
1113 04-10-2018 20:40:00 11.2 C 8.92 g/m*3 11.2 C 0 km/h
1114 04-10-2018 20:45:00 11.1 C 8.86 g/m*3 11.1 C 0 km/h
1115 04-10-2018 20:50:00 11 C 8.91 g/m*3 11 C 0 km/h
1116 04-10-2018 20:55:00 10.9 C 8.75 g/m*3 10.9 C 0 km/h
1117 04-10-2018 21:00:00 10.7 C 8.74 g/m*3 10.7 C 0 km/h
1118 04-10-2018 21:05:00 10.6 C 8.69 g/m*3 10.6 C 0 km/h
1119 04-10-2018 21:10:00 10.6 C 8.69 g/m*3 10.6 C 0 km/h
1120 04-10-2018 21:15:00 10.4 C 8.67 g/m*3 10.4 C 0 km/h
1121 04-10-2018 21:20:00 10.3 C 8.52 g/m*3 10.3 C 0 km/h
1122 04-10-2018 21:25:00 10.2 C 8.56 g/m*3 10.2 C 0 km/h
1123 04-10-2018 21:30:00 10.2 C 8.56 g/m*3 10.2 C 0 km/h
1124 04-10-2018 21:35:00 10 C 8.46 g/m*3 10 C 0 km/h
1125 04-10-2018 21:40:00 9.9 C 8.4 g/m*3 9.9 C 0 km/h
Sensor: Nr:Datum:Temp:Abs-Feuchte:Windchill:Wind:
Aussen-T/F 1126 04-10-2018 21:45:00 9.8 C 8.35 g/m*3 9.8 C 0 km/h
1127 04-10-2018 21:50:00 9.7 C 8.3 g/m*3 9.7 C 0 km/h
1128 04-10-2018 21:55:00 9.6 C 8.24 g/m*3 9.6 C 0 km/h
1129 04-10-2018 22:00:00 9.4 C 8.14 g/m*3 9.4 C 0 km/h
1130 04-10-2018 22:05:00 9.3 C 8.18 g/m*3 9.3 C 0 km/h
1131 04-10-2018 22:10:00 9.3 C 8.18 g/m*3 9.3 C 0 km/h
1132 04-10-2018 22:15:00 9.3 C 8.27 g/m*3 9.3 C 0 km/h
1133 04-10-2018 22:20:00 9.2 C 8.13 g/m*3 9.2 C 0 km/h
1134 04-10-2018 22:25:00 9.1 C 8.07 g/m*3 9.1 C 0 km/h
1135 04-10-2018 22:30:00 9.1 C 8.16 g/m*3 9.1 C 0 km/h
1136 04-10-2018 22:35:00 9 C 8.11 g/m*3 9 C 0 km/h
1137 04-10-2018 22:40:00 8.9 C 8.06 g/m*3 8.9 C 0 km/h
1138 04-10-2018 22:45:00 8.8 C 8.01 g/m*3 8.8 C 0 km/h
1139 04-10-2018 22:50:00 8.7 C 7.96 g/m*3 8.7 C 0 km/h
1140 04-10-2018 22:55:00 8.6 C 7.91 g/m*3 8.6 C 0 km/h
1141 04-10-2018 23:00:00 8.5 C 7.85 g/m*3 8.5 C 0 km/h
1142 04-10-2018 23:05:00 8.4 C 7.8 g/m*3 8.4 C 0 km/h
1143 04-10-2018 23:10:00 8.3 C 7.75 g/m*3 8.3 C 0 km/h
1144 04-10-2018 23:15:00 8.3 C 7.75 g/m*3 8.3 C 0 km/h
1145 04-10-2018 23:20:00 8.2 C 7.79 g/m*3 8.2 C 0 km/h
1146 04-10-2018 23:25:00 8.2 C 7.79 g/m*3 8.2 C 0 km/h
1147 04-10-2018 23:30:00 8.3 C 7.84 g/m*3 8.3 C 0 km/h
1148 04-10-2018 23:35:00 8.3 C 7.84 g/m*3 8.3 C 0 km/h
1149 04-10-2018 23:40:00 8.2 C 7.79 g/m*3 8.2 C 0 km/h
1150 04-10-2018 23:45:00 8.2 C 7.79 g/m*3 8.2 C 0 km/h
Sensor: Nr:Datum:Temp:Abs-Feuchte:Windchill:Wind:
Aussen-T/F 1151 04-10-2018 23:50:00 8.1 C 7.74 g/m*3 8.1 C 0 km/h
1152 04-10-2018 23:55:00 8 C 7.69 g/m*3 8 C 0 km/h
1153 05-10-2018 00:00:00 8 C 7.69 g/m*3 8 C 0 km/h
1154 05-10-2018 00:05:00 7.9 C 7.64 g/m*3 7.9 C 0 km/h
1155 05-10-2018 00:10:00 7.8 C 7.59 g/m*3 7.8 C 0 km/h
1156 05-10-2018 00:15:00 7.8 C 7.59 g/m*3 7.8 C 0 km/h
1157 05-10-2018 00:20:00 7.7 C 7.54 g/m*3 7.7 C 0 km/h
1158 05-10-2018 00:25:00 7.7 C 7.62 g/m*3 7.7 C 0 km/h
1159 05-10-2018 00:30:00 7.6 C 7.49 g/m*3 7.6 C 0 km/h
1160 05-10-2018 00:35:00 7.5 C 7.44 g/m*3 7.5 C 0 km/h
1161 05-10-2018 00:40:00 7.5 C 7.52 g/m*3 7.5 C 0 km/h
1162 05-10-2018 00:45:00 7.5 C 7.52 g/m*3 7.5 C 0 km/h
1163 05-10-2018 00:50:00 7.3 C 7.35 g/m*3 7.3 C 0 km/h
1164 05-10-2018 00:55:00 7.2 C 7.3 g/m*3 7.2 C 0 km/h
1165 05-10-2018 01:00:00 7.1 C 7.33 g/m*3 7.1 C 0 km/h
1166 05-10-2018 01:05:00 7.2 C 7.38 g/m*3 7.2 C 0 km/h
1167 05-10-2018 01:10:00 7.3 C 7.51 g/m*3 7.3 C 0 km/h
1168 05-10-2018 01:15:00 7.7 C 7.7 g/m*3 7.7 C 0 km/h
1169 05-10-2018 01:20:00 7.7 C 7.7 g/m*3 7.7 C 0 km/h
1170 05-10-2018 01:25:00 7.8 C 7.75 g/m*3 7.8 C 0 km/h
1171 05-10-2018 01:30:00 7.6 C 7.57 g/m*3 7.6 C 0 km/h
1172 05-10-2018 01:35:00 7.4 C 7.48 g/m*3 7.4 C 0 km/h
1173 05-10-2018 01:40:00 7.4 C 7.48 g/m*3 7.4 C 0 km/h
1174 05-10-2018 01:45:00 7.2 C 7.38 g/m*3 7.2 C 0 km/h
1175 05-10-2018 01:50:00 7 C 7.28 g/m*3 7 C 0 km/h
Sensor: Nr:Datum:Temp:Abs-Feuchte:Windchill:Wind:
Aussen-T/F 1176 05-10-2018 01:55:00 6.9 C 7.24 g/m*3 6.9 C 0 km/h
1177 05-10-2018 02:00:00 6.8 C 7.19 g/m*3 6.8 C 0 km/h
1178 05-10-2018 02:05:00 6.7 C 7.14 g/m*3 6.7 C 0 km/h
1179 05-10-2018 02:10:00 6.7 C 7.14 g/m*3 6.7 C 0 km/h
1180 05-10-2018 02:15:00 6.8 C 7.27 g/m*3 6.8 C 0 km/h
1181 05-10-2018 02:20:00 6.9 C 7.31 g/m*3 6.9 C 0 km/h
1182 05-10-2018 02:25:00 6.8 C 7.19 g/m*3 6.8 C 0 km/h
1183 05-10-2018 02:30:00 6.7 C 7.22 g/m*3 6.7 C 0 km/h
1184 05-10-2018 02:35:00 6.6 C 7.1 g/m*3 6.6 C 0 km/h
1185 05-10-2018 02:40:00 6.4 C 7 g/m*3 6.4 C 0 km/h
1186 05-10-2018 02:45:00 6.4 C 7 g/m*3 6.4 C 0 km/h
1187 05-10-2018 02:50:00 6.4 C 7 g/m*3 6.4 C 0 km/h
1188 05-10-2018 02:55:00 6.3 C 6.96 g/m*3 6.3 C 0 km/h
1189 05-10-2018 03:00:00 6.3 C 7.03 g/m*3 6.3 C 0 km/h
1190 05-10-2018 03:05:00 6.3 C 7.03 g/m*3 6.3 C 0 km/h
1191 05-10-2018 03:10:00 6.2 C 6.99 g/m*3 6.2 C 0 km/h
1192 05-10-2018 03:15:00 6.1 C 6.87 g/m*3 6.1 C 0 km/h
1193 05-10-2018 03:20:00 6 C 6.9 g/m*3 6 C 0 km/h
1194 05-10-2018 03:25:00 5.9 C 6.85 g/m*3 5.9 C 0 km/h
1195 05-10-2018 03:30:00 5.9 C 6.85 g/m*3 5.9 C 0 km/h
1196 05-10-2018 03:35:00 5.9 C 6.85 g/m*3 5.9 C 0 km/h
1197 05-10-2018 03:40:00 5.8 C 6.81 g/m*3 5.8 C 0 km/h
1198 05-10-2018 03:45:00 5.8 C 6.81 g/m*3 5.8 C 0 km/h
1199 05-10-2018 03:50:00 5.8 C 6.81 g/m*3 5.8 C 0 km/h
1200 05-10-2018 03:55:00 5.8 C 6.81 g/m*3 5.8 C 0 km/h
Sensor: Nr:Datum:Temp:Abs-Feuchte:Windchill:Wind:
Aussen-T/F 1201 05-10-2018 04:00:00 5.9 C 6.85 g/m*3 5.9 C 0 km/h
1202 05-10-2018 04:05:00 5.9 C 6.85 g/m*3 5.9 C 0 km/h
1203 05-10-2018 04:10:00 5.9 C 6.85 g/m*3 5.9 C 0 km/h
1204 05-10-2018 04:15:00 5.8 C 6.81 g/m*3 5.8 C 0 km/h
1205 05-10-2018 04:20:00 5.6 C 6.72 g/m*3 5.6 C 0 km/h
1206 05-10-2018 04:25:00 5.6 C 6.72 g/m*3 5.6 C 0 km/h
1207 05-10-2018 04:30:00 5.6 C 6.72 g/m*3 5.6 C 0 km/h
1208 05-10-2018 04:35:00 5.6 C 6.72 g/m*3 5.6 C 0 km/h
1209 05-10-2018 04:40:00 5.7 C 6.76 g/m*3 5.7 C 0 km/h
1210 05-10-2018 04:45:00 5.6 C 6.72 g/m*3 5.6 C 0 km/h
1211 05-10-2018 04:50:00 5.5 C 6.67 g/m*3 5.5 C 0 km/h
1212 05-10-2018 04:55:00 5.4 C 6.63 g/m*3 5.4 C 0 km/h
1213 05-10-2018 05:00:00 5.6 C 6.72 g/m*3 5.6 C 0 km/h
1214 05-10-2018 05:05:00 5.7 C 6.76 g/m*3 5.7 C 0 km/h
1215 05-10-2018 05:10:00 5.7 C 6.76 g/m*3 5.7 C 0 km/h
1216 05-10-2018 05:15:00 5.6 C 6.72 g/m*3 5.6 C 0 km/h
1217 05-10-2018 05:20:00 5.5 C 6.67 g/m*3 5.5 C 0 km/h
1218 05-10-2018 05:25:00 5.3 C 6.58 g/m*3 5.3 C 0 km/h
1219 05-10-2018 05:30:00 5.2 C 6.54 g/m*3 5.2 C 0 km/h
1220 05-10-2018 05:35:00 5.1 C 6.5 g/m*3 5.1 C 0 km/h
1221 05-10-2018 05:40:00 5.2 C 6.54 g/m*3 5.2 C 0 km/h
1222 05-10-2018 05:45:00 5.2 C 6.54 g/m*3 5.2 C 0 km/h
1223 05-10-2018 05:50:00 5.3 C 6.65 g/m*3 5.3 C 0 km/h
1224 05-10-2018 05:55:00 5.3 C 6.65 g/m*3 5.3 C 0 km/h
1225 05-10-2018 06:00:00 5.6 C 6.79 g/m*3 5.6 C 0 km/h
Sensor: Nr:Datum:Temp:Abs-Feuchte:Windchill:Wind:
Aussen-T/F 1226 05-10-2018 06:05:00 5.7 C 6.83 g/m*3 5.7 C 0 km/h
1227 05-10-2018 06:10:00 5.8 C 6.88 g/m*3 5.8 C 0 km/h
1228 05-10-2018 06:15:00 5.8 C 6.88 g/m*3 5.8 C 0 km/h
1229 05-10-2018 06:20:00 5.8 C 6.88 g/m*3 5.8 C 0 km/h
1230 05-10-2018 06:25:00 5.8 C 6.88 g/m*3 5.8 C 0 km/h
1231 05-10-2018 06:30:00 5.8 C 6.88 g/m*3 5.8 C 0 km/h
1232 05-10-2018 06:35:00 5.8 C 6.88 g/m*3 5.8 C 0 km/h
1233 05-10-2018 06:40:00 5.8 C 6.88 g/m*3 5.8 C 0 km/h
1234 05-10-2018 06:45:00 5.8 C 6.88 g/m*3 5.8 C 0 km/h
1235 05-10-2018 06:50:00 5.8 C 6.88 g/m*3 5.8 C 0 km/h
1236 05-10-2018 06:55:00 5.8 C 6.88 g/m*3 5.8 C 0 km/h
1237 05-10-2018 07:00:00 5.8 C 6.88 g/m*3 5.8 C 0 km/h
1238 05-10-2018 07:05:00 5.7 C 6.83 g/m*3 5.7 C 0 km/h
1239 05-10-2018 07:10:00 5.7 C 6.83 g/m*3 5.7 C 0 km/h
1240 05-10-2018 07:15:00 5.7 C 6.83 g/m*3 5.7 C 0 km/h
1241 05-10-2018 07:20:00 5.7 C 6.83 g/m*3 5.7 C 0 km/h
1242 05-10-2018 07:25:00 5.7 C 6.83 g/m*3 5.7 C 0 km/h
1243 05-10-2018 07:30:00 5.7 C 6.83 g/m*3 5.7 C 0 km/h
1244 05-10-2018 07:35:00 5.7 C 6.83 g/m*3 5.7 C 0 km/h
1245 05-10-2018 07:40:00 5.7 C 6.83 g/m*3 5.7 C 0 km/h
1246 05-10-2018 07:45:00 5.7 C 6.83 g/m*3 5.7 C 0 km/h
1247 05-10-2018 07:50:00 5.6 C 6.79 g/m*3 5.6 C 0 km/h
1248 05-10-2018 07:55:00 5.6 C 6.79 g/m*3 5.6 C 0 km/h
1249 05-10-2018 08:00:00 5.5 C 6.74 g/m*3 5.5 C 0 km/h
1250 05-10-2018 08:05:00 5.5 C 6.74 g/m*3 5.5 C 0 km/h
Sensor: Nr:Datum:Temp:Abs-Feuchte:Windchill:Wind:
Aussen-T/F 1251 05-10-2018 08:10:00 5.5 C 6.74 g/m*3 5.5 C 0 km/h
1252 05-10-2018 08:15:00 5.6 C 6.79 g/m*3 5.6 C 0 km/h
1253 05-10-2018 08:20:00 5.6 C 6.79 g/m*3 5.6 C 0 km/h
1254 05-10-2018 08:25:00 5.6 C 6.79 g/m*3 5.6 C 0 km/h
1255 05-10-2018 08:30:00 5.6 C 6.79 g/m*3 5.6 C 0 km/h
1256 05-10-2018 08:35:00 5.6 C 6.79 g/m*3 5.6 C 0 km/h
1257 05-10-2018 08:40:00 5.6 C 6.79 g/m*3 5.6 C 0 km/h
1258 05-10-2018 08:45:00 5.6 C 6.79 g/m*3 5.6 C 0 km/h
1259 05-10-2018 08:50:00 5.6 C 6.79 g/m*3 5.6 C 0 km/h
1260 05-10-2018 08:55:00 5.5 C 6.74 g/m*3 5.5 C 0 km/h
1261 05-10-2018 09:00:00 5.5 C 6.74 g/m*3 5.5 C 0 km/h
1262 05-10-2018 09:05:00 5.5 C 6.74 g/m*3 5.5 C 0 km/h
1263 05-10-2018 09:10:00 5.6 C 6.79 g/m*3 5.6 C 0 km/h
1264 05-10-2018 09:15:00 5.6 C 6.79 g/m*3 5.6 C 0 km/h
1265 05-10-2018 09:20:00 5.6 C 6.79 g/m*3 5.6 C 0 km/h
1266 05-10-2018 09:25:00 5.6 C 6.79 g/m*3 5.6 C 0 km/h
1267 05-10-2018 09:30:00 5.6 C 6.79 g/m*3 5.6 C 0 km/h
1268 05-10-2018 09:35:00 5.6 C 6.79 g/m*3 5.6 C 0 km/h
1269 05-10-2018 09:40:00 5.7 C 6.83 g/m*3 5.7 C 0 km/h
1270 05-10-2018 09:45:00 5.8 C 6.88 g/m*3 5.8 C 0 km/h
1271 05-10-2018 09:50:00 5.9 C 6.92 g/m*3 5.9 C 0 km/h
1272 05-10-2018 09:55:00 6.1 C 7.09 g/m*3 6.1 C 0 km/h
1273 05-10-2018 10:00:00 6.2 C 7.06 g/m*3 6.2 C 0 km/h
1274 05-10-2018 10:05:00 6.3 C 7.11 g/m*3 6.3 C 0 km/h
1275 05-10-2018 10:10:00 6.4 C 7.23 g/m*3 6.4 C 0 km/h
Sensor: Nr:Datum:Temp:Abs-Feuchte:Windchill:Wind:
Aussen-T/F 1276 05-10-2018 10:15:00 6.6 C 7.32 g/m*3 6.6 C 0 km/h
1277 05-10-2018 10:20:00 6.7 C 7.37 g/m*3 6.7 C 0 km/h
1278 05-10-2018 10:25:00 6.7 C 7.37 g/m*3 6.7 C 0 km/h
1279 05-10-2018 10:30:00 6.8 C 7.42 g/m*3 6.8 C 0 km/h
1280 05-10-2018 10:35:00 6.9 C 7.47 g/m*3 6.9 C 0 km/h
1281 05-10-2018 10:40:00 7 C 7.52 g/m*3 7 C 0 km/h
1282 05-10-2018 10:45:00 7.1 C 7.57 g/m*3 7.1 C 0 km/h
1283 05-10-2018 10:50:00 7.2 C 7.61 g/m*3 7.2 C 0 km/h
1284 05-10-2018 10:55:00 7.2 C 7.61 g/m*3 7.2 C 0 km/h
1285 05-10-2018 11:00:00 7.2 C 7.61 g/m*3 7.2 C 0 km/h
1286 05-10-2018 11:05:00 7.3 C 7.66 g/m*3 7.3 C 0 km/h
1287 05-10-2018 11:10:00 7.3 C 7.66 g/m*3 7.3 C 0 km/h
1288 05-10-2018 11:15:00 7.4 C 7.71 g/m*3 7.4 C 0 km/h
1289 05-10-2018 11:20:00 7.5 C 7.76 g/m*3 7.5 C 0 km/h
1290 05-10-2018 11:25:00 7.7 C 7.87 g/m*3 7.7 C 0 km/h
1291 05-10-2018 11:30:00 7.8 C 7.92 g/m*3 7.8 C 0 km/h
1292 05-10-2018 11:35:00 8.1 C 8.07 g/m*3 8.1 C 0 km/h
1293 05-10-2018 11:40:00 8.2 C 8.12 g/m*3 8.2 C 0 km/h
1294 05-10-2018 11:45:00 8.4 C 8.23 g/m*3 8.4 C 0 km/h
1295 05-10-2018 11:50:00 8.8 C 8.44 g/m*3 8.8 C 0 km/h
1296 05-10-2018 11:55:00 9.2 C 8.66 g/m*3 9.2 C 0 km/h
1297 05-10-2018 12:00:00 9.4 C 8.77 g/m*3 9.4 C 0 km/h
1298 05-10-2018 12:05:00 9.6 C 8.89 g/m*3 9.6 C 0 km/h
1299 05-10-2018 12:10:00 9.7 C 8.94 g/m*3 9.7 C 0 km/h
1300 05-10-2018 12:15:00 9.9 C 9.06 g/m*3 9.9 C 0 km/h
Sensor: Nr:Datum:Temp:Abs-Feuchte:Windchill:Wind:
Aussen-T/F 1301 05-10-2018 12:20:00 10.2 C 9.23 g/m*3 10.2 C 0 km/h
1302 05-10-2018 12:25:00 10.3 C 9.29 g/m*3 10.3 C 0 km/h
1303 05-10-2018 12:30:00 10.4 C 9.35 g/m*3 10.4 C 0 km/h
1304 05-10-2018 12:35:00 10.6 C 9.47 g/m*3 10.6 C 0 km/h
1305 05-10-2018 12:40:00 10.7 C 9.53 g/m*3 10.7 C 0 km/h
1306 05-10-2018 12:45:00 10.8 C 9.59 g/m*3 10.8 C 0 km/h
1307 05-10-2018 12:50:00 11.1 C 9.77 g/m*3 11.1 C 0 km/h
1308 05-10-2018 12:55:00 11.2 C 9.83 g/m*3 11.2 C 0 km/h
1309 05-10-2018 13:00:00 11.5 C 10.02 g/m*3 11.5 C 0 km/h
1310 05-10-2018 13:05:00 11.7 C 10.15 g/m*3 11.7 C 0 km/h
1311 05-10-2018 13:10:00 11.9 C 10.27 g/m*3 11.9 C 0 km/h
1312 05-10-2018 13:15:00 12.1 C 10.4 g/m*3 12.1 C 0 km/h
1313 05-10-2018 13:20:00 12.3 C 10.53 g/m*3 12.3 C 0 km/h
1314 05-10-2018 13:25:00 12.6 C 10.73 g/m*3 12.6 C 0 km/h
1315 05-10-2018 13:30:00 12.8 C 10.87 g/m*3 12.8 C 0 km/h
1316 05-10-2018 13:35:00 12.9 C 10.93 g/m*3 12.9 C 0 km/h
1317 05-10-2018 13:40:00 13.2 C 11.14 g/m*3 13.2 C 0 km/h
1318 05-10-2018 13:45:00 13.4 C 11.28 g/m*3 13.4 C 0 km/h
1319 05-10-2018 13:50:00 13.6 C 11.3 g/m*3 13.6 C 0 km/h
1320 05-10-2018 13:55:00 13.8 C 11.32 g/m*3 13.8 C 0 km/h
1321 05-10-2018 14:00:00 14.1 C 11.53 g/m*3 14.1 C 0 km/h
1322 05-10-2018 14:05:00 14.3 C 11.43 g/m*3 14.3 C 0 km/h
1323 05-10-2018 14:10:00 14.7 C 11.58 g/m*3 14.7 C 0 km/h
1324 05-10-2018 14:15:00 15.1 C 11.61 g/m*3 15.1 C 0 km/h
1325 05-10-2018 14:20:00 15.7 C 11.64 g/m*3 15.7 C 4.8 km/h
Sensor: Nr:Datum:Temp:Abs-Feuchte:Windchill:Wind:
Aussen-T/F 1326 05-10-2018 14:25:00 16.1 C 11.1 g/m*3 16.1 C 0 km/h
1327 05-10-2018 14:30:00 16.9 C 11.65 g/m*3 16.9 C 0 km/h
1328 05-10-2018 14:35:00 17.4 C 11.41 g/m*3 17.4 C 0 km/h
1329 05-10-2018 14:40:00 18 C 11.37 g/m*3 18 C 0 km/h
1330 05-10-2018 14:45:00 18.4 C 11.01 g/m*3 18.4 C 0 km/h
1331 05-10-2018 14:50:00 18.7 C 11.05 g/m*3 18.7 C 0 km/h
1332 05-10-2018 14:55:00 18.9 C 11.5 g/m*3 18.9 C 0 km/h
1333 05-10-2018 15:00:00 18.9 C 11.34 g/m*3 18.9 C 6.4 km/h
1334 05-10-2018 15:05:00 18.8 C 11.43 g/m*3 18.8 C 0 km/h
1335 05-10-2018 15:10:00 18.8 C 11.43 g/m*3 18.8 C 6.4 km/h
1336 05-10-2018 15:15:00 18.8 C 11.11 g/m*3 18.8 C 4.8 km/h
1337 05-10-2018 15:20:00 18.8 C 10.79 g/m*3 18.8 C 8.1 km/h
1338 05-10-2018 15:25:00 18.8 C 10.95 g/m*3 18.8 C 4.8 km/h
1339 05-10-2018 15:30:00 18.9 C 10.69 g/m*3 18.9 C 4.8 km/h
1340 05-10-2018 15:35:00 19.1 C 10.82 g/m*3 19.1 C 1.6 km/h
1341 05-10-2018 15:40:00 19.3 C 11.28 g/m*3 19.3 C 8.1 km/h
1342 05-10-2018 15:45:00 19.3 C 11.28 g/m*3 19.3 C 0 km/h
1343 05-10-2018 15:50:00 19.3 C 10.95 g/m*3 19.3 C 3.2 km/h
1344 05-10-2018 15:55:00 19.2 C 10.72 g/m*3 19.2 C 4.8 km/h
1345 05-10-2018 16:00:00 19.4 C 10.68 g/m*3 19.4 C 9.7 km/h
1346 05-10-2018 16:05:00 19.4 C 10.51 g/m*3 19.4 C 8.1 km/h
1347 05-10-2018 16:10:00 19.6 C 10.8 g/m*3 19.6 C 6.4 km/h
1348 05-10-2018 16:15:00 19.7 C 10.53 g/m*3 19.7 C 6.4 km/h
1349 05-10-2018 16:20:00 19.7 C 10.53 g/m*3 19.7 C 4.8 km/h
1350 05-10-2018 16:25:00 19.8 C 10.76 g/m*3 19.8 C 6.4 km/h
Sensor: Nr:Datum:Temp:Abs-Feuchte:Windchill:Wind:
Aussen-T/F 1351 05-10-2018 16:30:00 19.7 C 10.87 g/m*3 19.7 C 1.6 km/h
1352 05-10-2018 16:35:00 19.6 C 10.47 g/m*3 19.6 C 4.8 km/h
1353 05-10-2018 16:40:00 19.7 C 10.7 g/m*3 19.7 C 3.2 km/h
1354 05-10-2018 16:45:00 19.7 C 10.36 g/m*3 19.7 C 6.4 km/h
1355 05-10-2018 16:50:00 19.7 C 10.7 g/m*3 19.7 C 6.4 km/h
1356 05-10-2018 16:55:00 19.7 C 11.04 g/m*3 19.7 C 3.2 km/h
1357 05-10-2018 17:00:00 19.6 C 10.97 g/m*3 19.6 C 0 km/h
1358 05-10-2018 17:05:00 19.4 C 11.01 g/m*3 19.4 C 0 km/h
1359 05-10-2018 17:10:00 19.3 C 10.78 g/m*3 19.3 C 3.2 km/h
1360 05-10-2018 17:15:00 19.1 C 10.98 g/m*3 19.1 C 1.6 km/h
1361 05-10-2018 17:20:00 19 C 11.08 g/m*3 19 C 1.6 km/h
1362 05-10-2018 17:25:00 18.9 C 11.18 g/m*3 18.9 C 1.6 km/h
1363 05-10-2018 17:30:00 18.8 C 11.27 g/m*3 18.8 C 0 km/h
1364 05-10-2018 17:35:00 18.7 C 11.37 g/m*3 18.7 C 1.6 km/h
1365 05-10-2018 17:40:00 18.7 C 11.37 g/m*3 18.7 C 0 km/h
1366 05-10-2018 17:45:00 18.7 C 11.21 g/m*3 18.7 C 0 km/h
1367 05-10-2018 17:50:00 18.7 C 11.53 g/m*3 18.7 C 0 km/h
1368 05-10-2018 17:55:00 18.7 C 11.37 g/m*3 18.7 C 0 km/h
1369 05-10-2018 18:00:00 18.7 C 11.37 g/m*3 18.7 C 1.6 km/h
1370 05-10-2018 18:05:00 18.7 C 11.05 g/m*3 18.7 C 0 km/h
1371 05-10-2018 18:10:00 18.7 C 10.57 g/m*3 18.7 C 4.8 km/h
1372 05-10-2018 18:15:00 18.9 C 11.18 g/m*3 18.9 C 3.2 km/h
1373 05-10-2018 18:20:00 19 C 11.24 g/m*3 19 C 0 km/h
1374 05-10-2018 18:25:00 18.8 C 11.11 g/m*3 18.8 C 0 km/h
1375 05-10-2018 18:30:00 18.6 C 11.14 g/m*3 18.6 C 0 km/h
Sensor: Nr:Datum:Temp:Abs-Feuchte:Windchill:Wind:
Aussen-T/F 1376 05-10-2018 18:35:00 18.2 C 10.88 g/m*3 18.2 C 0 km/h
1377 05-10-2018 18:40:00 17.8 C 10.93 g/m*3 17.8 C 0 km/h
1378 05-10-2018 18:45:00 17.4 C 10.82 g/m*3 17.4 C 0 km/h
1379 05-10-2018 18:50:00 17.1 C 10.77 g/m*3 17.1 C 0 km/h
1380 05-10-2018 18:55:00 16.6 C 10.59 g/m*3 16.6 C 0 km/h
1381 05-10-2018 19:00:00 16.3 C 10.54 g/m*3 16.3 C 0 km/h
1382 05-10-2018 19:05:00 16 C 10.49 g/m*3 16 C 0 km/h
1383 05-10-2018 19:10:00 15.7 C 10.44 g/m*3 15.7 C 0 km/h
1384 05-10-2018 19:15:00 15.4 C 10.25 g/m*3 15.4 C 0 km/h
1385 05-10-2018 19:20:00 15.2 C 10.25 g/m*3 15.2 C 0 km/h
1386 05-10-2018 19:25:00 14.9 C 10.2 g/m*3 14.9 C 0 km/h
1387 05-10-2018 19:30:00 14.8 C 10.13 g/m*3 14.8 C 0 km/h
1388 05-10-2018 19:35:00 14.6 C 10.14 g/m*3 14.6 C 0 km/h
1389 05-10-2018 19:40:00 14.5 C 10.07 g/m*3 14.5 C 0 km/h
1390 05-10-2018 19:45:00 14.4 C 10.01 g/m*3 14.4 C 0 km/h
1391 05-10-2018 19:50:00 14.3 C 10.07 g/m*3 14.3 C 0 km/h
1392 05-10-2018 19:55:00 14.2 C 10.01 g/m*3 14.2 C 0 km/h
1393 05-10-2018 20:00:00 14.1 C 10.07 g/m*3 14.1 C 0 km/h
1394 05-10-2018 20:05:00 13.9 C 9.95 g/m*3 13.9 C 0 km/h
1395 05-10-2018 20:10:00 13.8 C 9.89 g/m*3 13.8 C 1.6 km/h
1396 05-10-2018 20:15:00 13.8 C 10.01 g/m*3 13.8 C 0 km/h
1397 05-10-2018 20:20:00 13.7 C 9.95 g/m*3 13.7 C 0 km/h
1398 05-10-2018 20:25:00 13.7 C 9.95 g/m*3 13.7 C 0 km/h
1399 05-10-2018 20:30:00 13.7 C 9.95 g/m*3 13.7 C 0 km/h
1400 05-10-2018 20:35:00 13.6 C 9.89 g/m*3 13.6 C 0 km/h
Sensor: Nr:Datum:Temp:Abs-Feuchte:Windchill:Wind:
Aussen-T/F 1401 05-10-2018 20:40:00 13.6 C 10 g/m*3 13.6 C 0 km/h
1402 05-10-2018 20:45:00 13.5 C 9.94 g/m*3 13.5 C 0 km/h
1403 05-10-2018 20:50:00 13.4 C 9.88 g/m*3 13.4 C 0 km/h
1404 05-10-2018 20:55:00 13.4 C 9.88 g/m*3 13.4 C 0 km/h
1405 05-10-2018 21:00:00 13.3 C 9.82 g/m*3 13.3 C 0 km/h
1406 05-10-2018 21:05:00 13.3 C 9.82 g/m*3 13.3 C 0 km/h
1407 05-10-2018 21:10:00 13.2 C 9.76 g/m*3 13.2 C 0 km/h
1408 05-10-2018 21:15:00 13.2 C 9.76 g/m*3 13.2 C 0 km/h
1409 05-10-2018 21:20:00 13.2 C 9.76 g/m*3 13.2 C 0 km/h
1410 05-10-2018 21:25:00 13.1 C 9.7 g/m*3 13.1 C 0 km/h
1411 05-10-2018 21:30:00 12.9 C 9.58 g/m*3 12.9 C 0 km/h
1412 05-10-2018 21:35:00 12.8 C 9.52 g/m*3 12.8 C 0 km/h
1413 05-10-2018 21:40:00 12.7 C 9.57 g/m*3 12.7 C 0 km/h
1414 05-10-2018 21:45:00 12.5 C 9.46 g/m*3 12.5 C 0 km/h
1415 05-10-2018 21:50:00 12.4 C 9.51 g/m*3 12.4 C 0 km/h
1416 05-10-2018 21:55:00 12.3 C 9.45 g/m*3 12.3 C 0 km/h
1417 05-10-2018 22:00:00 12.3 C 9.56 g/m*3 12.3 C 0 km/h
1418 05-10-2018 22:05:00 12.2 C 9.39 g/m*3 12.2 C 0 km/h
1419 05-10-2018 22:10:00 12.1 C 9.33 g/m*3 12.1 C 0 km/h
1420 05-10-2018 22:15:00 11.9 C 9.32 g/m*3 11.9 C 0 km/h
1421 05-10-2018 22:20:00 12 C 9.38 g/m*3 12 C 0 km/h
1422 05-10-2018 22:25:00 11.9 C 9.21 g/m*3 11.9 C 0 km/h
1423 05-10-2018 22:30:00 11.8 C 9.16 g/m*3 11.8 C 0 km/h
1424 05-10-2018 22:35:00 11.6 C 9.04 g/m*3 11.6 C 0 km/h
1425 05-10-2018 22:40:00 11.3 C 8.98 g/m*3 11.3 C 0 km/h
Sensor: Nr:Datum:Temp:Abs-Feuchte:Windchill:Wind:
Aussen-T/F 1426 05-10-2018 22:45:00 11.2 C 9.02 g/m*3 11.2 C 0 km/h
1427 05-10-2018 22:50:00 11.1 C 8.96 g/m*3 11.1 C 0 km/h
1428 05-10-2018 22:55:00 10.9 C 8.95 g/m*3 10.9 C 0 km/h
1429 05-10-2018 23:00:00 10.9 C 8.95 g/m*3 10.9 C 0 km/h
1430 05-10-2018 23:05:00 10.8 C 8.9 g/m*3 10.8 C 0 km/h
1431 05-10-2018 23:10:00 10.7 C 8.84 g/m*3 10.7 C 0 km/h
1432 05-10-2018 23:15:00 10.6 C 8.88 g/m*3 10.6 C 0 km/h
1433 05-10-2018 23:20:00 10.6 C 8.88 g/m*3 10.6 C 0 km/h
1434 05-10-2018 23:25:00 10.5 C 8.83 g/m*3 10.5 C 0 km/h
1435 05-10-2018 23:30:00 10.4 C 8.77 g/m*3 10.4 C 0 km/h
1436 05-10-2018 23:35:00 10.3 C 8.71 g/m*3 10.3 C 0 km/h
1437 05-10-2018 23:40:00 10.3 C 8.81 g/m*3 10.3 C 0 km/h
1438 05-10-2018 23:45:00 10.3 C 8.81 g/m*3 10.3 C 0 km/h
1439 05-10-2018 23:50:00 10.1 C 8.61 g/m*3 10.1 C 0 km/h
1440 05-10-2018 23:55:00 10.1 C 8.7 g/m*3 10.1 C 0 km/h
1441 06-10-2018 00:00:00 9.9 C 8.59 g/m*3 9.9 C 0 km/h
1442 06-10-2018 00:05:00 10 C 8.74 g/m*3 10 C 0 km/h
1443 06-10-2018 00:10:00 10.1 C 8.79 g/m*3 10.1 C 0 km/h
1444 06-10-2018 00:15:00 9.9 C 8.68 g/m*3 9.9 C 0 km/h
1445 06-10-2018 00:20:00 9.9 C 8.68 g/m*3 9.9 C 0 km/h
1446 06-10-2018 00:25:00 10 C 8.74 g/m*3 10 C 0 km/h
1447 06-10-2018 00:30:00 9.8 C 8.54 g/m*3 9.8 C 0 km/h
1448 06-10-2018 00:35:00 9.7 C 8.57 g/m*3 9.7 C 0 km/h
1449 06-10-2018 00:40:00 9.7 C 8.57 g/m*3 9.7 C 0 km/h
1450 06-10-2018 00:45:00 9.6 C 8.52 g/m*3 9.6 C 0 km/h
Sensor: Nr:Datum:Temp:Abs-Feuchte:Windchill:Wind:
Aussen-T/F 1451 06-10-2018 00:50:00 9.4 C 8.41 g/m*3 9.4 C 0 km/h
1452 06-10-2018 00:55:00 9.4 C 8.41 g/m*3 9.4 C 0 km/h
1453 06-10-2018 01:00:00 9.5 C 8.56 g/m*3 9.5 C 0 km/h
1454 06-10-2018 01:05:00 9.4 C 8.41 g/m*3 9.4 C 0 km/h
1455 06-10-2018 01:10:00 9.2 C 8.3 g/m*3 9.2 C 0 km/h
1456 06-10-2018 01:15:00 9.1 C 8.25 g/m*3 9.1 C 0 km/h
1457 06-10-2018 01:20:00 9.1 C 8.34 g/m*3 9.1 C 0 km/h
1458 06-10-2018 01:25:00 9.1 C 8.34 g/m*3 9.1 C 0 km/h
1459 06-10-2018 01:30:00 9.1 C 8.34 g/m*3 9.1 C 0 km/h
1460 06-10-2018 01:35:00 9.2 C 8.39 g/m*3 9.2 C 0 km/h
1461 06-10-2018 01:40:00 9.2 C 8.39 g/m*3 9.2 C 0 km/h
1462 06-10-2018 01:45:00 9.2 C 8.39 g/m*3 9.2 C 0 km/h
1463 06-10-2018 01:50:00 9.1 C 8.34 g/m*3 9.1 C 0 km/h
1464 06-10-2018 01:55:00 9.1 C 8.34 g/m*3 9.1 C 0 km/h
1465 06-10-2018 02:00:00 8.9 C 8.23 g/m*3 8.9 C 0 km/h
1466 06-10-2018 02:05:00 8.7 C 8.13 g/m*3 8.7 C 0 km/h
1467 06-10-2018 02:10:00 8.6 C 7.99 g/m*3 8.6 C 0 km/h
1468 06-10-2018 02:15:00 8.4 C 7.97 g/m*3 8.4 C 0 km/h
1469 06-10-2018 02:20:00 8.6 C 8.08 g/m*3 8.6 C 0 km/h
1470 06-10-2018 02:25:00 8.8 C 8.27 g/m*3 8.8 C 0 km/h
1471 06-10-2018 02:30:00 8.9 C 8.32 g/m*3 8.9 C 0 km/h
1472 06-10-2018 02:35:00 8.8 C 8.27 g/m*3 8.8 C 0 km/h
1473 06-10-2018 02:40:00 8.7 C 8.13 g/m*3 8.7 C 0 km/h
1474 06-10-2018 02:45:00 8.7 C 8.22 g/m*3 8.7 C 0 km/h
1475 06-10-2018 02:50:00 8.6 C 8.16 g/m*3 8.6 C 0 km/h
Sensor: Nr:Datum:Temp:Abs-Feuchte:Windchill:Wind:
Aussen-T/F 1476 06-10-2018 02:55:00 8.7 C 8.22 g/m*3 8.7 C 0 km/h
1477 06-10-2018 03:00:00 8.6 C 8.16 g/m*3 8.6 C 0 km/h
1478 06-10-2018 03:05:00 8.5 C 8.03 g/m*3 8.5 C 0 km/h
1479 06-10-2018 03:10:00 8.4 C 7.97 g/m*3 8.4 C 0 km/h
1480 06-10-2018 03:15:00 8.4 C 8.06 g/m*3 8.4 C 0 km/h
1481 06-10-2018 03:20:00 8.7 C 8.22 g/m*3 8.7 C 0 km/h
1482 06-10-2018 03:25:00 8.9 C 8.41 g/m*3 8.9 C 0 km/h
1483 06-10-2018 03:30:00 9.1 C 8.52 g/m*3 9.1 C 0 km/h
1484 06-10-2018 03:35:00 9.1 C 8.52 g/m*3 9.1 C 0 km/h
1485 06-10-2018 03:40:00 8.9 C 8.32 g/m*3 8.9 C 0 km/h
1486 06-10-2018 03:45:00 8.7 C 8.22 g/m*3 8.7 C 0 km/h
1487 06-10-2018 03:50:00 8.6 C 8.16 g/m*3 8.6 C 0 km/h
1488 06-10-2018 03:55:00 8.4 C 8.06 g/m*3 8.4 C 0 km/h
1489 06-10-2018 04:00:00 8.5 C 8.11 g/m*3 8.5 C 0 km/h
1490 06-10-2018 04:05:00 8.4 C 8.06 g/m*3 8.4 C 0 km/h
1491 06-10-2018 04:10:00 8.2 C 7.96 g/m*3 8.2 C 0 km/h
1492 06-10-2018 04:15:00 8.2 C 7.96 g/m*3 8.2 C 0 km/h
1493 06-10-2018 04:20:00 8.2 C 7.96 g/m*3 8.2 C 0 km/h
1494 06-10-2018 04:25:00 8.2 C 7.96 g/m*3 8.2 C 0 km/h
1495 06-10-2018 04:30:00 8.1 C 7.9 g/m*3 8.1 C 0 km/h
1496 06-10-2018 04:35:00 8.1 C 7.9 g/m*3 8.1 C 0 km/h
1497 06-10-2018 04:40:00 8.1 C 7.9 g/m*3 8.1 C 0 km/h
1498 06-10-2018 04:45:00 8.1 C 7.9 g/m*3 8.1 C 0 km/h
1499 06-10-2018 04:50:00 8 C 7.85 g/m*3 8 C 0 km/h
1500 06-10-2018 04:55:00 7.9 C 7.8 g/m*3 7.9 C 0 km/h
Sensor: Nr:Datum:Temp:Abs-Feuchte:Windchill:Wind:
Aussen-T/F 1501 06-10-2018 05:00:00 7.8 C 7.75 g/m*3 7.8 C 0 km/h
1502 06-10-2018 05:05:00 7.8 C 7.75 g/m*3 7.8 C 0 km/h
1503 06-10-2018 05:10:00 7.8 C 7.75 g/m*3 7.8 C 0 km/h
1504 06-10-2018 05:15:00 7.8 C 7.75 g/m*3 7.8 C 0 km/h
1505 06-10-2018 05:20:00 8 C 7.94 g/m*3 8 C 0 km/h
1506 06-10-2018 05:25:00 8 C 7.94 g/m*3 8 C 0 km/h
1507 06-10-2018 05:30:00 7.9 C 7.8 g/m*3 7.9 C 0 km/h
1508 06-10-2018 05:35:00 8 C 7.94 g/m*3 8 C 0 km/h
1509 06-10-2018 05:40:00 7.9 C 7.8 g/m*3 7.9 C 0 km/h
1510 06-10-2018 05:45:00 7.8 C 7.75 g/m*3 7.8 C 0 km/h
1511 06-10-2018 05:50:00 7.7 C 7.78 g/m*3 7.7 C 0 km/h
1512 06-10-2018 05:55:00 7.7 C 7.7 g/m*3 7.7 C 0 km/h
1513 06-10-2018 06:00:00 7.6 C 7.65 g/m*3 7.6 C 0 km/h
1514 06-10-2018 06:05:00 7.4 C 7.55 g/m*3 7.4 C 0 km/h
1515 06-10-2018 06:10:00 7.3 C 7.51 g/m*3 7.3 C 0 km/h
1516 06-10-2018 06:15:00 7.3 C 7.51 g/m*3 7.3 C 0 km/h
1517 06-10-2018 06:20:00 7.4 C 7.55 g/m*3 7.4 C 0 km/h
1518 06-10-2018 06:25:00 7.4 C 7.63 g/m*3 7.4 C 0 km/h
1519 06-10-2018 06:30:00 7.3 C 7.51 g/m*3 7.3 C 0 km/h
1520 06-10-2018 06:35:00 7.4 C 7.63 g/m*3 7.4 C 0 km/h
1521 06-10-2018 06:40:00 7.4 C 7.63 g/m*3 7.4 C 0 km/h
1522 06-10-2018 06:45:00 7.3 C 7.51 g/m*3 7.3 C 0 km/h
1523 06-10-2018 06:50:00 7.2 C 7.54 g/m*3 7.2 C 0 km/h
1524 06-10-2018 06:55:00 7.1 C 7.49 g/m*3 7.1 C 0 km/h
1525 06-10-2018 07:00:00 7.1 C 7.49 g/m*3 7.1 C 0 km/h
Sensor: Nr:Datum:Temp:Abs-Feuchte:Windchill:Wind:
Aussen-T/F 1526 06-10-2018 07:05:00 7.1 C 7.41 g/m*3 7.1 C 0 km/h
1527 06-10-2018 07:10:00 7.1 C 7.49 g/m*3 7.1 C 0 km/h
1528 06-10-2018 07:15:00 7.1 C 7.49 g/m*3 7.1 C 0 km/h
1529 06-10-2018 07:20:00 7 C 7.36 g/m*3 7 C 0 km/h
1530 06-10-2018 07:25:00 7 C 7.44 g/m*3 7 C 0 km/h
1531 06-10-2018 07:30:00 6.9 C 7.39 g/m*3 6.9 C 0 km/h
1532 06-10-2018 07:35:00 6.9 C 7.39 g/m*3 6.9 C 0 km/h
1533 06-10-2018 07:40:00 6.9 C 7.39 g/m*3 6.9 C 0 km/h
1534 06-10-2018 07:45:00 6.8 C 7.34 g/m*3 6.8 C 0 km/h
1535 06-10-2018 07:50:00 6.9 C 7.39 g/m*3 6.9 C 0 km/h
1536 06-10-2018 07:55:00 6.9 C 7.39 g/m*3 6.9 C 0 km/h
1537 06-10-2018 08:00:00 6.9 C 7.39 g/m*3 6.9 C 0 km/h
1538 06-10-2018 08:05:00 7.2 C 7.54 g/m*3 7.2 C 0 km/h
1539 06-10-2018 08:10:00 7.2 C 7.54 g/m*3 7.2 C 0 km/h
1540 06-10-2018 08:15:00 7.1 C 7.49 g/m*3 7.1 C 0 km/h
1541 06-10-2018 08:20:00 7.3 C 7.58 g/m*3 7.3 C 0 km/h
1542 06-10-2018 08:25:00 7.4 C 7.63 g/m*3 7.4 C 0 km/h
1543 06-10-2018 08:30:00 7.5 C 7.68 g/m*3 7.5 C 0 km/h
1544 06-10-2018 08:35:00 7.4 C 7.63 g/m*3 7.4 C 0 km/h
1545 06-10-2018 08:40:00 7.4 C 7.63 g/m*3 7.4 C 0 km/h
1546 06-10-2018 08:45:00 7.5 C 7.68 g/m*3 7.5 C 0 km/h
1547 06-10-2018 08:50:00 7.5 C 7.68 g/m*3 7.5 C 0 km/h
1548 06-10-2018 08:55:00 7.4 C 7.63 g/m*3 7.4 C 0 km/h
1549 06-10-2018 09:00:00 7.3 C 7.58 g/m*3 7.3 C 0 km/h
1550 06-10-2018 09:05:00 7.3 C 7.58 g/m*3 7.3 C 0 km/h
Sensor: Nr:Datum:Temp:Abs-Feuchte:Windchill:Wind:
Aussen-T/F 1551 06-10-2018 09:10:00 7.4 C 7.63 g/m*3 7.4 C 0 km/h
1552 06-10-2018 09:15:00 7.4 C 7.63 g/m*3 7.4 C 0 km/h
1553 06-10-2018 09:20:00 7.5 C 7.68 g/m*3 7.5 C 0 km/h
1554 06-10-2018 09:25:00 7.6 C 7.81 g/m*3 7.6 C 0 km/h
1555 06-10-2018 09:30:00 7.7 C 7.87 g/m*3 7.7 C 0 km/h
1556 06-10-2018 09:35:00 7.7 C 7.87 g/m*3 7.7 C 0 km/h
1557 06-10-2018 09:40:00 7.7 C 7.78 g/m*3 7.7 C 0 km/h
1558 06-10-2018 09:45:00 7.8 C 7.83 g/m*3 7.8 C 0 km/h
1559 06-10-2018 09:50:00 7.9 C 7.89 g/m*3 7.9 C 0 km/h
1560 06-10-2018 09:55:00 7.9 C 7.89 g/m*3 7.9 C 0 km/h
1561 06-10-2018 10:00:00 8 C 8.02 g/m*3 8 C 0 km/h
1562 06-10-2018 10:05:00 8.1 C 8.07 g/m*3 8.1 C 0 km/h
1563 06-10-2018 10:10:00 8.1 C 8.07 g/m*3 8.1 C 0 km/h
1564 06-10-2018 10:15:00 8.3 C 8.18 g/m*3 8.3 C 0 km/h
1565 06-10-2018 10:20:00 8.6 C 8.34 g/m*3 8.6 C 0 km/h
1566 06-10-2018 10:25:00 8.8 C 8.44 g/m*3 8.8 C 0 km/h
1567 06-10-2018 10:30:00 9 C 8.55 g/m*3 9 C 0 km/h
1568 06-10-2018 10:35:00 9.2 C 8.66 g/m*3 9.2 C 0 km/h
1569 06-10-2018 10:40:00 9.4 C 8.77 g/m*3 9.4 C 0 km/h
1570 06-10-2018 10:45:00 9.6 C 8.89 g/m*3 9.6 C 0 km/h
1571 06-10-2018 10:50:00 9.9 C 9.06 g/m*3 9.9 C 0 km/h
1572 06-10-2018 10:55:00 10.1 C 9.17 g/m*3 10.1 C 0 km/h
1573 06-10-2018 11:00:00 10.3 C 9.29 g/m*3 10.3 C 0 km/h
1574 06-10-2018 11:05:00 10.4 C 9.35 g/m*3 10.4 C 0 km/h
1575 06-10-2018 11:10:00 10.7 C 9.53 g/m*3 10.7 C 0 km/h
Sensor: Nr:Datum:Temp:Abs-Feuchte:Windchill:Wind:
Aussen-T/F 1576 06-10-2018 11:15:00 10.8 C 9.59 g/m*3 10.8 C 0 km/h
1577 06-10-2018 11:20:00 10.9 C 9.65 g/m*3 10.9 C 0 km/h
1578 06-10-2018 11:25:00 11.2 C 9.83 g/m*3 11.2 C 0 km/h
1579 06-10-2018 11:30:00 11.4 C 9.96 g/m*3 11.4 C 0 km/h
1580 06-10-2018 11:35:00 11.6 C 10.08 g/m*3 11.6 C 0 km/h
1581 06-10-2018 11:40:00 11.7 C 10.15 g/m*3 11.7 C 0 km/h
1582 06-10-2018 11:45:00 11.8 C 10.21 g/m*3 11.8 C 0 km/h
1583 06-10-2018 11:50:00 12 C 10.34 g/m*3 12 C 0 km/h
1584 06-10-2018 11:55:00 12.3 C 10.64 g/m*3 12.3 C 0 km/h
1585 06-10-2018 12:00:00 12.5 C 10.66 g/m*3 12.5 C 0 km/h
1586 06-10-2018 12:05:00 12.7 C 10.91 g/m*3 12.7 C 0 km/h
1587 06-10-2018 12:10:00 12.8 C 10.87 g/m*3 12.8 C 0 km/h
1588 06-10-2018 12:15:00 13.1 C 11.07 g/m*3 13.1 C 0 km/h
1589 06-10-2018 12:20:00 13.2 C 11.14 g/m*3 13.2 C 0 km/h
1590 06-10-2018 12:25:00 13.3 C 11.32 g/m*3 13.3 C 0 km/h
1591 06-10-2018 12:30:00 13.5 C 11.35 g/m*3 13.5 C 0 km/h
1592 06-10-2018 12:35:00 13.6 C 11.53 g/m*3 13.6 C 0 km/h
1593 06-10-2018 12:40:00 13.7 C 11.49 g/m*3 13.7 C 0 km/h
1594 06-10-2018 12:45:00 13.9 C 11.63 g/m*3 13.9 C 0 km/h
1595 06-10-2018 12:50:00 14.1 C 11.89 g/m*3 14.1 C 0 km/h
1596 06-10-2018 12:55:00 14.2 C 11.84 g/m*3 14.2 C 0 km/h
1597 06-10-2018 13:00:00 14.4 C 11.99 g/m*3 14.4 C 0 km/h
1598 06-10-2018 13:05:00 14.7 C 12.34 g/m*3 14.7 C 0 km/h
1599 06-10-2018 13:10:00 14.8 C 12.29 g/m*3 14.8 C 0 km/h
1600 06-10-2018 13:15:00 15.1 C 12.51 g/m*3 15.1 C 0 km/h
Sensor: Nr:Datum:Temp:Abs-Feuchte:Windchill:Wind:
Aussen-T/F 1601 06-10-2018 13:20:00 15.3 C 12.67 g/m*3 15.3 C 0 km/h
1602 06-10-2018 13:25:00 15.5 C 12.82 g/m*3 15.5 C 0 km/h
1603 06-10-2018 13:30:00 15.7 C 12.98 g/m*3 15.7 C 0 km/h
1604 06-10-2018 13:35:00 15.8 C 12.92 g/m*3 15.8 C 0 km/h
1605 06-10-2018 13:40:00 16.1 C 13.02 g/m*3 16.1 C 0 km/h
1606 06-10-2018 13:45:00 16.3 C 13.18 g/m*3 16.3 C 0 km/h
1607 06-10-2018 13:50:00 16.7 C 13.22 g/m*3 16.7 C 0 km/h
1608 06-10-2018 13:55:00 17 C 13.17 g/m*3 17 C 0 km/h
1609 06-10-2018 14:00:00 17.3 C 13.26 g/m*3 17.3 C 0 km/h
1610 06-10-2018 14:05:00 17.7 C 13.28 g/m*3 17.7 C 0 km/h
1611 06-10-2018 14:10:00 18.2 C 13.52 g/m*3 18.2 C 0 km/h
1612 06-10-2018 14:15:00 18.5 C 12.97 g/m*3 18.5 C 0 km/h
1613 06-10-2018 14:20:00 18.9 C 12.96 g/m*3 18.9 C 0 km/h
1614 06-10-2018 14:25:00 19.4 C 13.01 g/m*3 19.4 C 0 km/h
1615 06-10-2018 14:30:00 19.9 C 12.54 g/m*3 19.9 C 6.4 km/h
1616 06-10-2018 14:35:00 20.7 C 12.78 g/m*3 20.7 C 11.3 km/h
1617 06-10-2018 14:40:00 21.2 C 12.42 g/m*3 21.2 C 11.3 km/h
1618 06-10-2018 14:45:00 21.4 C 12.56 g/m*3 21.4 C 8.1 km/h
1619 06-10-2018 14:50:00 21.3 C 12.49 g/m*3 21.3 C 4.8 km/h
1620 06-10-2018 14:55:00 21.2 C 12.05 g/m*3 21.2 C 9.7 km/h
1621 06-10-2018 15:00:00 21.2 C 12.42 g/m*3 21.2 C 4.8 km/h
1622 06-10-2018 15:05:00 21.2 C 12.42 g/m*3 21.2 C 8.1 km/h
1623 06-10-2018 15:10:00 21.2 C 12.79 g/m*3 21.2 C 8.1 km/h
1624 06-10-2018 15:15:00 21.2 C 11.86 g/m*3 21.2 C 8.1 km/h
1625 06-10-2018 15:20:00 21.2 C 12.6 g/m*3 21.2 C 4.8 km/h
Sensor: Nr:Datum:Temp:Abs-Feuchte:Windchill:Wind:
Aussen-T/F 1626 06-10-2018 15:25:00 21.2 C 12.6 g/m*3 21.2 C 3.2 km/h
1627 06-10-2018 15:30:00 21.1 C 12.71 g/m*3 21.1 C 9.7 km/h
1628 06-10-2018 15:35:00 21.1 C 12.9 g/m*3 21.1 C 0 km/h
1629 06-10-2018 15:40:00 21.1 C 12.9 g/m*3 21.1 C 0 km/h
1630 06-10-2018 15:45:00 21.1 C 12.9 g/m*3 21.1 C 0 km/h
1631 06-10-2018 15:50:00 21.1 C 13.08 g/m*3 21.1 C 0 km/h
1632 06-10-2018 15:55:00 21.1 C 13.27 g/m*3 21.1 C 0 km/h
1633 06-10-2018 16:00:00 21.1 C 13.27 g/m*3 21.1 C 0 km/h
1634 06-10-2018 16:05:00 21.1 C 13.45 g/m*3 21.1 C 0 km/h
1635 06-10-2018 16:10:00 21.1 C 13.08 g/m*3 21.1 C 0 km/h
1636 06-10-2018 16:15:00 21.1 C 12.9 g/m*3 21.1 C 4.8 km/h
1637 06-10-2018 16:20:00 21.2 C 13.16 g/m*3 21.2 C 0 km/h
1638 06-10-2018 16:25:00 21.2 C 12.97 g/m*3 21.2 C 0 km/h
1639 06-10-2018 16:30:00 21.1 C 13.08 g/m*3 21.1 C 0 km/h
1640 06-10-2018 16:35:00 21.1 C 13.27 g/m*3 21.1 C 0 km/h
1641 06-10-2018 16:40:00 21.1 C 13.08 g/m*3 21.1 C 4.8 km/h
1642 06-10-2018 16:45:00 21.1 C 13.08 g/m*3 21.1 C 0 km/h
1643 06-10-2018 16:50:00 21.1 C 13.45 g/m*3 21.1 C 0 km/h
1644 06-10-2018 16:55:00 21 C 13.19 g/m*3 21 C 0 km/h
1645 06-10-2018 17:00:00 20.8 C 13.04 g/m*3 20.8 C 0 km/h
1646 06-10-2018 17:05:00 20.7 C 12.96 g/m*3 20.7 C 0 km/h
1647 06-10-2018 17:10:00 20.6 C 13.07 g/m*3 20.6 C 0 km/h
1648 06-10-2018 17:15:00 20.4 C 12.91 g/m*3 20.4 C 3.2 km/h
1649 06-10-2018 17:20:00 20.3 C 12.84 g/m*3 20.3 C 3.2 km/h
1650 06-10-2018 17:25:00 20.2 C 12.76 g/m*3 20.2 C 0 km/h
Sensor: Nr:Datum:Temp:Abs-Feuchte:Windchill:Wind:
Aussen-T/F 1651 06-10-2018 17:30:00 20.1 C 12.17 g/m*3 20.1 C 3.2 km/h
1652 06-10-2018 17:35:00 20.2 C 12.94 g/m*3 20.2 C 0 km/h
1653 06-10-2018 17:40:00 20.2 C 12.76 g/m*3 20.2 C 0 km/h
1654 06-10-2018 17:45:00 20.2 C 12.76 g/m*3 20.2 C 0 km/h
1655 06-10-2018 17:50:00 20.2 C 12.76 g/m*3 20.2 C 0 km/h
1656 06-10-2018 17:55:00 20.1 C 12.69 g/m*3 20.1 C 0 km/h
1657 06-10-2018 18:00:00 19.9 C 12.54 g/m*3 19.9 C 0 km/h
1658 06-10-2018 18:05:00 19.8 C 12.47 g/m*3 19.8 C 0 km/h
1659 06-10-2018 18:10:00 19.6 C 12.49 g/m*3 19.6 C 0 km/h
1660 06-10-2018 18:15:00 19.4 C 12.35 g/m*3 19.4 C 0 km/h
1661 06-10-2018 18:20:00 19.2 C 12.2 g/m*3 19.2 C 0 km/h
1662 06-10-2018 18:25:00 19.1 C 12.29 g/m*3 19.1 C 0 km/h
1663 06-10-2018 18:30:00 19 C 12.39 g/m*3 19 C 0 km/h
1664 06-10-2018 18:35:00 19 C 12.39 g/m*3 19 C 0 km/h
1665 06-10-2018 18:40:00 18.9 C 12.31 g/m*3 18.9 C 0 km/h
1666 06-10-2018 18:45:00 18.8 C 12.4 g/m*3 18.8 C 0 km/h
1667 06-10-2018 18:50:00 18.7 C 12.33 g/m*3 18.7 C 0 km/h
1668 06-10-2018 18:55:00 18.5 C 12.18 g/m*3 18.5 C 0 km/h
1669 06-10-2018 19:00:00 18.3 C 12.2 g/m*3 18.3 C 0 km/h
1670 06-10-2018 19:05:00 18.1 C 12.05 g/m*3 18.1 C 0 km/h
1671 06-10-2018 19:10:00 17.8 C 11.99 g/m*3 17.8 C 0 km/h
1672 06-10-2018 19:15:00 17.7 C 12.07 g/m*3 17.7 C 0 km/h
1673 06-10-2018 19:20:00 17.5 C 11.93 g/m*3 17.5 C 0 km/h
1674 06-10-2018 19:25:00 17.3 C 11.93 g/m*3 17.3 C 0 km/h
1675 06-10-2018 19:30:00 17.1 C 11.79 g/m*3 17.1 C 0 km/h
Sensor: Nr:Datum:Temp:Abs-Feuchte:Windchill:Wind:
Aussen-T/F 1676 06-10-2018 19:35:00 16.9 C 11.65 g/m*3 16.9 C 0 km/h
1677 06-10-2018 19:40:00 16.8 C 11.72 g/m*3 16.8 C 0 km/h
1678 06-10-2018 19:45:00 16.7 C 11.65 g/m*3 16.7 C 0 km/h
1679 06-10-2018 19:50:00 16.6 C 11.72 g/m*3 16.6 C 0 km/h
1680 06-10-2018 19:55:00 16.5 C 11.65 g/m*3 16.5 C 0 km/h
1681 06-10-2018 20:00:00 16.4 C 11.58 g/m*3 16.4 C 0 km/h
1682 06-10-2018 20:05:00 16.3 C 11.65 g/m*3 16.3 C 0 km/h
1683 06-10-2018 20:10:00 16.2 C 11.58 g/m*3 16.2 C 0 km/h
1684 06-10-2018 20:15:00 16.1 C 11.51 g/m*3 16.1 C 0 km/h
1685 06-10-2018 20:20:00 16 C 11.44 g/m*3 16 C 0 km/h
1686 06-10-2018 20:25:00 15.9 C 11.38 g/m*3 15.9 C 0 km/h
1687 06-10-2018 20:30:00 15.7 C 11.37 g/m*3 15.7 C 0 km/h
1688 06-10-2018 20:35:00 15.5 C 11.24 g/m*3 15.5 C 0 km/h
1689 06-10-2018 20:40:00 15.3 C 11.23 g/m*3 15.3 C 0 km/h
1690 06-10-2018 20:45:00 15.2 C 11.16 g/m*3 15.2 C 0 km/h
1691 06-10-2018 20:50:00 15.1 C 11.09 g/m*3 15.1 C 0 km/h
1692 06-10-2018 20:55:00 14.9 C 11.09 g/m*3 14.9 C 0 km/h
1693 06-10-2018 21:00:00 14.8 C 11.02 g/m*3 14.8 C 0 km/h
1694 06-10-2018 21:05:00 14.8 C 11.15 g/m*3 14.8 C 0 km/h
1695 06-10-2018 21:10:00 14.7 C 11.08 g/m*3 14.7 C 0 km/h
1696 06-10-2018 21:15:00 14.6 C 11.01 g/m*3 14.6 C 0 km/h
1697 06-10-2018 21:20:00 14.5 C 10.94 g/m*3 14.5 C 0 km/h
1698 06-10-2018 21:25:00 14.4 C 11 g/m*3 14.4 C 0 km/h
1699 06-10-2018 21:30:00 14.4 C 11 g/m*3 14.4 C 0 km/h
1700 06-10-2018 21:35:00 14.4 C 11 g/m*3 14.4 C 0 km/h
Sensor: Nr:Datum:Temp:Abs-Feuchte:Windchill:Wind:
Aussen-T/F 1701 06-10-2018 21:40:00 14.3 C 10.93 g/m*3 14.3 C 0 km/h
1702 06-10-2018 21:45:00 14.3 C 10.93 g/m*3 14.3 C 0 km/h
1703 06-10-2018 21:50:00 14.2 C 10.87 g/m*3 14.2 C 0 km/h
1704 06-10-2018 21:55:00 14.1 C 10.8 g/m*3 14.1 C 0 km/h
1705 06-10-2018 22:00:00 14.1 C 10.8 g/m*3 14.1 C 0 km/h
1706 06-10-2018 22:05:00 14 C 10.86 g/m*3 14 C 0 km/h
1707 06-10-2018 22:10:00 13.9 C 10.79 g/m*3 13.9 C 0 km/h
1708 06-10-2018 22:15:00 13.9 C 10.79 g/m*3 13.9 C 0 km/h
1709 06-10-2018 22:20:00 13.9 C 10.79 g/m*3 13.9 C 0 km/h
1710 06-10-2018 22:25:00 13.9 C 10.79 g/m*3 13.9 C 0 km/h
1711 06-10-2018 22:30:00 13.9 C 10.79 g/m*3 13.9 C 1.6 km/h
1712 06-10-2018 22:35:00 13.8 C 10.72 g/m*3 13.8 C 0 km/h
1713 06-10-2018 22:40:00 13.7 C 10.66 g/m*3 13.7 C 0 km/h
1714 06-10-2018 22:45:00 13.6 C 10.59 g/m*3 13.6 C 0 km/h
1715 06-10-2018 22:50:00 13.6 C 10.59 g/m*3 13.6 C 0 km/h
1716 06-10-2018 22:55:00 13.6 C 10.59 g/m*3 13.6 C 0 km/h
1717 06-10-2018 23:00:00 13.5 C 10.53 g/m*3 13.5 C 0 km/h
1718 06-10-2018 23:05:00 13.4 C 10.46 g/m*3 13.4 C 0 km/h
1719 06-10-2018 23:10:00 13.3 C 10.4 g/m*3 13.3 C 0 km/h
1720 06-10-2018 23:15:00 13.2 C 10.33 g/m*3 13.2 C 0 km/h
1721 06-10-2018 23:20:00 13.1 C 10.27 g/m*3 13.1 C 0 km/h
1722 06-10-2018 23:25:00 12.9 C 10.26 g/m*3 12.9 C 0 km/h
1723 06-10-2018 23:30:00 12.9 C 10.26 g/m*3 12.9 C 0 km/h
1724 06-10-2018 23:35:00 12.9 C 10.26 g/m*3 12.9 C 0 km/h
1725 06-10-2018 23:40:00 12.8 C 10.19 g/m*3 12.8 C 0 km/h
Sensor: Nr:Datum:Temp:Abs-Feuchte:Windchill:Wind:
Aussen-T/F 1726 06-10-2018 23:45:00 12.7 C 10.13 g/m*3 12.7 C 0 km/h
1727 06-10-2018 23:50:00 12.6 C 10.07 g/m*3 12.6 C 0 km/h
1728 06-10-2018 23:55:00 12.6 C 10.18 g/m*3 12.6 C 0 km/h
1729 07-10-2018 00:00:00 12.6 C 10.18 g/m*3 12.6 C 0 km/h
1730 07-10-2018 00:05:00 12.4 C 10.05 g/m*3 12.4 C 0 km/h
1731 07-10-2018 00:10:00 12.4 C 10.05 g/m*3 12.4 C 0 km/h
1732 07-10-2018 00:15:00 12.4 C 10.05 g/m*3 12.4 C 0 km/h
1733 07-10-2018 00:20:00 12.3 C 9.99 g/m*3 12.3 C 0 km/h
1734 07-10-2018 00:25:00 12.2 C 9.93 g/m*3 12.2 C 0 km/h
1735 07-10-2018 00:30:00 12.1 C 9.87 g/m*3 12.1 C 0 km/h
1736 07-10-2018 00:35:00 12.1 C 9.97 g/m*3 12.1 C 0 km/h
1737 07-10-2018 00:40:00 11.9 C 9.74 g/m*3 11.9 C 0 km/h
1738 07-10-2018 00:45:00 11.9 C 9.85 g/m*3 11.9 C 0 km/h
1739 07-10-2018 00:50:00 11.9 C 9.85 g/m*3 11.9 C 0 km/h
1740 07-10-2018 00:55:00 11.8 C 9.68 g/m*3 11.8 C 0 km/h
1741 07-10-2018 01:00:00 11.6 C 9.56 g/m*3 11.6 C 0 km/h
1742 07-10-2018 01:05:00 11.6 C 9.67 g/m*3 11.6 C 0 km/h
1743 07-10-2018 01:10:00 11.6 C 9.67 g/m*3 11.6 C 0 km/h
1744 07-10-2018 01:15:00 11.6 C 9.67 g/m*3 11.6 C 0 km/h
1745 07-10-2018 01:20:00 11.6 C 9.67 g/m*3 11.6 C 0 km/h
1746 07-10-2018 01:25:00 11.6 C 9.77 g/m*3 11.6 C 0 km/h
1747 07-10-2018 01:30:00 11.6 C 9.77 g/m*3 11.6 C 0 km/h
1748 07-10-2018 01:35:00 11.6 C 9.77 g/m*3 11.6 C 0 km/h
1749 07-10-2018 01:40:00 11.6 C 9.77 g/m*3 11.6 C 0 km/h
1750 07-10-2018 01:45:00 11.5 C 9.71 g/m*3 11.5 C 0 km/h
Sensor: Nr:Datum:Temp:Abs-Feuchte:Windchill:Wind:
Aussen-T/F 1751 07-10-2018 01:50:00 11.4 C 9.65 g/m*3 11.4 C 0 km/h
1752 07-10-2018 01:55:00 11.4 C 9.65 g/m*3 11.4 C 0 km/h
1753 07-10-2018 02:00:00 11.4 C 9.65 g/m*3 11.4 C 0 km/h
1754 07-10-2018 02:05:00 11.3 C 9.59 g/m*3 11.3 C 0 km/h
1755 07-10-2018 02:10:00 11.6 C 9.87 g/m*3 11.6 C 0 km/h
1756 07-10-2018 02:15:00 11.7 C 9.94 g/m*3 11.7 C 0 km/h
1757 07-10-2018 02:20:00 11.8 C 10 g/m*3 11.8 C 0 km/h
1758 07-10-2018 02:25:00 11.8 C 10 g/m*3 11.8 C 0 km/h
1759 07-10-2018 02:30:00 11.9 C 10.06 g/m*3 11.9 C 0 km/h
1760 07-10-2018 02:35:00 11.9 C 10.06 g/m*3 11.9 C 0 km/h
1761 07-10-2018 02:40:00 11.9 C 10.06 g/m*3 11.9 C 0 km/h
1762 07-10-2018 02:45:00 11.9 C 10.06 g/m*3 11.9 C 0 km/h
1763 07-10-2018 02:50:00 11.9 C 10.06 g/m*3 11.9 C 0 km/h
1764 07-10-2018 02:55:00 11.9 C 10.06 g/m*3 11.9 C 0 km/h
1765 07-10-2018 03:00:00 11.9 C 10.06 g/m*3 11.9 C 0 km/h
1766 07-10-2018 03:05:00 11.8 C 10 g/m*3 11.8 C 0 km/h
1767 07-10-2018 03:10:00 11.8 C 10 g/m*3 11.8 C 0 km/h
1768 07-10-2018 03:15:00 11.8 C 10 g/m*3 11.8 C 0 km/h
1769 07-10-2018 03:20:00 11.8 C 10 g/m*3 11.8 C 0 km/h
1770 07-10-2018 03:25:00 11.8 C 10 g/m*3 11.8 C 0 km/h
1771 07-10-2018 03:30:00 11.9 C 10.06 g/m*3 11.9 C 0 km/h
1772 07-10-2018 03:35:00 12.1 C 10.19 g/m*3 12.1 C 0 km/h
1773 07-10-2018 03:40:00 12.1 C 10.19 g/m*3 12.1 C 0 km/h
1774 07-10-2018 03:45:00 12.2 C 10.25 g/m*3 12.2 C 0 km/h
1775 07-10-2018 03:50:00 12.1 C 10.19 g/m*3 12.1 C 0 km/h
Sensor: Nr:Datum:Temp:Abs-Feuchte:Windchill:Wind:
Aussen-T/F 1776 07-10-2018 03:55:00 12.1 C 10.19 g/m*3 12.1 C 0 km/h
1777 07-10-2018 04:00:00 11.9 C 9.96 g/m*3 11.9 C 0 km/h
1778 07-10-2018 04:05:00 11.9 C 10.06 g/m*3 11.9 C 0 km/h
1779 07-10-2018 04:10:00 11.9 C 10.06 g/m*3 11.9 C 0 km/h
1780 07-10-2018 04:15:00 12 C 10.12 g/m*3 12 C 0 km/h
1781 07-10-2018 04:20:00 12.1 C 10.19 g/m*3 12.1 C 0 km/h
1782 07-10-2018 04:25:00 12.1 C 10.19 g/m*3 12.1 C 0 km/h
1783 07-10-2018 04:30:00 12.2 C 10.25 g/m*3 12.2 C 0 km/h
1784 07-10-2018 04:35:00 12.3 C 10.32 g/m*3 12.3 C 0 km/h
1785 07-10-2018 04:40:00 12.3 C 10.32 g/m*3 12.3 C 0 km/h
1786 07-10-2018 04:45:00 12.3 C 10.32 g/m*3 12.3 C 0 km/h
1787 07-10-2018 04:50:00 12.2 C 10.25 g/m*3 12.2 C 0 km/h
1788 07-10-2018 04:55:00 12.1 C 10.19 g/m*3 12.1 C 0 km/h
1789 07-10-2018 05:00:00 12.1 C 10.19 g/m*3 12.1 C 0 km/h
1790 07-10-2018 05:05:00 12 C 10.12 g/m*3 12 C 0 km/h
1791 07-10-2018 05:10:00 11.8 C 9.89 g/m*3 11.8 C 0 km/h
1792 07-10-2018 05:15:00 11.7 C 9.83 g/m*3 11.7 C 0 km/h
1793 07-10-2018 05:20:00 11.6 C 9.77 g/m*3 11.6 C 0 km/h
1794 07-10-2018 05:25:00 11.7 C 9.94 g/m*3 11.7 C 0 km/h
1795 07-10-2018 05:30:00 11.7 C 9.94 g/m*3 11.7 C 0 km/h
1796 07-10-2018 05:35:00 11.5 C 9.71 g/m*3 11.5 C 0 km/h
1797 07-10-2018 05:40:00 11.6 C 9.87 g/m*3 11.6 C 0 km/h
1798 07-10-2018 05:45:00 11.4 C 9.75 g/m*3 11.4 C 0 km/h
1799 07-10-2018 05:50:00 11.4 C 9.75 g/m*3 11.4 C 0 km/h
1800 07-10-2018 05:55:00 11.3 C 9.59 g/m*3 11.3 C 0 km/h
Sensor: Nr:Datum:Temp:Abs-Feuchte:Windchill:Wind:
Aussen-T/F 1801 07-10-2018 06:00:00 11.2 C 9.53 g/m*3 11.2 C 0 km/h
1802 07-10-2018 06:05:00 11.2 C 9.63 g/m*3 11.2 C 0 km/h
1803 07-10-2018 06:10:00 11.3 C 9.69 g/m*3 11.3 C 0 km/h
1804 07-10-2018 06:15:00 11.3 C 9.69 g/m*3 11.3 C 0 km/h
1805 07-10-2018 06:20:00 11.2 C 9.63 g/m*3 11.2 C 0 km/h
1806 07-10-2018 06:25:00 11.2 C 9.63 g/m*3 11.2 C 0 km/h
1807 07-10-2018 06:30:00 11.1 C 9.57 g/m*3 11.1 C 0 km/h
1808 07-10-2018 06:35:00 10.9 C 9.45 g/m*3 10.9 C 0 km/h
1809 07-10-2018 06:40:00 11 C 9.51 g/m*3 11 C 0 km/h
1810 07-10-2018 06:45:00 11.1 C 9.57 g/m*3 11.1 C 0 km/h
1811 07-10-2018 06:50:00 11.1 C 9.57 g/m*3 11.1 C 0 km/h
1812 07-10-2018 06:55:00 11.1 C 9.57 g/m*3 11.1 C 0 km/h
1813 07-10-2018 07:00:00 11.1 C 9.57 g/m*3 11.1 C 0 km/h
1814 07-10-2018 07:05:00 11.1 C 9.57 g/m*3 11.1 C 0 km/h
1815 07-10-2018 07:10:00 11.2 C 9.73 g/m*3 11.2 C 0 km/h
1816 07-10-2018 07:15:00 11.2 C 9.73 g/m*3 11.2 C 0 km/h
1817 07-10-2018 07:20:00 11.2 C 9.73 g/m*3 11.2 C 0 km/h
1818 07-10-2018 07:25:00 11.3 C 9.79 g/m*3 11.3 C 0 km/h
1819 07-10-2018 07:30:00 11.4 C 9.85 g/m*3 11.4 C 0 km/h
1820 07-10-2018 07:35:00 11.8 C 10.1 g/m*3 11.8 C 0 km/h
1821 07-10-2018 07:40:00 12.1 C 10.4 g/m*3 12.1 C 0 km/h
1822 07-10-2018 07:45:00 12.3 C 10.53 g/m*3 12.3 C 0 km/h
1823 07-10-2018 07:50:00 12.3 C 10.42 g/m*3 12.3 C 0 km/h
1824 07-10-2018 07:55:00 12.4 C 10.6 g/m*3 12.4 C 0 km/h
1825 07-10-2018 08:00:00 12.6 C 10.73 g/m*3 12.6 C 0 km/h
Sensor: Nr:Datum:Temp:Abs-Feuchte:Windchill:Wind:
Aussen-T/F 1826 07-10-2018 08:05:00 12.8 C 10.87 g/m*3 12.8 C 0 km/h
1827 07-10-2018 08:10:00 12.9 C 10.93 g/m*3 12.9 C 0 km/h
1828 07-10-2018 08:15:00 13.1 C 11.07 g/m*3 13.1 C 0 km/h
1829 07-10-2018 08:20:00 13.1 C 10.95 g/m*3 13.1 C 0 km/h
1830 07-10-2018 08:25:00 13.1 C 10.95 g/m*3 13.1 C 0 km/h
1831 07-10-2018 08:30:00 13.1 C 10.95 g/m*3 13.1 C 0 km/h
1832 07-10-2018 08:35:00 13.1 C 10.95 g/m*3 13.1 C 0 km/h
1833 07-10-2018 08:40:00 13.1 C 10.95 g/m*3 13.1 C 0 km/h
1834 07-10-2018 08:45:00 13.1 C 10.95 g/m*3 13.1 C 0 km/h
1835 07-10-2018 08:50:00 13.1 C 10.84 g/m*3 13.1 C 0 km/h
1836 07-10-2018 08:55:00 13.2 C 10.91 g/m*3 13.2 C 0 km/h
1837 07-10-2018 09:00:00 13.2 C 10.91 g/m*3 13.2 C 0 km/h
1838 07-10-2018 09:05:00 13.2 C 10.91 g/m*3 13.2 C 0 km/h
1839 07-10-2018 09:10:00 13.3 C 10.98 g/m*3 13.3 C 0 km/h
1840 07-10-2018 09:15:00 13.3 C 10.98 g/m*3 13.3 C 0 km/h
1841 07-10-2018 09:20:00 13.3 C 10.86 g/m*3 13.3 C 0 km/h
1842 07-10-2018 09:25:00 13.4 C 10.93 g/m*3 13.4 C 0 km/h
1843 07-10-2018 09:30:00 13.4 C 10.93 g/m*3 13.4 C 0 km/h
1844 07-10-2018 09:35:00 13.4 C 10.93 g/m*3 13.4 C 0 km/h
1845 07-10-2018 09:40:00 13.4 C 10.93 g/m*3 13.4 C 0 km/h
1846 07-10-2018 09:45:00 13.5 C 10.99 g/m*3 13.5 C 0 km/h
1847 07-10-2018 09:50:00 13.6 C 11.06 g/m*3 13.6 C 0 km/h
1848 07-10-2018 09:55:00 13.6 C 11.06 g/m*3 13.6 C 0 km/h
1849 07-10-2018 10:00:00 13.7 C 11.13 g/m*3 13.7 C 0 km/h
1850 07-10-2018 10:05:00 13.7 C 11.01 g/m*3 13.7 C 0 km/h
Sensor: Nr:Datum:Temp:Abs-Feuchte:Windchill:Wind:
Aussen-T/F 1851 07-10-2018 10:10:00 13.8 C 11.08 g/m*3 13.8 C 0 km/h
1852 07-10-2018 10:15:00 13.9 C 11.15 g/m*3 13.9 C 0 km/h
1853 07-10-2018 10:20:00 14 C 11.22 g/m*3 14 C 4.8 km/h
1854 07-10-2018 10:25:00 14.1 C 11.17 g/m*3 14.1 C 1.6 km/h
1855 07-10-2018 10:30:00 14.2 C 11.23 g/m*3 14.2 C 0 km/h
1856 07-10-2018 10:35:00 14.2 C 11.23 g/m*3 14.2 C 0 km/h
1857 07-10-2018 10:40:00 14.3 C 11.3 g/m*3 14.3 C 6.4 km/h
1858 07-10-2018 10:45:00 14.3 C 11.3 g/m*3 14.3 C 1.6 km/h
1859 07-10-2018 10:50:00 14.4 C 11.25 g/m*3 14.4 C 3.2 km/h
1860 07-10-2018 10:55:00 14.4 C 11.25 g/m*3 14.4 C 4.8 km/h
1861 07-10-2018 11:00:00 14.5 C 11.32 g/m*3 14.5 C 4.8 km/h
1862 07-10-2018 11:05:00 14.6 C 11.39 g/m*3 14.6 C 3.2 km/h
1863 07-10-2018 11:10:00 14.6 C 11.39 g/m*3 14.6 C 3.2 km/h
1864 07-10-2018 11:15:00 14.7 C 11.46 g/m*3 14.7 C 4.8 km/h
1865 07-10-2018 11:20:00 14.7 C 11.46 g/m*3 14.7 C 3.2 km/h
1866 07-10-2018 11:25:00 14.7 C 11.46 g/m*3 14.7 C 4.8 km/h
1867 07-10-2018 11:30:00 14.8 C 11.4 g/m*3 14.8 C 6.4 km/h
1868 07-10-2018 11:35:00 14.8 C 11.4 g/m*3 14.8 C 4.8 km/h
1869 07-10-2018 11:40:00 14.8 C 11.4 g/m*3 14.8 C 4.8 km/h
1870 07-10-2018 11:45:00 14.8 C 11.4 g/m*3 14.8 C 8.1 km/h
1871 07-10-2018 11:50:00 14.8 C 11.27 g/m*3 14.8 C 4.8 km/h
1872 07-10-2018 11:55:00 14.8 C 11.27 g/m*3 14.8 C 8.1 km/h
1873 07-10-2018 12:00:00 14.8 C 11.27 g/m*3 14.8 C 8.1 km/h
1874 07-10-2018 12:05:00 14.8 C 11.27 g/m*3 14.8 C 11.3 km/h
1875 07-10-2018 12:10:00 14.7 C 11.33 g/m*3 14.7 C 11.3 km/h
Sensor: Nr:Datum:Temp:Abs-Feuchte:Windchill:Wind:
Aussen-T/F 1876 07-10-2018 12:15:00 14.6 C 11.26 g/m*3 14.6 C 12.9 km/h
1877 07-10-2018 12:20:00 14.4 C 11 g/m*3 14.4 C 16.1 km/h
1878 07-10-2018 12:25:00 14.1 C 10.8 g/m*3 14.1 C 16.1 km/h
1879 07-10-2018 12:30:00 13.9 C 10.67 g/m*3 13.9 C 11.3 km/h
1880 07-10-2018 12:35:00 13.9 C 10.67 g/m*3 13.9 C 4.8 km/h
1881 07-10-2018 12:40:00 13.8 C 10.6 g/m*3 13.8 C 11.3 km/h
1882 07-10-2018 12:45:00 13.8 C 10.6 g/m*3 13.8 C 6.4 km/h
1883 07-10-2018 12:50:00 13.9 C 10.67 g/m*3 13.9 C 3.2 km/h
1884 07-10-2018 12:55:00 13.9 C 10.67 g/m*3 13.9 C 6.4 km/h
1885 07-10-2018 13:00:00 13.9 C 10.55 g/m*3 13.9 C 4.8 km/h
1886 07-10-2018 13:05:00 13.9 C 10.55 g/m*3 13.9 C 0 km/h
1887 07-10-2018 13:10:00 13.9 C 10.55 g/m*3 13.9 C 0 km/h
1888 07-10-2018 13:15:00 14 C 10.61 g/m*3 14 C 3.2 km/h
1889 07-10-2018 13:20:00 14.1 C 10.68 g/m*3 14.1 C 1.6 km/h
1890 07-10-2018 13:25:00 14.2 C 10.75 g/m*3 14.2 C 4.8 km/h
1891 07-10-2018 13:30:00 14.3 C 10.69 g/m*3 14.3 C 6.4 km/h
1892 07-10-2018 13:35:00 14.4 C 10.75 g/m*3 14.4 C 4.8 km/h
1893 07-10-2018 13:40:00 14.6 C 10.76 g/m*3 14.6 C 4.8 km/h
1894 07-10-2018 13:45:00 14.6 C 10.76 g/m*3 14.6 C 6.4 km/h
1895 07-10-2018 13:50:00 14.7 C 10.83 g/m*3 14.7 C 3.2 km/h
1896 07-10-2018 13:55:00 14.7 C 10.7 g/m*3 14.7 C 6.4 km/h
1897 07-10-2018 14:00:00 14.6 C 10.64 g/m*3 14.6 C 6.4 km/h
1898 07-10-2018 14:05:00 14.6 C 10.64 g/m*3 14.6 C 6.4 km/h
1899 07-10-2018 14:10:00 14.7 C 10.7 g/m*3 14.7 C 4.8 km/h
1900 07-10-2018 14:15:00 14.7 C 10.7 g/m*3 14.7 C 8.1 km/h
Sensor: Nr:Datum:Temp:Abs-Feuchte:Windchill:Wind:
Aussen-T/F 1901 07-10-2018 14:20:00 14.6 C 10.64 g/m*3 14.6 C 8.1 km/h
1902 07-10-2018 14:25:00 14.6 C 10.64 g/m*3 14.6 C 6.4 km/h
1903 07-10-2018 14:30:00 14.6 C 10.51 g/m*3 14.6 C 8.1 km/h
1904 07-10-2018 14:35:00 14.6 C 10.51 g/m*3 14.6 C 8.1 km/h
1905 07-10-2018 14:40:00 14.6 C 10.51 g/m*3 14.6 C 6.4 km/h
1906 07-10-2018 14:45:00 14.6 C 10.51 g/m*3 14.6 C 6.4 km/h
1907 07-10-2018 14:50:00 14.6 C 10.51 g/m*3 14.6 C 9.7 km/h
1908 07-10-2018 14:55:00 14.7 C 10.58 g/m*3 14.7 C 4.8 km/h
1909 07-10-2018 15:00:00 14.7 C 10.58 g/m*3 14.7 C 8.1 km/h
1910 07-10-2018 15:05:00 14.6 C 10.39 g/m*3 14.6 C 11.3 km/h
1911 07-10-2018 15:10:00 14.6 C 10.39 g/m*3 14.6 C 11.3 km/h
1912 07-10-2018 15:15:00 14.6 C 10.39 g/m*3 14.6 C 11.3 km/h
1913 07-10-2018 15:20:00 14.5 C 10.32 g/m*3 14.5 C 11.3 km/h
1914 07-10-2018 15:25:00 14.4 C 10.26 g/m*3 14.4 C 11.3 km/h
1915 07-10-2018 15:30:00 14.4 C 10.14 g/m*3 14.4 C 11.3 km/h
1916 07-10-2018 15:35:00 14.4 C 10.14 g/m*3 14.4 C 12.9 km/h
1917 07-10-2018 15:40:00 14.3 C 10.07 g/m*3 14.3 C 12.9 km/h
1918 07-10-2018 15:45:00 14.3 C 10.07 g/m*3 14.3 C 11.3 km/h
1919 07-10-2018 15:50:00 14.2 C 10.14 g/m*3 14.2 C 4.8 km/h
1920 07-10-2018 15:55:00 14.3 C 10.07 g/m*3 14.3 C 8.1 km/h
1921 07-10-2018 16:00:00 14.3 C 9.95 g/m*3 14.3 C 9.7 km/h
1922 07-10-2018 16:05:00 14.3 C 9.95 g/m*3 14.3 C 12.9 km/h
1923 07-10-2018 16:10:00 14.2 C 9.89 g/m*3 14.2 C 9.7 km/h
1924 07-10-2018 16:15:00 14.2 C 9.89 g/m*3 14.2 C 8.1 km/h
1925 07-10-2018 16:20:00 14.3 C 9.95 g/m*3 14.3 C 9.7 km/h
Sensor: Nr:Datum:Temp:Abs-Feuchte:Windchill:Wind:
Aussen-T/F 1926 07-10-2018 16:25:00 14.3 C 9.83 g/m*3 14.3 C 8.1 km/h
1927 07-10-2018 16:30:00 14.3 C 9.95 g/m*3 14.3 C 6.4 km/h
1928 07-10-2018 16:35:00 14.4 C 9.89 g/m*3 14.4 C 4.8 km/h
1929 07-10-2018 16:40:00 14.4 C 9.89 g/m*3 14.4 C 4.8 km/h
1930 07-10-2018 16:45:00 14.5 C 9.83 g/m*3 14.5 C 6.4 km/h
1931 07-10-2018 16:50:00 14.5 C 9.83 g/m*3 14.5 C 6.4 km/h
1932 07-10-2018 16:55:00 14.6 C 9.89 g/m*3 14.6 C 6.4 km/h
1933 07-10-2018 17:00:00 14.6 C 9.76 g/m*3 14.6 C 4.8 km/h
1934 07-10-2018 17:05:00 14.6 C 9.89 g/m*3 14.6 C 3.2 km/h
1935 07-10-2018 17:10:00 14.6 C 9.89 g/m*3 14.6 C 3.2 km/h
1936 07-10-2018 17:15:00 14.6 C 9.89 g/m*3 14.6 C 4.8 km/h
1937 07-10-2018 17:20:00 14.6 C 9.76 g/m*3 14.6 C 4.8 km/h
1938 07-10-2018 17:25:00 14.6 C 9.76 g/m*3 14.6 C 6.4 km/h
1939 07-10-2018 17:30:00 14.5 C 9.83 g/m*3 14.5 C 3.2 km/h
1940 07-10-2018 17:35:00 14.5 C 9.7 g/m*3 14.5 C 3.2 km/h
1941 07-10-2018 17:40:00 14.5 C 9.83 g/m*3 14.5 C 1.6 km/h
1942 07-10-2018 17:45:00 14.4 C 9.64 g/m*3 14.4 C 4.8 km/h
1943 07-10-2018 17:50:00 14.4 C 9.77 g/m*3 14.4 C 3.2 km/h
1944 07-10-2018 17:55:00 14.4 C 9.77 g/m*3 14.4 C 1.6 km/h
1945 07-10-2018 18:00:00 14.3 C 9.71 g/m*3 14.3 C 0 km/h
1946 07-10-2018 18:05:00 14.3 C 9.71 g/m*3 14.3 C 3.2 km/h
1947 07-10-2018 18:10:00 14.3 C 9.71 g/m*3 14.3 C 1.6 km/h
1948 07-10-2018 18:15:00 14.3 C 9.71 g/m*3 14.3 C 1.6 km/h
1949 07-10-2018 18:20:00 14.3 C 9.71 g/m*3 14.3 C 4.8 km/h
1950 07-10-2018 18:25:00 14.3 C 9.71 g/m*3 14.3 C 4.8 km/h
Sensor: Nr:Datum:Temp:Abs-Feuchte:Windchill:Wind:
Aussen-T/F 1951 07-10-2018 18:30:00 14.2 C 9.65 g/m*3 14.2 C 3.2 km/h
1952 07-10-2018 18:35:00 14.2 C 9.65 g/m*3 14.2 C 4.8 km/h
1953 07-10-2018 18:40:00 14.2 C 9.65 g/m*3 14.2 C 1.6 km/h
1954 07-10-2018 18:45:00 14.2 C 9.77 g/m*3 14.2 C 1.6 km/h
1955 07-10-2018 18:50:00 14.2 C 9.77 g/m*3 14.2 C 3.2 km/h
1956 07-10-2018 18:55:00 14.1 C 9.71 g/m*3 14.1 C 0 km/h
1957 07-10-2018 19:00:00 14.1 C 9.83 g/m*3 14.1 C 0 km/h
1958 07-10-2018 19:05:00 14.1 C 9.95 g/m*3 14.1 C 0 km/h
1959 07-10-2018 19:10:00 13.9 C 9.83 g/m*3 13.9 C 0 km/h
1960 07-10-2018 19:15:00 13.9 C 9.83 g/m*3 13.9 C 0 km/h
1961 07-10-2018 19:20:00 13.8 C 9.89 g/m*3 13.8 C 0 km/h
1962 07-10-2018 19:25:00 13.7 C 9.83 g/m*3 13.7 C 0 km/h
1963 07-10-2018 19:30:00 13.7 C 9.83 g/m*3 13.7 C 0 km/h
1964 07-10-2018 19:35:00 13.6 C 9.77 g/m*3 13.6 C 0 km/h
1965 07-10-2018 19:40:00 13.5 C 9.83 g/m*3 13.5 C 0 km/h
1966 07-10-2018 19:45:00 13.4 C 9.76 g/m*3 13.4 C 0 km/h
1967 07-10-2018 19:50:00 13.4 C 9.76 g/m*3 13.4 C 0 km/h
1968 07-10-2018 19:55:00 13.4 C 9.76 g/m*3 13.4 C 0 km/h
1969 07-10-2018 20:00:00 13.3 C 9.7 g/m*3 13.3 C 0 km/h
1970 07-10-2018 20:05:00 13.3 C 9.7 g/m*3 13.3 C 0 km/h
1971 07-10-2018 20:10:00 13.3 C 9.82 g/m*3 13.3 C 0 km/h
1972 07-10-2018 20:15:00 13.2 C 9.76 g/m*3 13.2 C 0 km/h
1973 07-10-2018 20:20:00 13.2 C 9.76 g/m*3 13.2 C 0 km/h
1974 07-10-2018 20:25:00 13.2 C 9.76 g/m*3 13.2 C 0 km/h
1975 07-10-2018 20:30:00 13.2 C 9.76 g/m*3 13.2 C 0 km/h
Sensor: Nr:Datum:Temp:Abs-Feuchte:Windchill:Wind:
Aussen-T/F 1976 07-10-2018 20:35:00 13.1 C 9.7 g/m*3 13.1 C 0 km/h
1977 07-10-2018 20:40:00 13.1 C 9.7 g/m*3 13.1 C 0 km/h
1978 07-10-2018 20:45:00 13.1 C 9.7 g/m*3 13.1 C 0 km/h
1979 07-10-2018 20:50:00 13 C 9.64 g/m*3 13 C 0 km/h
1980 07-10-2018 20:55:00 12.9 C 9.58 g/m*3 12.9 C 0 km/h
1981 07-10-2018 21:00:00 12.9 C 9.69 g/m*3 12.9 C 0 km/h
1982 07-10-2018 21:05:00 12.9 C 9.69 g/m*3 12.9 C 0 km/h
1983 07-10-2018 21:10:00 12.9 C 9.69 g/m*3 12.9 C 0 km/h
1984 07-10-2018 21:15:00 12.8 C 9.63 g/m*3 12.8 C 0 km/h
1985 07-10-2018 21:20:00 12.8 C 9.63 g/m*3 12.8 C 0 km/h
1986 07-10-2018 21:25:00 12.7 C 9.57 g/m*3 12.7 C 0 km/h
1987 07-10-2018 21:30:00 12.7 C 9.57 g/m*3 12.7 C 0 km/h
1988 07-10-2018 21:35:00 12.7 C 9.57 g/m*3 12.7 C 0 km/h
1989 07-10-2018 21:40:00 12.7 C 9.57 g/m*3 12.7 C 0 km/h
1990 07-10-2018 21:45:00 12.7 C 9.57 g/m*3 12.7 C 0 km/h
1991 07-10-2018 21:50:00 12.7 C 9.57 g/m*3 12.7 C 0 km/h
1992 07-10-2018 21:55:00 12.7 C 9.57 g/m*3 12.7 C 0 km/h
1993 07-10-2018 22:00:00 12.7 C 9.57 g/m*3 12.7 C 0 km/h
1994 07-10-2018 22:05:00 12.7 C 9.57 g/m*3 12.7 C 0 km/h
1995 07-10-2018 22:10:00 12.6 C 9.4 g/m*3 12.6 C 0 km/h
1996 07-10-2018 22:15:00 12.4 C 9.29 g/m*3 12.4 C 0 km/h
1997 07-10-2018 22:20:00 12.3 C 9.23 g/m*3 12.3 C 0 km/h
1998 07-10-2018 22:25:00 12.1 C 9.12 g/m*3 12.1 C 0 km/h
1999 07-10-2018 22:30:00 11.9 C 9.11 g/m*3 11.9 C 0 km/h
2000 07-10-2018 22:35:00 11.7 C 8.99 g/m*3 11.7 C 1.6 km/h
Sensor: Nr:Datum:Temp:Abs-Feuchte:Windchill:Wind:
Aussen-T/F 2001 07-10-2018 22:40:00 11.6 C 8.94 g/m*3 11.6 C 0 km/h
2002 07-10-2018 22:45:00 11.5 C 8.99 g/m*3 11.5 C 0 km/h
2003 07-10-2018 22:50:00 11.4 C 8.93 g/m*3 11.4 C 0 km/h
2004 07-10-2018 22:55:00 11.3 C 8.87 g/m*3 11.3 C 0 km/h
2005 07-10-2018 23:00:00 11.2 C 8.82 g/m*3 11.2 C 0 km/h
2006 07-10-2018 23:05:00 11.1 C 8.76 g/m*3 11.1 C 0 km/h
2007 07-10-2018 23:10:00 10.9 C 8.65 g/m*3 10.9 C 0 km/h
2008 07-10-2018 23:15:00 10.8 C 8.7 g/m*3 10.8 C 0 km/h
2009 07-10-2018 23:20:00 10.7 C 8.55 g/m*3 10.7 C 0 km/h
2010 07-10-2018 23:25:00 10.6 C 8.49 g/m*3 10.6 C 0 km/h
2011 07-10-2018 23:30:00 10.5 C 8.53 g/m*3 10.5 C 0 km/h
2012 07-10-2018 23:35:00 10.4 C 8.48 g/m*3 10.4 C 0 km/h
2013 07-10-2018 23:40:00 10.3 C 8.43 g/m*3 10.3 C 0 km/h
2014 07-10-2018 23:45:00 10.2 C 8.37 g/m*3 10.2 C 0 km/h
2015 07-10-2018 23:50:00 10.1 C 8.32 g/m*3 10.1 C 0 km/h
2016 07-10-2018 23:55:00 10.1 C 8.32 g/m*3 10.1 C 0 km/h
2017 08-10-2018 00:00:00 9.9 C 8.22 g/m*3 9.9 C 0 km/h
2018 08-10-2018 00:05:00 9.9 C 8.22 g/m*3 9.9 C 0 km/h
2019 08-10-2018 00:10:00 9.8 C 8.26 g/m*3 9.8 C 0 km/h
2020 08-10-2018 00:15:00 9.8 C 8.26 g/m*3 9.8 C 0 km/h
2021 08-10-2018 00:20:00 9.7 C 8.2 g/m*3 9.7 C 0 km/h
2022 08-10-2018 00:25:00 9.7 C 8.2 g/m*3 9.7 C 0 km/h
2023 08-10-2018 00:30:00 9.6 C 8.15 g/m*3 9.6 C 0 km/h
2024 08-10-2018 00:35:00 9.4 C 8.05 g/m*3 9.4 C 0 km/h
2025 08-10-2018 00:40:00 9.4 C 8.14 g/m*3 9.4 C 0 km/h
Sensor: Nr:Datum:Temp:Abs-Feuchte:Windchill:Wind:
Aussen-T/F 2026 08-10-2018 00:45:00 9.3 C 8.09 g/m*3 9.3 C 0 km/h
2027 08-10-2018 00:50:00 9.2 C 8.04 g/m*3 9.2 C 0 km/h
2028 08-10-2018 00:55:00 9.2 C 8.04 g/m*3 9.2 C 0 km/h
2029 08-10-2018 01:00:00 9.2 C 8.04 g/m*3 9.2 C 0 km/h
2030 08-10-2018 01:05:00 9.1 C 7.99 g/m*3 9.1 C 0 km/h
2031 08-10-2018 01:10:00 9 C 7.93 g/m*3 9 C 0 km/h
2032 08-10-2018 01:15:00 8.9 C 7.88 g/m*3 8.9 C 0 km/h
2033 08-10-2018 01:20:00 8.8 C 7.92 g/m*3 8.8 C 0 km/h
2034 08-10-2018 01:25:00 8.8 C 7.92 g/m*3 8.8 C 0 km/h
2035 08-10-2018 01:30:00 8.8 C 7.92 g/m*3 8.8 C 0 km/h
2036 08-10-2018 01:35:00 8.8 C 7.92 g/m*3 8.8 C 0 km/h
2037 08-10-2018 01:40:00 8.8 C 7.92 g/m*3 8.8 C 0 km/h
2038 08-10-2018 01:45:00 8.7 C 7.87 g/m*3 8.7 C 0 km/h
2039 08-10-2018 01:50:00 8.6 C 7.73 g/m*3 8.6 C 0 km/h
2040 08-10-2018 01:55:00 8.6 C 7.82 g/m*3 8.6 C 0 km/h
2041 08-10-2018 02:00:00 8.4 C 7.72 g/m*3 8.4 C 0 km/h
2042 08-10-2018 02:05:00 8.4 C 7.72 g/m*3 8.4 C 0 km/h
2043 08-10-2018 02:10:00 8.3 C 7.67 g/m*3 8.3 C 0 km/h
2044 08-10-2018 02:15:00 8.3 C 7.67 g/m*3 8.3 C 0 km/h
2045 08-10-2018 02:20:00 8.2 C 7.62 g/m*3 8.2 C 0 km/h
2046 08-10-2018 02:25:00 8.1 C 7.57 g/m*3 8.1 C 0 km/h
2047 08-10-2018 02:30:00 8 C 7.52 g/m*3 8 C 0 km/h
2048 08-10-2018 02:35:00 7.9 C 7.56 g/m*3 7.9 C 0 km/h
2049 08-10-2018 02:40:00 7.8 C 7.51 g/m*3 7.8 C 0 km/h
2050 08-10-2018 02:45:00 7.8 C 7.51 g/m*3 7.8 C 0 km/h
Sensor: Nr:Datum:Temp:Abs-Feuchte:Windchill:Wind:
Aussen-T/F 2051 08-10-2018 02:50:00 7.8 C 7.51 g/m*3 7.8 C 0 km/h
2052 08-10-2018 02:55:00 7.7 C 7.46 g/m*3 7.7 C 0 km/h
2053 08-10-2018 03:00:00 7.7 C 7.46 g/m*3 7.7 C 0 km/h
2054 08-10-2018 03:05:00 7.6 C 7.41 g/m*3 7.6 C 0 km/h
2055 08-10-2018 03:10:00 7.5 C 7.36 g/m*3 7.5 C 0 km/h
2056 08-10-2018 03:15:00 7.4 C 7.32 g/m*3 7.4 C 0 km/h
2057 08-10-2018 03:20:00 7.4 C 7.4 g/m*3 7.4 C 0 km/h
2058 08-10-2018 03:25:00 7.4 C 7.4 g/m*3 7.4 C 0 km/h
2059 08-10-2018 03:30:00 7.3 C 7.35 g/m*3 7.3 C 0 km/h
2060 08-10-2018 03:35:00 7.3 C 7.35 g/m*3 7.3 C 0 km/h
2061 08-10-2018 03:40:00 7.2 C 7.3 g/m*3 7.2 C 0 km/h
2062 08-10-2018 03:45:00 7.2 C 7.3 g/m*3 7.2 C 0 km/h
2063 08-10-2018 03:50:00 7.1 C 7.25 g/m*3 7.1 C 0 km/h
2064 08-10-2018 03:55:00 7.1 C 7.25 g/m*3 7.1 C 0 km/h
2065 08-10-2018 04:00:00 7.1 C 7.25 g/m*3 7.1 C 0 km/h
2066 08-10-2018 04:05:00 7 C 7.21 g/m*3 7 C 0 km/h
2067 08-10-2018 04:10:00 6.9 C 7.16 g/m*3 6.9 C 0 km/h
2068 08-10-2018 04:15:00 6.9 C 7.16 g/m*3 6.9 C 0 km/h
2069 08-10-2018 04:20:00 6.9 C 7.24 g/m*3 6.9 C 0 km/h
2070 08-10-2018 04:25:00 6.9 C 7.24 g/m*3 6.9 C 0 km/h
2071 08-10-2018 04:30:00 6.8 C 7.11 g/m*3 6.8 C 0 km/h
2072 08-10-2018 04:35:00 6.8 C 7.19 g/m*3 6.8 C 0 km/h
2073 08-10-2018 04:40:00 6.8 C 7.19 g/m*3 6.8 C 0 km/h
2074 08-10-2018 04:45:00 6.8 C 7.19 g/m*3 6.8 C 0 km/h
2075 08-10-2018 04:50:00 6.8 C 7.19 g/m*3 6.8 C 0 km/h
Sensor: Nr:Datum:Temp:Abs-Feuchte:Windchill:Wind:
Aussen-T/F 2076 08-10-2018 04:55:00 6.7 C 7.14 g/m*3 6.7 C 0 km/h
2077 08-10-2018 05:00:00 6.7 C 7.14 g/m*3 6.7 C 0 km/h
2078 08-10-2018 05:05:00 6.7 C 7.14 g/m*3 6.7 C 0 km/h
2079 08-10-2018 05:10:00 6.6 C 7.1 g/m*3 6.6 C 0 km/h
2080 08-10-2018 05:15:00 6.6 C 7.1 g/m*3 6.6 C 0 km/h
2081 08-10-2018 05:20:00 6.5 C 7.05 g/m*3 6.5 C 0 km/h
2082 08-10-2018 05:25:00 6.4 C 7 g/m*3 6.4 C 0 km/h
2083 08-10-2018 05:30:00 6.4 C 7 g/m*3 6.4 C 0 km/h
2084 08-10-2018 05:35:00 6.4 C 7 g/m*3 6.4 C 0 km/h
2085 08-10-2018 05:40:00 6.4 C 7 g/m*3 6.4 C 0 km/h
2086 08-10-2018 05:45:00 6.3 C 6.96 g/m*3 6.3 C 0 km/h
2087 08-10-2018 05:50:00 6.3 C 6.96 g/m*3 6.3 C 0 km/h
2088 08-10-2018 05:55:00 6.3 C 6.96 g/m*3 6.3 C 0 km/h
2089 08-10-2018 06:00:00 6.3 C 7.03 g/m*3 6.3 C 0 km/h
2090 08-10-2018 06:05:00 6.2 C 6.91 g/m*3 6.2 C 0 km/h
2091 08-10-2018 06:10:00 6.2 C 6.91 g/m*3 6.2 C 0 km/h
2092 08-10-2018 06:15:00 6.1 C 6.87 g/m*3 6.1 C 0 km/h
2093 08-10-2018 06:20:00 6.1 C 6.87 g/m*3 6.1 C 0 km/h
2094 08-10-2018 06:25:00 6 C 6.82 g/m*3 6 C 0 km/h
2095 08-10-2018 06:30:00 6 C 6.9 g/m*3 6 C 0 km/h
2096 08-10-2018 06:35:00 5.9 C 6.85 g/m*3 5.9 C 0 km/h
2097 08-10-2018 06:40:00 5.9 C 6.85 g/m*3 5.9 C 0 km/h
2098 08-10-2018 06:45:00 5.9 C 6.85 g/m*3 5.9 C 0 km/h
2099 08-10-2018 06:50:00 5.9 C 6.85 g/m*3 5.9 C 0 km/h
2100 08-10-2018 06:55:00 6 C 6.9 g/m*3 6 C 0 km/h
Sensor: Nr:Datum:Temp:Abs-Feuchte:Windchill:Wind:
Aussen-T/F 2101 08-10-2018 07:00:00 6.1 C 6.94 g/m*3 6.1 C 0 km/h
2102 08-10-2018 07:05:00 6.2 C 6.99 g/m*3 6.2 C 0 km/h
2103 08-10-2018 07:10:00 6.2 C 6.99 g/m*3 6.2 C 0 km/h
2104 08-10-2018 07:15:00 6.3 C 7.03 g/m*3 6.3 C 0 km/h
2105 08-10-2018 07:20:00 6.3 C 7.03 g/m*3 6.3 C 0 km/h
2106 08-10-2018 07:25:00 6.3 C 7.03 g/m*3 6.3 C 0 km/h
2107 08-10-2018 07:30:00 6.3 C 7.03 g/m*3 6.3 C 0 km/h
2108 08-10-2018 07:35:00 6.3 C 7.03 g/m*3 6.3 C 0 km/h
2109 08-10-2018 07:40:00 6.2 C 6.99 g/m*3 6.2 C 0 km/h
2110 08-10-2018 07:45:00 6.2 C 6.99 g/m*3 6.2 C 0 km/h
2111 08-10-2018 07:50:00 6.1 C 6.94 g/m*3 6.1 C 0 km/h
2112 08-10-2018 07:55:00 6.1 C 6.94 g/m*3 6.1 C 0 km/h
2113 08-10-2018 08:00:00 6.1 C 6.94 g/m*3 6.1 C 0 km/h
2114 08-10-2018 08:05:00 6.1 C 6.94 g/m*3 6.1 C 0 km/h
2115 08-10-2018 08:10:00 6.2 C 6.99 g/m*3 6.2 C 0 km/h
2116 08-10-2018 08:15:00 6.2 C 6.99 g/m*3 6.2 C 0 km/h
2117 08-10-2018 08:20:00 6.2 C 6.99 g/m*3 6.2 C 0 km/h
2118 08-10-2018 08:25:00 6.2 C 6.99 g/m*3 6.2 C 0 km/h
2119 08-10-2018 08:30:00 6.2 C 6.99 g/m*3 6.2 C 0 km/h
2120 08-10-2018 08:35:00 6.2 C 6.99 g/m*3 6.2 C 0 km/h
2121 08-10-2018 08:40:00 6.2 C 6.99 g/m*3 6.2 C 0 km/h
2122 08-10-2018 08:45:00 6.2 C 7.06 g/m*3 6.2 C 0 km/h
2123 08-10-2018 08:50:00 6.3 C 7.11 g/m*3 6.3 C 0 km/h
2124 08-10-2018 08:55:00 6.3 C 7.11 g/m*3 6.3 C 0 km/h
2125 08-10-2018 09:00:00 6.4 C 7.15 g/m*3 6.4 C 0 km/h
Sensor: Nr:Datum:Temp:Abs-Feuchte:Windchill:Wind:
Aussen-T/F 2126 08-10-2018 09:05:00 6.5 C 7.2 g/m*3 6.5 C 0 km/h
2127 08-10-2018 09:10:00 6.5 C 7.2 g/m*3 6.5 C 0 km/h
2128 08-10-2018 09:15:00 6.6 C 7.25 g/m*3 6.6 C 0 km/h
2129 08-10-2018 09:20:00 6.6 C 7.25 g/m*3 6.6 C 0 km/h
2130 08-10-2018 09:25:00 6.8 C 7.34 g/m*3 6.8 C 0 km/h
2131 08-10-2018 09:30:00 6.9 C 7.39 g/m*3 6.9 C 0 km/h
2132 08-10-2018 09:35:00 7.1 C 7.49 g/m*3 7.1 C 0 km/h
2133 08-10-2018 09:40:00 7.3 C 7.58 g/m*3 7.3 C 0 km/h
2134 08-10-2018 09:45:00 7.4 C 7.63 g/m*3 7.4 C 0 km/h
2135 08-10-2018 09:50:00 7.4 C 7.63 g/m*3 7.4 C 0 km/h
2136 08-10-2018 09:55:00 7.5 C 7.68 g/m*3 7.5 C 0 km/h
2137 08-10-2018 10:00:00 7.6 C 7.73 g/m*3 7.6 C 0 km/h
2138 08-10-2018 10:05:00 7.6 C 7.73 g/m*3 7.6 C 0 km/h
2139 08-10-2018 10:10:00 7.6 C 7.73 g/m*3 7.6 C 0 km/h
2140 08-10-2018 10:15:00 7.7 C 7.78 g/m*3 7.7 C 0 km/h
2141 08-10-2018 10:20:00 7.7 C 7.78 g/m*3 7.7 C 0 km/h
2142 08-10-2018 10:25:00 7.8 C 7.83 g/m*3 7.8 C 0 km/h
2143 08-10-2018 10:30:00 7.8 C 7.83 g/m*3 7.8 C 0 km/h
2144 08-10-2018 10:35:00 7.8 C 7.83 g/m*3 7.8 C 0 km/h
2145 08-10-2018 10:40:00 7.9 C 7.89 g/m*3 7.9 C 0 km/h
2146 08-10-2018 10:45:00 7.9 C 7.89 g/m*3 7.9 C 0 km/h
2147 08-10-2018 10:50:00 8.1 C 7.99 g/m*3 8.1 C 0 km/h
2148 08-10-2018 10:55:00 8.1 C 7.99 g/m*3 8.1 C 0 km/h
2149 08-10-2018 11:00:00 8.2 C 8.04 g/m*3 8.2 C 0 km/h
2150 08-10-2018 11:05:00 8.2 C 8.04 g/m*3 8.2 C 0 km/h
Sensor: Nr:Datum:Temp:Abs-Feuchte:Windchill:Wind:
Aussen-T/F 2151 08-10-2018 11:10:00 8.3 C 8.09 g/m*3 8.3 C 0 km/h
2152 08-10-2018 11:15:00 8.4 C 8.14 g/m*3 8.4 C 0 km/h
2153 08-10-2018 11:20:00 8.6 C 8.25 g/m*3 8.6 C 0 km/h
2154 08-10-2018 11:25:00 8.7 C 8.3 g/m*3 8.7 C 0 km/h
2155 08-10-2018 11:30:00 8.8 C 8.36 g/m*3 8.8 C 0 km/h
2156 08-10-2018 11:35:00 8.9 C 8.41 g/m*3 8.9 C 0 km/h
2157 08-10-2018 11:40:00 9.1 C 8.52 g/m*3 9.1 C 0 km/h
2158 08-10-2018 11:45:00 9.2 C 8.57 g/m*3 9.2 C 0 km/h
2159 08-10-2018 11:50:00 9.4 C 8.68 g/m*3 9.4 C 0 km/h
2160 08-10-2018 11:55:00 9.6 C 8.79 g/m*3 9.6 C 0 km/h
2161 08-10-2018 12:00:00 9.7 C 8.85 g/m*3 9.7 C 0 km/h
2162 08-10-2018 12:05:00 9.8 C 8.91 g/m*3 9.8 C 0 km/h
2163 08-10-2018 12:10:00 10 C 8.93 g/m*3 10 C 0 km/h
2164 08-10-2018 12:15:00 10.2 C 9.04 g/m*3 10.2 C 0 km/h
2165 08-10-2018 12:20:00 10.3 C 9.1 g/m*3 10.3 C 0 km/h
2166 08-10-2018 12:25:00 10.4 C 9.16 g/m*3 10.4 C 0 km/h
2167 08-10-2018 12:30:00 10.6 C 9.27 g/m*3 10.6 C 0 km/h
2168 08-10-2018 12:35:00 10.7 C 9.33 g/m*3 10.7 C 0 km/h
2169 08-10-2018 12:40:00 10.8 C 9.29 g/m*3 10.8 C 0 km/h
2170 08-10-2018 12:45:00 11 C 9.41 g/m*3 11 C 0 km/h
2171 08-10-2018 12:50:00 11.2 C 9.53 g/m*3 11.2 C 0 km/h
2172 08-10-2018 12:55:00 11.3 C 9.49 g/m*3 11.3 C 0 km/h
2173 08-10-2018 13:00:00 11.5 C 9.61 g/m*3 11.5 C 0 km/h
2174 08-10-2018 13:05:00 11.7 C 9.62 g/m*3 11.7 C 0 km/h
2175 08-10-2018 13:10:00 11.9 C 9.74 g/m*3 11.9 C 0 km/h
Sensor: Nr:Datum:Temp:Abs-Feuchte:Windchill:Wind:
Aussen-T/F 2176 08-10-2018 13:15:00 12.2 C 9.82 g/m*3 12.2 C 0 km/h
2177 08-10-2018 13:20:00 12.5 C 10 g/m*3 12.5 C 0 km/h
2178 08-10-2018 13:25:00 12.7 C 9.8 g/m*3 12.7 C 0 km/h
2179 08-10-2018 13:30:00 12.9 C 10.03 g/m*3 12.9 C 0 km/h
2180 08-10-2018 13:35:00 13.1 C 9.93 g/m*3 13.1 C 0 km/h
2181 08-10-2018 13:40:00 13.3 C 9.7 g/m*3 13.3 C 0 km/h
2182 08-10-2018 13:45:00 13.7 C 9.95 g/m*3 13.7 C 0 km/h
2183 08-10-2018 13:50:00 14 C 10.01 g/m*3 14 C 0 km/h
2184 08-10-2018 13:55:00 14.2 C 9.89 g/m*3 14.2 C 0 km/h
2185 08-10-2018 14:00:00 14.4 C 9.89 g/m*3 14.4 C 0 km/h
2186 08-10-2018 14:05:00 14.7 C 9.95 g/m*3 14.7 C 0 km/h
2187 08-10-2018 14:10:00 14.9 C 10.2 g/m*3 14.9 C 0 km/h
2188 08-10-2018 14:15:00 15.2 C 10.25 g/m*3 15.2 C 0 km/h
2189 08-10-2018 14:20:00 15.5 C 10.31 g/m*3 15.5 C 0 km/h
2190 08-10-2018 14:25:00 15.7 C 10.17 g/m*3 15.7 C 0 km/h
2191 08-10-2018 14:30:00 15.9 C 10.02 g/m*3 15.9 C 0 km/h
2192 08-10-2018 14:35:00 16.2 C 10.48 g/m*3 16.2 C 0 km/h
2193 08-10-2018 14:40:00 16.4 C 10.61 g/m*3 16.4 C 0 km/h
2194 08-10-2018 14:45:00 16.6 C 10.17 g/m*3 16.6 C 0 km/h
2195 08-10-2018 14:50:00 16.6 C 10.17 g/m*3 16.6 C 0 km/h
2196 08-10-2018 14:55:00 16.6 C 10.31 g/m*3 16.6 C 0 km/h
2197 08-10-2018 15:00:00 16.6 C 10.45 g/m*3 16.6 C 0 km/h
2198 08-10-2018 15:05:00 16.6 C 10.45 g/m*3 16.6 C 0 km/h
2199 08-10-2018 15:10:00 16.6 C 10.17 g/m*3 16.6 C 0 km/h
2200 08-10-2018 15:15:00 16.7 C 10.66 g/m*3 16.7 C 0 km/h
Sensor: Nr:Datum:Temp:Abs-Feuchte:Windchill:Wind:
Aussen-T/F 2201 08-10-2018 15:20:00 16.7 C 10.8 g/m*3 16.7 C 0 km/h
2202 08-10-2018 15:25:00 16.7 C 10.37 g/m*3 16.7 C 0 km/h
2203 08-10-2018 15:30:00 16.7 C 10.23 g/m*3 16.7 C 0 km/h
2204 08-10-2018 15:35:00 16.7 C 10.09 g/m*3 16.7 C 0 km/h
2205 08-10-2018 15:40:00 16.8 C 10.15 g/m*3 16.8 C 0 km/h
2206 08-10-2018 15:45:00 16.9 C 10.36 g/m*3 16.9 C 0 km/h
2207 08-10-2018 15:50:00 16.9 C 10.36 g/m*3 16.9 C 0 km/h
2208 08-10-2018 15:55:00 16.9 C 10.64 g/m*3 16.9 C 0 km/h
2209 08-10-2018 16:00:00 17 C 10.27 g/m*3 17 C 0 km/h
2210 08-10-2018 16:05:00 17.1 C 10.19 g/m*3 17.1 C 0 km/h
2211 08-10-2018 16:10:00 17.2 C 10.54 g/m*3 17.2 C 0 km/h
2212 08-10-2018 16:15:00 17.2 C 10.54 g/m*3 17.2 C 0 km/h
2213 08-10-2018 16:20:00 17.2 C 10.54 g/m*3 17.2 C 0 km/h
2214 08-10-2018 16:25:00 17.2 C 10.69 g/m*3 17.2 C 0 km/h
2215 08-10-2018 16:30:00 17.2 C 10.69 g/m*3 17.2 C 0 km/h
2216 08-10-2018 16:35:00 17.3 C 11.05 g/m*3 17.3 C 0 km/h
2217 08-10-2018 16:40:00 17.3 C 11.2 g/m*3 17.3 C 0 km/h
2218 08-10-2018 16:45:00 17.2 C 10.54 g/m*3 17.2 C 0 km/h
2219 08-10-2018 16:50:00 17.2 C 10.98 g/m*3 17.2 C 0 km/h
2220 08-10-2018 16:55:00 17.2 C 11.13 g/m*3 17.2 C 0 km/h
2221 08-10-2018 17:00:00 17.2 C 11.13 g/m*3 17.2 C 0 km/h
2222 08-10-2018 17:05:00 17.2 C 11.13 g/m*3 17.2 C 0 km/h
2223 08-10-2018 17:10:00 17.1 C 11.06 g/m*3 17.1 C 0 km/h
2224 08-10-2018 17:15:00 17 C 11.14 g/m*3 17 C 0 km/h
2225 08-10-2018 17:20:00 16.9 C 11.08 g/m*3 16.9 C 0 km/h
Sensor: Nr:Datum:Temp:Abs-Feuchte:Windchill:Wind:
Aussen-T/F 2226 08-10-2018 17:25:00 16.8 C 11.01 g/m*3 16.8 C 0 km/h
2227 08-10-2018 17:30:00 16.8 C 11.15 g/m*3 16.8 C 0 km/h
2228 08-10-2018 17:35:00 16.7 C 11.08 g/m*3 16.7 C 0 km/h
2229 08-10-2018 17:40:00 16.6 C 11.16 g/m*3 16.6 C 0 km/h
2230 08-10-2018 17:45:00 16.5 C 11.09 g/m*3 16.5 C 0 km/h
2231 08-10-2018 17:50:00 16.5 C 11.09 g/m*3 16.5 C 0 km/h
2232 08-10-2018 17:55:00 16.5 C 11.09 g/m*3 16.5 C 0 km/h
2233 08-10-2018 18:00:00 16.4 C 11.03 g/m*3 16.4 C 0 km/h
2234 08-10-2018 18:05:00 16.4 C 11.03 g/m*3 16.4 C 0 km/h
2235 08-10-2018 18:10:00 16.4 C 11.17 g/m*3 16.4 C 0 km/h
2236 08-10-2018 18:15:00 16.4 C 11.03 g/m*3 16.4 C 0 km/h
2237 08-10-2018 18:20:00 16.4 C 11.03 g/m*3 16.4 C 0 km/h
2238 08-10-2018 18:25:00 16.3 C 10.82 g/m*3 16.3 C 0 km/h
2239 08-10-2018 18:30:00 16.2 C 10.76 g/m*3 16.2 C 0 km/h
2240 08-10-2018 18:35:00 16.1 C 10.69 g/m*3 16.1 C 0 km/h
2241 08-10-2018 18:40:00 15.8 C 10.63 g/m*3 15.8 C 0 km/h
2242 08-10-2018 18:45:00 15.5 C 10.44 g/m*3 15.5 C 0 km/h
2243 08-10-2018 18:50:00 15.3 C 10.45 g/m*3 15.3 C 0 km/h
2244 08-10-2018 18:55:00 15 C 10.26 g/m*3 15 C 0 km/h
2245 08-10-2018 19:00:00 14.8 C 10.26 g/m*3 14.8 C 0 km/h
2246 08-10-2018 19:05:00 14.6 C 10.14 g/m*3 14.6 C 0 km/h
2247 08-10-2018 19:10:00 14.4 C 10.01 g/m*3 14.4 C 0 km/h
2248 08-10-2018 19:15:00 14.2 C 9.89 g/m*3 14.2 C 0 km/h
2249 08-10-2018 19:20:00 14 C 9.77 g/m*3 14 C 0 km/h
2250 08-10-2018 19:25:00 13.8 C 9.77 g/m*3 13.8 C 0 km/h
Sensor: Nr:Datum:Temp:Abs-Feuchte:Windchill:Wind:
Aussen-T/F 2251 08-10-2018 19:30:00 13.7 C 9.71 g/m*3 13.7 C 0 km/h
2252 08-10-2018 19:35:00 13.7 C 9.83 g/m*3 13.7 C 0 km/h
2253 08-10-2018 19:40:00 13.6 C 9.65 g/m*3 13.6 C 0 km/h
2254 08-10-2018 19:45:00 13.5 C 9.71 g/m*3 13.5 C 0 km/h
2255 08-10-2018 19:50:00 13.4 C 9.65 g/m*3 13.4 C 0 km/h
2256 08-10-2018 19:55:00 13.3 C 9.59 g/m*3 13.3 C 0 km/h
2257 08-10-2018 20:00:00 13.3 C 9.59 g/m*3 13.3 C 0 km/h
2258 08-10-2018 20:05:00 13.2 C 9.64 g/m*3 13.2 C 0 km/h
2259 08-10-2018 20:10:00 13 C 9.53 g/m*3 13 C 0 km/h
2260 08-10-2018 20:15:00 12.8 C 9.52 g/m*3 12.8 C 0 km/h
2261 08-10-2018 20:20:00 12.7 C 9.46 g/m*3 12.7 C 0 km/h
2262 08-10-2018 20:25:00 12.4 C 9.4 g/m*3 12.4 C 0 km/h
2263 08-10-2018 20:30:00 12.3 C 9.34 g/m*3 12.3 C 0 km/h
2264 08-10-2018 20:35:00 12.1 C 9.22 g/m*3 12.1 C 0 km/h
2265 08-10-2018 20:40:00 12 C 9.27 g/m*3 12 C 0 km/h
2266 08-10-2018 20:45:00 11.8 C 9.16 g/m*3 11.8 C 0 km/h
2267 08-10-2018 20:50:00 11.8 C 9.26 g/m*3 11.8 C 0 km/h
2268 08-10-2018 20:55:00 11.7 C 9.2 g/m*3 11.7 C 0 km/h
2269 08-10-2018 21:00:00 11.7 C 9.2 g/m*3 11.7 C 0 km/h
2270 08-10-2018 21:05:00 11.7 C 9.2 g/m*3 11.7 C 0 km/h
2271 08-10-2018 21:10:00 11.5 C 9.09 g/m*3 11.5 C 0 km/h
2272 08-10-2018 21:15:00 11.4 C 9.03 g/m*3 11.4 C 0 km/h
2273 08-10-2018 21:20:00 11.3 C 8.98 g/m*3 11.3 C 0 km/h
2274 08-10-2018 21:25:00 11.3 C 9.08 g/m*3 11.3 C 0 km/h
2275 08-10-2018 21:30:00 11.2 C 9.02 g/m*3 11.2 C 0 km/h
Sensor: Nr:Datum:Temp:Abs-Feuchte:Windchill:Wind:
Aussen-T/F 2276 08-10-2018 21:35:00 11 C 8.91 g/m*3 11 C 0 km/h
2277 08-10-2018 21:40:00 10.9 C 8.85 g/m*3 10.9 C 0 km/h
2278 08-10-2018 21:45:00 10.8 C 8.8 g/m*3 10.8 C 0 km/h
2279 08-10-2018 21:50:00 10.8 C 8.9 g/m*3 10.8 C 0 km/h
2280 08-10-2018 21:55:00 10.7 C 8.84 g/m*3 10.7 C 0 km/h
2281 08-10-2018 22:00:00 10.6 C 8.78 g/m*3 10.6 C 0 km/h
2282 08-10-2018 22:05:00 10.5 C 8.73 g/m*3 10.5 C 0 km/h
2283 08-10-2018 22:10:00 10.4 C 8.67 g/m*3 10.4 C 0 km/h
2284 08-10-2018 22:15:00 10.3 C 8.71 g/m*3 10.3 C 0 km/h
2285 08-10-2018 22:20:00 10.3 C 8.71 g/m*3 10.3 C 0 km/h
2286 08-10-2018 22:25:00 10.3 C 8.71 g/m*3 10.3 C 0 km/h
2287 08-10-2018 22:30:00 10.2 C 8.66 g/m*3 10.2 C 0 km/h
2288 08-10-2018 22:35:00 10.2 C 8.66 g/m*3 10.2 C 0 km/h
2289 08-10-2018 22:40:00 10.1 C 8.61 g/m*3 10.1 C 0 km/h
2290 08-10-2018 22:45:00 9.9 C 8.5 g/m*3 9.9 C 0 km/h
2291 08-10-2018 22:50:00 9.8 C 8.44 g/m*3 9.8 C 0 km/h
2292 08-10-2018 22:55:00 9.7 C 8.39 g/m*3 9.7 C 0 km/h
2293 08-10-2018 23:00:00 9.7 C 8.48 g/m*3 9.7 C 0 km/h
2294 08-10-2018 23:05:00 9.7 C 8.48 g/m*3 9.7 C 0 km/h
2295 08-10-2018 23:10:00 9.7 C 8.48 g/m*3 9.7 C 0 km/h
2296 08-10-2018 23:15:00 9.6 C 8.43 g/m*3 9.6 C 0 km/h
2297 08-10-2018 23:20:00 9.5 C 8.37 g/m*3 9.5 C 0 km/h
2298 08-10-2018 23:25:00 9.4 C 8.32 g/m*3 9.4 C 0 km/h
2299 08-10-2018 23:30:00 9.4 C 8.32 g/m*3 9.4 C 0 km/h
2300 08-10-2018 23:35:00 9.3 C 8.27 g/m*3 9.3 C 0 km/h
Sensor: Nr:Datum:Temp:Abs-Feuchte:Windchill:Wind:
Aussen-T/F 2301 08-10-2018 23:40:00 9.3 C 8.27 g/m*3 9.3 C 0 km/h
2302 08-10-2018 23:45:00 9.3 C 8.36 g/m*3 9.3 C 0 km/h
2303 08-10-2018 23:50:00 9.3 C 8.36 g/m*3 9.3 C 0 km/h
2304 08-10-2018 23:55:00 9.2 C 8.3 g/m*3 9.2 C 0 km/h
2305 09-10-2018 00:00:00 9.3 C 8.36 g/m*3 9.3 C 0 km/h
2306 09-10-2018 00:05:00 9.2 C 8.3 g/m*3 9.2 C 0 km/h
2307 09-10-2018 00:10:00 9.2 C 8.3 g/m*3 9.2 C 0 km/h
2308 09-10-2018 00:15:00 9.2 C 8.3 g/m*3 9.2 C 0 km/h
2309 09-10-2018 00:20:00 9.1 C 8.25 g/m*3 9.1 C 0 km/h
2310 09-10-2018 00:25:00 9 C 8.2 g/m*3 9 C 0 km/h
2311 09-10-2018 00:30:00 8.9 C 8.15 g/m*3 8.9 C 0 km/h
2312 09-10-2018 00:35:00 8.9 C 8.15 g/m*3 8.9 C 0 km/h
2313 09-10-2018 00:40:00 8.9 C 8.15 g/m*3 8.9 C 0 km/h
2314 09-10-2018 00:45:00 8.8 C 8.09 g/m*3 8.8 C 0 km/h
2315 09-10-2018 00:50:00 8.8 C 8.09 g/m*3 8.8 C 0 km/h
2316 09-10-2018 00:55:00 8.7 C 8.04 g/m*3 8.7 C 0 km/h
2317 09-10-2018 01:00:00 8.7 C 8.13 g/m*3 8.7 C 0 km/h
2318 09-10-2018 01:05:00 8.8 C 8.18 g/m*3 8.8 C 0 km/h
2319 09-10-2018 01:10:00 8.9 C 8.23 g/m*3 8.9 C 0 km/h
2320 09-10-2018 01:15:00 9.2 C 8.48 g/m*3 9.2 C 0 km/h
2321 09-10-2018 01:20:00 9.2 C 8.48 g/m*3 9.2 C 0 km/h
2322 09-10-2018 01:25:00 9.2 C 8.39 g/m*3 9.2 C 0 km/h
2323 09-10-2018 01:30:00 9.2 C 8.39 g/m*3 9.2 C 0 km/h
2324 09-10-2018 01:35:00 9.1 C 8.34 g/m*3 9.1 C 0 km/h
2325 09-10-2018 01:40:00 9 C 8.29 g/m*3 9 C 0 km/h
Sensor: Nr:Datum:Temp:Abs-Feuchte:Windchill:Wind:
Aussen-T/F 2326 09-10-2018 01:45:00 8.9 C 8.23 g/m*3 8.9 C 0 km/h
2327 09-10-2018 01:50:00 8.8 C 8.18 g/m*3 8.8 C 0 km/h
2328 09-10-2018 01:55:00 8.9 C 8.32 g/m*3 8.9 C 0 km/h
2329 09-10-2018 02:00:00 8.9 C 8.23 g/m*3 8.9 C 0 km/h
2330 09-10-2018 02:05:00 8.7 C 8.13 g/m*3 8.7 C 0 km/h
2331 09-10-2018 02:10:00 8.6 C 8.08 g/m*3 8.6 C 0 km/h
2332 09-10-2018 02:15:00 8.7 C 8.13 g/m*3 8.7 C 0 km/h
2333 09-10-2018 02:20:00 8.7 C 8.22 g/m*3 8.7 C 0 km/h
2334 09-10-2018 02:25:00 8.8 C 8.27 g/m*3 8.8 C 0 km/h
2335 09-10-2018 02:30:00 8.9 C 8.32 g/m*3 8.9 C 0 km/h
2336 09-10-2018 02:35:00 8.9 C 8.32 g/m*3 8.9 C 0 km/h
2337 09-10-2018 02:40:00 8.9 C 8.32 g/m*3 8.9 C 0 km/h
2338 09-10-2018 02:45:00 8.8 C 8.27 g/m*3 8.8 C 0 km/h
2339 09-10-2018 02:50:00 8.7 C 8.13 g/m*3 8.7 C 0 km/h
2340 09-10-2018 02:55:00 8.5 C 8.03 g/m*3 8.5 C 0 km/h
2341 09-10-2018 03:00:00 8.4 C 7.97 g/m*3 8.4 C 0 km/h
2342 09-10-2018 03:05:00 8.3 C 7.92 g/m*3 8.3 C 0 km/h
2343 09-10-2018 03:10:00 8.3 C 8.01 g/m*3 8.3 C 0 km/h
2344 09-10-2018 03:15:00 8.2 C 7.96 g/m*3 8.2 C 0 km/h
2345 09-10-2018 03:20:00 8.2 C 7.96 g/m*3 8.2 C 0 km/h
2346 09-10-2018 03:25:00 8.2 C 7.96 g/m*3 8.2 C 0 km/h
2347 09-10-2018 03:30:00 8.2 C 7.96 g/m*3 8.2 C 0 km/h
2348 09-10-2018 03:35:00 8.2 C 7.96 g/m*3 8.2 C 0 km/h
2349 09-10-2018 03:40:00 8.1 C 7.9 g/m*3 8.1 C 0 km/h
2350 09-10-2018 03:45:00 7.9 C 7.8 g/m*3 7.9 C 0 km/h
Sensor: Nr:Datum:Temp:Abs-Feuchte:Windchill:Wind:
Aussen-T/F 2351 09-10-2018 03:50:00 7.8 C 7.75 g/m*3 7.8 C 0 km/h
2352 09-10-2018 03:55:00 7.8 C 7.75 g/m*3 7.8 C 0 km/h
2353 09-10-2018 04:00:00 8 C 7.85 g/m*3 8 C 0 km/h
2354 09-10-2018 04:05:00 8.2 C 8.04 g/m*3 8.2 C 0 km/h
2355 09-10-2018 04:10:00 8.2 C 7.96 g/m*3 8.2 C 0 km/h
2356 09-10-2018 04:15:00 8 C 7.85 g/m*3 8 C 0 km/h
2357 09-10-2018 04:20:00 7.8 C 7.67 g/m*3 7.8 C 0 km/h
2358 09-10-2018 04:25:00 7.6 C 7.65 g/m*3 7.6 C 0 km/h
2359 09-10-2018 04:30:00 7.8 C 7.75 g/m*3 7.8 C 0 km/h
2360 09-10-2018 04:35:00 8 C 7.85 g/m*3 8 C 0 km/h
2361 09-10-2018 04:40:00 7.8 C 7.75 g/m*3 7.8 C 0 km/h
2362 09-10-2018 04:45:00 7.7 C 7.7 g/m*3 7.7 C 0 km/h
2363 09-10-2018 04:50:00 7.6 C 7.65 g/m*3 7.6 C 0 km/h
2364 09-10-2018 04:55:00 7.6 C 7.65 g/m*3 7.6 C 0 km/h
2365 09-10-2018 05:00:00 7.6 C 7.65 g/m*3 7.6 C 0 km/h
2366 09-10-2018 05:05:00 7.6 C 7.65 g/m*3 7.6 C 0 km/h
2367 09-10-2018 05:10:00 7.6 C 7.65 g/m*3 7.6 C 0 km/h
2368 09-10-2018 05:15:00 7.5 C 7.6 g/m*3 7.5 C 0 km/h
2369 09-10-2018 05:20:00 7.4 C 7.55 g/m*3 7.4 C 0 km/h
2370 09-10-2018 05:25:00 7.3 C 7.51 g/m*3 7.3 C 0 km/h
2371 09-10-2018 05:30:00 7.2 C 7.46 g/m*3 7.2 C 0 km/h
2372 09-10-2018 05:35:00 7.2 C 7.46 g/m*3 7.2 C 0 km/h
2373 09-10-2018 05:40:00 7.2 C 7.46 g/m*3 7.2 C 0 km/h
2374 09-10-2018 05:45:00 7.1 C 7.41 g/m*3 7.1 C 0 km/h
2375 09-10-2018 05:50:00 7.1 C 7.41 g/m*3 7.1 C 0 km/h
Sensor: Nr:Datum:Temp:Abs-Feuchte:Windchill:Wind:
Aussen-T/F 2376 09-10-2018 05:55:00 7.1 C 7.41 g/m*3 7.1 C 0 km/h
2377 09-10-2018 06:00:00 6.9 C 7.31 g/m*3 6.9 C 0 km/h
2378 09-10-2018 06:05:00 6.8 C 7.27 g/m*3 6.8 C 0 km/h
2379 09-10-2018 06:10:00 6.8 C 7.27 g/m*3 6.8 C 0 km/h
2380 09-10-2018 06:15:00 6.8 C 7.27 g/m*3 6.8 C 0 km/h
2381 09-10-2018 06:20:00 6.8 C 7.27 g/m*3 6.8 C 0 km/h
2382 09-10-2018 06:25:00 6.7 C 7.22 g/m*3 6.7 C 0 km/h
2383 09-10-2018 06:30:00 6.7 C 7.22 g/m*3 6.7 C 0 km/h
2384 09-10-2018 06:35:00 6.7 C 7.22 g/m*3 6.7 C 0 km/h
2385 09-10-2018 06:40:00 6.7 C 7.22 g/m*3 6.7 C 0 km/h
2386 09-10-2018 06:45:00 6.8 C 7.34 g/m*3 6.8 C 0 km/h
2387 09-10-2018 06:50:00 6.9 C 7.39 g/m*3 6.9 C 0 km/h
2388 09-10-2018 06:55:00 6.8 C 7.34 g/m*3 6.8 C 0 km/h
2389 09-10-2018 07:00:00 6.7 C 7.29 g/m*3 6.7 C 0 km/h
2390 09-10-2018 07:05:00 6.8 C 7.34 g/m*3 6.8 C 0 km/h
2391 09-10-2018 07:10:00 6.9 C 7.39 g/m*3 6.9 C 0 km/h
2392 09-10-2018 07:15:00 7.1 C 7.49 g/m*3 7.1 C 0 km/h
2393 09-10-2018 07:20:00 7.1 C 7.49 g/m*3 7.1 C 0 km/h
2394 09-10-2018 07:25:00 7 C 7.44 g/m*3 7 C 0 km/h
2395 09-10-2018 07:30:00 6.9 C 7.39 g/m*3 6.9 C 0 km/h
2396 09-10-2018 07:35:00 6.8 C 7.34 g/m*3 6.8 C 0 km/h
2397 09-10-2018 07:40:00 6.8 C 7.34 g/m*3 6.8 C 0 km/h
2398 09-10-2018 07:45:00 6.8 C 7.34 g/m*3 6.8 C 0 km/h
2399 09-10-2018 07:50:00 6.7 C 7.29 g/m*3 6.7 C 0 km/h
2400 09-10-2018 07:55:00 6.7 C 7.29 g/m*3 6.7 C 0 km/h
Sensor: Nr:Datum:Temp:Abs-Feuchte:Windchill:Wind:
Aussen-T/F 2401 09-10-2018 08:00:00 6.8 C 7.34 g/m*3 6.8 C 0 km/h
2402 09-10-2018 08:05:00 6.9 C 7.39 g/m*3 6.9 C 0 km/h
2403 09-10-2018 08:10:00 7 C 7.44 g/m*3 7 C 0 km/h
2404 09-10-2018 08:15:00 7.1 C 7.49 g/m*3 7.1 C 0 km/h
2405 09-10-2018 08:20:00 7.2 C 7.54 g/m*3 7.2 C 0 km/h
2406 09-10-2018 08:25:00 7.2 C 7.54 g/m*3 7.2 C 0 km/h
2407 09-10-2018 08:30:00 7.2 C 7.54 g/m*3 7.2 C 0 km/h
2408 09-10-2018 08:35:00 7.3 C 7.58 g/m*3 7.3 C 0 km/h
2409 09-10-2018 08:40:00 7.3 C 7.58 g/m*3 7.3 C 0 km/h
2410 09-10-2018 08:45:00 7.3 C 7.58 g/m*3 7.3 C 0 km/h
2411 09-10-2018 08:50:00 7.3 C 7.58 g/m*3 7.3 C 0 km/h
2412 09-10-2018 08:55:00 7.3 C 7.58 g/m*3 7.3 C 0 km/h
2413 09-10-2018 09:00:00 7.4 C 7.63 g/m*3 7.4 C 0 km/h
2414 09-10-2018 09:05:00 7.4 C 7.63 g/m*3 7.4 C 0 km/h
2415 09-10-2018 09:10:00 7.5 C 7.68 g/m*3 7.5 C 0 km/h
2416 09-10-2018 09:15:00 7.6 C 7.73 g/m*3 7.6 C 0 km/h
2417 09-10-2018 09:20:00 7.6 C 7.73 g/m*3 7.6 C 0 km/h
2418 09-10-2018 09:25:00 7.6 C 7.73 g/m*3 7.6 C 0 km/h
2419 09-10-2018 09:30:00 7.6 C 7.73 g/m*3 7.6 C 0 km/h
2420 09-10-2018 09:35:00 7.6 C 7.81 g/m*3 7.6 C 0 km/h
2421 09-10-2018 09:40:00 7.7 C 7.78 g/m*3 7.7 C 0 km/h
2422 09-10-2018 09:45:00 7.7 C 7.87 g/m*3 7.7 C 0 km/h
2423 09-10-2018 09:50:00 7.8 C 7.92 g/m*3 7.8 C 0 km/h
2424 09-10-2018 09:55:00 7.8 C 7.92 g/m*3 7.8 C 0 km/h
2425 09-10-2018 10:00:00 7.9 C 7.89 g/m*3 7.9 C 0 km/h
Sensor: Nr:Datum:Temp:Abs-Feuchte:Windchill:Wind:
Aussen-T/F 2426 09-10-2018 10:05:00 8 C 7.94 g/m*3 8 C 0 km/h
2427 09-10-2018 10:10:00 8.1 C 8.07 g/m*3 8.1 C 0 km/h
2428 09-10-2018 10:15:00 8.2 C 8.12 g/m*3 8.2 C 0 km/h
2429 09-10-2018 10:20:00 8.3 C 8.18 g/m*3 8.3 C 0 km/h
2430 09-10-2018 10:25:00 8.4 C 8.23 g/m*3 8.4 C 0 km/h
2431 09-10-2018 10:30:00 8.6 C 8.34 g/m*3 8.6 C 0 km/h
2432 09-10-2018 10:35:00 8.6 C 8.34 g/m*3 8.6 C 0 km/h
2433 09-10-2018 10:40:00 8.7 C 8.39 g/m*3 8.7 C 0 km/h
2434 09-10-2018 10:45:00 8.8 C 8.44 g/m*3 8.8 C 0 km/h
2435 09-10-2018 10:50:00 8.9 C 8.5 g/m*3 8.9 C 0 km/h
2436 09-10-2018 10:55:00 8.9 C 8.5 g/m*3 8.9 C 0 km/h
2437 09-10-2018 11:00:00 9 C 8.55 g/m*3 9 C 0 km/h
2438 09-10-2018 11:05:00 9.1 C 8.61 g/m*3 9.1 C 0 km/h
2439 09-10-2018 11:10:00 9.2 C 8.66 g/m*3 9.2 C 0 km/h
2440 09-10-2018 11:15:00 9.3 C 8.72 g/m*3 9.3 C 0 km/h
2441 09-10-2018 11:20:00 9.4 C 8.77 g/m*3 9.4 C 0 km/h
2442 09-10-2018 11:25:00 9.5 C 8.83 g/m*3 9.5 C 0 km/h
2443 09-10-2018 11:30:00 9.7 C 8.94 g/m*3 9.7 C 0 km/h
2444 09-10-2018 11:35:00 9.8 C 9 g/m*3 9.8 C 0 km/h
2445 09-10-2018 11:40:00 10 C 9.11 g/m*3 10 C 0 km/h
2446 09-10-2018 11:45:00 10.2 C 9.23 g/m*3 10.2 C 0 km/h
2447 09-10-2018 11:50:00 10.3 C 9.29 g/m*3 10.3 C 0 km/h
2448 09-10-2018 11:55:00 10.5 C 9.41 g/m*3 10.5 C 0 km/h
2449 09-10-2018 12:00:00 10.7 C 9.53 g/m*3 10.7 C 0 km/h
2450 09-10-2018 12:05:00 10.8 C 9.59 g/m*3 10.8 C 0 km/h
Sensor: Nr:Datum:Temp:Abs-Feuchte:Windchill:Wind:
Aussen-T/F 2451 09-10-2018 12:10:00 10.9 C 9.65 g/m*3 10.9 C 0 km/h
2452 09-10-2018 12:15:00 11.1 C 9.77 g/m*3 11.1 C 0 km/h
2453 09-10-2018 12:20:00 11.3 C 9.89 g/m*3 11.3 C 0 km/h
2454 09-10-2018 12:25:00 11.4 C 9.96 g/m*3 11.4 C 0 km/h
2455 09-10-2018 12:30:00 11.6 C 10.08 g/m*3 11.6 C 0 km/h
2456 09-10-2018 12:35:00 11.7 C 10.15 g/m*3 11.7 C 0 km/h
2457 09-10-2018 12:40:00 11.9 C 10.27 g/m*3 11.9 C 0 km/h
2458 09-10-2018 12:45:00 12 C 10.34 g/m*3 12 C 0 km/h
2459 09-10-2018 12:50:00 12.1 C 10.4 g/m*3 12.1 C 0 km/h
2460 09-10-2018 12:55:00 12.2 C 10.36 g/m*3 12.2 C 0 km/h
2461 09-10-2018 13:00:00 12.3 C 10.42 g/m*3 12.3 C 0 km/h
2462 09-10-2018 13:05:00 12.4 C 10.49 g/m*3 12.4 C 0 km/h
2463 09-10-2018 13:10:00 12.5 C 10.55 g/m*3 12.5 C 0 km/h
2464 09-10-2018 13:15:00 12.7 C 10.58 g/m*3 12.7 C 0 km/h
2465 09-10-2018 13:20:00 12.8 C 10.64 g/m*3 12.8 C 0 km/h
2466 09-10-2018 13:25:00 13 C 10.77 g/m*3 13 C 0 km/h
2467 09-10-2018 13:30:00 13.2 C 10.91 g/m*3 13.2 C 0 km/h
2468 09-10-2018 13:35:00 13.4 C 10.93 g/m*3 13.4 C 0 km/h
2469 09-10-2018 13:40:00 13.7 C 11.13 g/m*3 13.7 C 0 km/h
2470 09-10-2018 13:45:00 13.9 C 11.15 g/m*3 13.9 C 0 km/h
2471 09-10-2018 13:50:00 14.2 C 11.36 g/m*3 14.2 C 0 km/h
2472 09-10-2018 13:55:00 14.4 C 11.5 g/m*3 14.4 C 0 km/h
2473 09-10-2018 14:00:00 14.7 C 11.71 g/m*3 14.7 C 0 km/h
2474 09-10-2018 14:05:00 14.8 C 11.53 g/m*3 14.8 C 0 km/h
2475 09-10-2018 14:10:00 15.2 C 11.68 g/m*3 15.2 C 0 km/h
Sensor: Nr:Datum:Temp:Abs-Feuchte:Windchill:Wind:
Aussen-T/F 2476 09-10-2018 14:15:00 15.6 C 12.1 g/m*3 15.6 C 0 km/h
2477 09-10-2018 14:20:00 15.8 C 12.11 g/m*3 15.8 C 0 km/h
2478 09-10-2018 14:25:00 16.1 C 12.2 g/m*3 16.1 C 0 km/h
2479 09-10-2018 14:30:00 16.3 C 12.21 g/m*3 16.3 C 0 km/h
2480 09-10-2018 14:35:00 16.4 C 12.28 g/m*3 16.4 C 0 km/h
2481 09-10-2018 14:40:00 16.6 C 12.43 g/m*3 16.6 C 0 km/h
2482 09-10-2018 14:45:00 16.9 C 12.66 g/m*3 16.9 C 0 km/h
2483 09-10-2018 14:50:00 17.1 C 12.66 g/m*3 17.1 C 0 km/h
2484 09-10-2018 14:55:00 17.3 C 12.67 g/m*3 17.3 C 0 km/h
2485 09-10-2018 15:00:00 17.4 C 12.6 g/m*3 17.4 C 0 km/h
2486 09-10-2018 15:05:00 17.5 C 12.67 g/m*3 17.5 C 0 km/h
2487 09-10-2018 15:10:00 17.6 C 12.75 g/m*3 17.6 C 0 km/h
2488 09-10-2018 15:15:00 17.7 C 12.82 g/m*3 17.7 C 0 km/h
2489 09-10-2018 15:20:00 17.8 C 12.9 g/m*3 17.8 C 0 km/h
2490 09-10-2018 15:25:00 17.8 C 12.9 g/m*3 17.8 C 0 km/h
2491 09-10-2018 15:30:00 17.9 C 12.98 g/m*3 17.9 C 0 km/h
2492 09-10-2018 15:35:00 17.9 C 12.98 g/m*3 17.9 C 0 km/h
2493 09-10-2018 15:40:00 18.1 C 13.13 g/m*3 18.1 C 0 km/h
2494 09-10-2018 15:45:00 18.2 C 12.9 g/m*3 18.2 C 0 km/h
2495 09-10-2018 15:50:00 18.4 C 12.9 g/m*3 18.4 C 0 km/h
2496 09-10-2018 15:55:00 18.8 C 13.21 g/m*3 18.8 C 0 km/h
2497 09-10-2018 16:00:00 19.1 C 13.44 g/m*3 19.1 C 0 km/h
2498 09-10-2018 16:05:00 19.2 C 13.19 g/m*3 19.2 C 0 km/h
2499 09-10-2018 16:10:00 19.2 C 12.86 g/m*3 19.2 C 0 km/h
2500 09-10-2018 16:15:00 19.4 C 13.35 g/m*3 19.4 C 0 km/h
Sensor: Nr:Datum:Temp:Abs-Feuchte:Windchill:Wind:
Aussen-T/F 2501 09-10-2018 16:20:00 19.5 C 13.26 g/m*3 19.5 C 0 km/h
2502 09-10-2018 16:25:00 19.6 C 13.34 g/m*3 19.6 C 0 km/h
2503 09-10-2018 16:30:00 19.6 C 13.51 g/m*3 19.6 C 0 km/h
2504 09-10-2018 16:35:00 19.5 C 13.43 g/m*3 19.5 C 0 km/h
2505 09-10-2018 16:40:00 19.4 C 13.35 g/m*3 19.4 C 0 km/h
2506 09-10-2018 16:45:00 19.3 C 13.27 g/m*3 19.3 C 0 km/h
2507 09-10-2018 16:50:00 19.2 C 13.19 g/m*3 19.2 C 0 km/h
2508 09-10-2018 16:55:00 19.2 C 13.36 g/m*3 19.2 C 0 km/h
2509 09-10-2018 17:00:00 19.1 C 13.28 g/m*3 19.1 C 0 km/h
2510 09-10-2018 17:05:00 19.1 C 13.28 g/m*3 19.1 C 0 km/h
2511 09-10-2018 17:10:00 19 C 13.2 g/m*3 19 C 0 km/h
2512 09-10-2018 17:15:00 19 C 13.2 g/m*3 19 C 0 km/h
2513 09-10-2018 17:20:00 18.9 C 13.12 g/m*3 18.9 C 0 km/h
2514 09-10-2018 17:25:00 18.9 C 13.12 g/m*3 18.9 C 0 km/h
2515 09-10-2018 17:30:00 18.9 C 12.96 g/m*3 18.9 C 0 km/h
2516 09-10-2018 17:35:00 18.9 C 13.12 g/m*3 18.9 C 0 km/h
2517 09-10-2018 17:40:00 18.9 C 13.12 g/m*3 18.9 C 0 km/h
2518 09-10-2018 17:45:00 18.9 C 12.96 g/m*3 18.9 C 0 km/h
2519 09-10-2018 17:50:00 19.1 C 13.28 g/m*3 19.1 C 0 km/h
2520 09-10-2018 17:55:00 19.3 C 13.27 g/m*3 19.3 C 0 km/h
2521 09-10-2018 18:00:00 19.4 C 13.18 g/m*3 19.4 C 0 km/h
2522 09-10-2018 18:05:00 19.5 C 13.09 g/m*3 19.5 C 0 km/h
2523 09-10-2018 18:10:00 19.4 C 12.85 g/m*3 19.4 C 0 km/h
2524 09-10-2018 18:15:00 19.3 C 12.77 g/m*3 19.3 C 0 km/h
2525 09-10-2018 18:20:00 19.1 C 12.62 g/m*3 19.1 C 0 km/h
Sensor: Nr:Datum:Temp:Abs-Feuchte:Windchill:Wind:
Aussen-T/F 2526 09-10-2018 18:25:00 18.9 C 12.64 g/m*3 18.9 C 0 km/h
2527 09-10-2018 18:30:00 18.7 C 12.49 g/m*3 18.7 C 0 km/h
2528 09-10-2018 18:35:00 18.4 C 12.43 g/m*3 18.4 C 0 km/h
2529 09-10-2018 18:40:00 18.2 C 12.28 g/m*3 18.2 C 0 km/h
2530 09-10-2018 18:45:00 17.9 C 12.21 g/m*3 17.9 C 0 km/h
2531 09-10-2018 18:50:00 17.7 C 12.22 g/m*3 17.7 C 0 km/h
2532 09-10-2018 18:55:00 17.4 C 12.15 g/m*3 17.4 C 0 km/h
2533 09-10-2018 19:00:00 17.2 C 12.01 g/m*3 17.2 C 0 km/h
2534 09-10-2018 19:05:00 17.1 C 12.08 g/m*3 17.1 C 0 km/h
2535 09-10-2018 19:10:00 17.1 C 12.08 g/m*3 17.1 C 0 km/h
2536 09-10-2018 19:15:00 17 C 12.01 g/m*3 17 C 0 km/h
2537 09-10-2018 19:20:00 16.9 C 11.94 g/m*3 16.9 C 0 km/h
2538 09-10-2018 19:25:00 16.8 C 11.87 g/m*3 16.8 C 0 km/h
2539 09-10-2018 19:30:00 16.8 C 11.87 g/m*3 16.8 C 0 km/h
2540 09-10-2018 19:35:00 16.7 C 11.8 g/m*3 16.7 C 0 km/h
2541 09-10-2018 19:40:00 16.6 C 11.72 g/m*3 16.6 C 0 km/h
2542 09-10-2018 19:45:00 16.5 C 11.65 g/m*3 16.5 C 0 km/h
2543 09-10-2018 19:50:00 16.4 C 11.72 g/m*3 16.4 C 0 km/h
2544 09-10-2018 19:55:00 16.3 C 11.65 g/m*3 16.3 C 0 km/h
2545 09-10-2018 20:00:00 16.3 C 11.65 g/m*3 16.3 C 0 km/h
2546 09-10-2018 20:05:00 16.2 C 11.72 g/m*3 16.2 C 0 km/h
2547 09-10-2018 20:10:00 16.1 C 11.65 g/m*3 16.1 C 0 km/h
2548 09-10-2018 20:15:00 15.9 C 11.51 g/m*3 15.9 C 0 km/h
2549 09-10-2018 20:20:00 15.8 C 11.44 g/m*3 15.8 C 0 km/h
2550 09-10-2018 20:25:00 15.6 C 11.3 g/m*3 15.6 C 0 km/h
Sensor: Nr:Datum:Temp:Abs-Feuchte:Windchill:Wind:
Aussen-T/F 2551 09-10-2018 20:30:00 15.3 C 11.1 g/m*3 15.3 C 0 km/h
2552 09-10-2018 20:35:00 15 C 11.03 g/m*3 15 C 0 km/h
2553 09-10-2018 20:40:00 14.7 C 10.95 g/m*3 14.7 C 0 km/h
2554 09-10-2018 20:45:00 14.5 C 10.82 g/m*3 14.5 C 0 km/h
2555 09-10-2018 20:50:00 14.3 C 10.81 g/m*3 14.3 C 0 km/h
2556 09-10-2018 20:55:00 14.1 C 10.68 g/m*3 14.1 C 0 km/h
2557 09-10-2018 21:00:00 13.9 C 10.67 g/m*3 13.9 C 0 km/h
2558 09-10-2018 21:05:00 13.8 C 10.72 g/m*3 13.8 C 0 km/h
2559 09-10-2018 21:10:00 13.7 C 10.66 g/m*3 13.7 C 0 km/h
2560 09-10-2018 21:15:00 13.7 C 10.78 g/m*3 13.7 C 0 km/h
2561 09-10-2018 21:20:00 13.6 C 10.71 g/m*3 13.6 C 0 km/h
2562 09-10-2018 21:25:00 13.4 C 10.46 g/m*3 13.4 C 0 km/h
2563 09-10-2018 21:30:00 13.3 C 10.51 g/m*3 13.3 C 0 km/h
2564 09-10-2018 21:35:00 13.2 C 10.45 g/m*3 13.2 C 0 km/h
2565 09-10-2018 21:40:00 13.1 C 10.38 g/m*3 13.1 C 0 km/h
2566 09-10-2018 21:45:00 12.9 C 10.26 g/m*3 12.9 C 0 km/h
2567 09-10-2018 21:50:00 12.9 C 10.37 g/m*3 12.9 C 0 km/h
2568 09-10-2018 21:55:00 12.8 C 10.3 g/m*3 12.8 C 0 km/h
2569 09-10-2018 22:00:00 12.7 C 10.24 g/m*3 12.7 C 0 km/h
2570 09-10-2018 22:05:00 12.6 C 10.18 g/m*3 12.6 C 0 km/h
2571 09-10-2018 22:10:00 12.6 C 10.29 g/m*3 12.6 C 0 km/h
2572 09-10-2018 22:15:00 12.7 C 10.35 g/m*3 12.7 C 0 km/h
2573 09-10-2018 22:20:00 12.7 C 10.35 g/m*3 12.7 C 0 km/h
2574 09-10-2018 22:25:00 12.6 C 10.29 g/m*3 12.6 C 0 km/h
2575 09-10-2018 22:30:00 12.5 C 10.22 g/m*3 12.5 C 0 km/h
Sensor: Nr:Datum:Temp:Abs-Feuchte:Windchill:Wind:
Aussen-T/F 2576 09-10-2018 22:35:00 12.4 C 10.16 g/m*3 12.4 C 0 km/h
2577 09-10-2018 22:40:00 12.4 C 10.27 g/m*3 12.4 C 0 km/h
2578 09-10-2018 22:45:00 12.7 C 10.46 g/m*3 12.7 C 0 km/h
2579 09-10-2018 22:50:00 12.5 C 10.22 g/m*3 12.5 C 0 km/h
2580 09-10-2018 22:55:00 12.4 C 10.16 g/m*3 12.4 C 0 km/h
2581 09-10-2018 23:00:00 12.4 C 10.27 g/m*3 12.4 C 0 km/h
2582 09-10-2018 23:05:00 12.2 C 10.04 g/m*3 12.2 C 0 km/h
2583 09-10-2018 23:10:00 11.9 C 9.74 g/m*3 11.9 C 0 km/h
2584 09-10-2018 23:15:00 11.7 C 9.73 g/m*3 11.7 C 0 km/h
2585 09-10-2018 23:20:00 11.7 C 9.73 g/m*3 11.7 C 0 km/h
2586 09-10-2018 23:25:00 11.8 C 9.89 g/m*3 11.8 C 0 km/h
2587 09-10-2018 23:30:00 11.8 C 9.89 g/m*3 11.8 C 0 km/h
2588 09-10-2018 23:35:00 11.8 C 9.89 g/m*3 11.8 C 0 km/h
2589 09-10-2018 23:40:00 11.6 C 9.77 g/m*3 11.6 C 0 km/h
2590 09-10-2018 23:45:00 11.4 C 9.65 g/m*3 11.4 C 0 km/h
2591 09-10-2018 23:50:00 11.2 C 9.43 g/m*3 11.2 C 0 km/h
2592 09-10-2018 23:55:00 11 C 9.31 g/m*3 11 C 0 km/h
2593 10-10-2018 00:00:00 11 C 9.41 g/m*3 11 C 0 km/h
2594 10-10-2018 00:05:00 11.2 C 9.63 g/m*3 11.2 C 0 km/h
2595 10-10-2018 00:10:00 11.2 C 9.63 g/m*3 11.2 C 0 km/h
2596 10-10-2018 00:15:00 11 C 9.41 g/m*3 11 C 0 km/h
2597 10-10-2018 00:20:00 10.8 C 9.29 g/m*3 10.8 C 0 km/h
2598 10-10-2018 00:25:00 10.8 C 9.29 g/m*3 10.8 C 0 km/h
2599 10-10-2018 00:30:00 10.7 C 9.23 g/m*3 10.7 C 0 km/h
2600 10-10-2018 00:35:00 10.6 C 9.17 g/m*3 10.6 C 0 km/h
Sensor: Nr:Datum:Temp:Abs-Feuchte:Windchill:Wind:
Aussen-T/F 2601 10-10-2018 00:40:00 10.6 C 9.17 g/m*3 10.6 C 0 km/h
2602 10-10-2018 00:45:00 10.5 C 9.12 g/m*3 10.5 C 0 km/h
2603 10-10-2018 00:50:00 10.4 C 9.06 g/m*3 10.4 C 0 km/h
2604 10-10-2018 00:55:00 10.3 C 9 g/m*3 10.3 C 0 km/h
2605 10-10-2018 01:00:00 10.2 C 8.95 g/m*3 10.2 C 0 km/h
2606 10-10-2018 01:05:00 10.3 C 9.1 g/m*3 10.3 C 0 km/h
2607 10-10-2018 01:10:00 10.2 C 9.04 g/m*3 10.2 C 0 km/h
2608 10-10-2018 01:15:00 10.2 C 9.04 g/m*3 10.2 C 0 km/h
2609 10-10-2018 01:20:00 10.2 C 9.04 g/m*3 10.2 C 0 km/h
2610 10-10-2018 01:25:00 10.4 C 9.16 g/m*3 10.4 C 0 km/h
2611 10-10-2018 01:30:00 10.5 C 9.31 g/m*3 10.5 C 0 km/h
2612 10-10-2018 01:35:00 10.4 C 9.16 g/m*3 10.4 C 0 km/h
2613 10-10-2018 01:40:00 10.3 C 9.1 g/m*3 10.3 C 0 km/h
2614 10-10-2018 01:45:00 10.3 C 9.1 g/m*3 10.3 C 0 km/h
2615 10-10-2018 01:50:00 10.4 C 9.16 g/m*3 10.4 C 0 km/h
2616 10-10-2018 01:55:00 10.3 C 9.1 g/m*3 10.3 C 0 km/h
2617 10-10-2018 02:00:00 10.2 C 9.04 g/m*3 10.2 C 0 km/h
2618 10-10-2018 02:05:00 9.9 C 8.87 g/m*3 9.9 C 0 km/h
2619 10-10-2018 02:10:00 9.8 C 8.81 g/m*3 9.8 C 0 km/h
2620 10-10-2018 02:15:00 9.9 C 8.87 g/m*3 9.9 C 0 km/h
2621 10-10-2018 02:20:00 9.9 C 8.87 g/m*3 9.9 C 0 km/h
2622 10-10-2018 02:25:00 9.8 C 8.81 g/m*3 9.8 C 0 km/h
2623 10-10-2018 02:30:00 9.7 C 8.76 g/m*3 9.7 C 0 km/h
2624 10-10-2018 02:35:00 9.5 C 8.65 g/m*3 9.5 C 0 km/h
2625 10-10-2018 02:40:00 9.3 C 8.54 g/m*3 9.3 C 0 km/h
Sensor: Nr:Datum:Temp:Abs-Feuchte:Windchill:Wind:
Aussen-T/F 2626 10-10-2018 02:45:00 9.2 C 8.48 g/m*3 9.2 C 0 km/h
2627 10-10-2018 02:50:00 9.2 C 8.48 g/m*3 9.2 C 0 km/h
2628 10-10-2018 02:55:00 9.2 C 8.48 g/m*3 9.2 C 0 km/h
2629 10-10-2018 03:00:00 9.1 C 8.43 g/m*3 9.1 C 0 km/h
2630 10-10-2018 03:05:00 9 C 8.38 g/m*3 9 C 0 km/h
2631 10-10-2018 03:10:00 8.9 C 8.32 g/m*3 8.9 C 0 km/h
2632 10-10-2018 03:15:00 8.9 C 8.32 g/m*3 8.9 C 0 km/h
2633 10-10-2018 03:20:00 8.8 C 8.27 g/m*3 8.8 C 0 km/h
2634 10-10-2018 03:25:00 8.9 C 8.32 g/m*3 8.9 C 0 km/h
2635 10-10-2018 03:30:00 9 C 8.46 g/m*3 9 C 0 km/h
2636 10-10-2018 03:35:00 8.9 C 8.41 g/m*3 8.9 C 0 km/h
2637 10-10-2018 03:40:00 8.7 C 8.22 g/m*3 8.7 C 0 km/h
2638 10-10-2018 03:45:00 8.6 C 8.16 g/m*3 8.6 C 0 km/h
2639 10-10-2018 03:50:00 8.6 C 8.16 g/m*3 8.6 C 0 km/h
2640 10-10-2018 03:55:00 8.5 C 8.11 g/m*3 8.5 C 0 km/h
2641 10-10-2018 04:00:00 8.4 C 8.06 g/m*3 8.4 C 0 km/h
2642 10-10-2018 04:05:00 8.3 C 8.01 g/m*3 8.3 C 0 km/h
2643 10-10-2018 04:10:00 8.3 C 8.01 g/m*3 8.3 C 0 km/h
2644 10-10-2018 04:15:00 8.3 C 8.09 g/m*3 8.3 C 0 km/h
2645 10-10-2018 04:20:00 8.6 C 8.25 g/m*3 8.6 C 0 km/h
2646 10-10-2018 04:25:00 9 C 8.46 g/m*3 9 C 0 km/h
2647 10-10-2018 04:30:00 9.2 C 8.66 g/m*3 9.2 C 0 km/h
2648 10-10-2018 04:35:00 9.3 C 8.72 g/m*3 9.3 C 0 km/h
2649 10-10-2018 04:40:00 9.4 C 8.77 g/m*3 9.4 C 0 km/h
2650 10-10-2018 04:45:00 9.4 C 8.68 g/m*3 9.4 C 0 km/h
Sensor: Nr:Datum:Temp:Abs-Feuchte:Windchill:Wind:
Aussen-T/F 2651 10-10-2018 04:50:00 9.4 C 8.68 g/m*3 9.4 C 0 km/h
2652 10-10-2018 04:55:00 9.4 C 8.68 g/m*3 9.4 C 0 km/h
2653 10-10-2018 05:00:00 9.4 C 8.68 g/m*3 9.4 C 0 km/h
2654 10-10-2018 05:05:00 9.4 C 8.68 g/m*3 9.4 C 0 km/h
2655 10-10-2018 05:10:00 9.4 C 8.68 g/m*3 9.4 C 0 km/h
2656 10-10-2018 05:15:00 9.4 C 8.68 g/m*3 9.4 C 0 km/h
2657 10-10-2018 05:20:00 9.5 C 8.74 g/m*3 9.5 C 0 km/h
2658 10-10-2018 05:25:00 9.6 C 8.79 g/m*3 9.6 C 0 km/h
2659 10-10-2018 05:30:00 9.6 C 8.79 g/m*3 9.6 C 0 km/h
2660 10-10-2018 05:35:00 9.6 C 8.79 g/m*3 9.6 C 0 km/h
2661 10-10-2018 05:40:00 9.6 C 8.79 g/m*3 9.6 C 0 km/h
2662 10-10-2018 05:45:00 9.7 C 8.85 g/m*3 9.7 C 0 km/h
2663 10-10-2018 05:50:00 9.7 C 8.94 g/m*3 9.7 C 0 km/h
2664 10-10-2018 05:55:00 9.7 C 8.94 g/m*3 9.7 C 0 km/h
2665 10-10-2018 06:00:00 9.7 C 8.94 g/m*3 9.7 C 0 km/h
2666 10-10-2018 06:05:00 9.7 C 8.94 g/m*3 9.7 C 0 km/h
2667 10-10-2018 06:10:00 9.7 C 8.94 g/m*3 9.7 C 0 km/h
2668 10-10-2018 06:15:00 9.6 C 8.79 g/m*3 9.6 C 0 km/h
2669 10-10-2018 06:20:00 9.6 C 8.79 g/m*3 9.6 C 0 km/h
2670 10-10-2018 06:25:00 9.6 C 8.79 g/m*3 9.6 C 0 km/h
2671 10-10-2018 06:30:00 9.6 C 8.79 g/m*3 9.6 C 0 km/h
2672 10-10-2018 06:35:00 9.6 C 8.79 g/m*3 9.6 C 0 km/h
2673 10-10-2018 06:40:00 9.6 C 8.79 g/m*3 9.6 C 0 km/h
2674 10-10-2018 06:45:00 9.5 C 8.74 g/m*3 9.5 C 0 km/h
2675 10-10-2018 06:50:00 9.4 C 8.77 g/m*3 9.4 C 0 km/h
Sensor: Nr:Datum:Temp:Abs-Feuchte:Windchill:Wind:
Aussen-T/F 2676 10-10-2018 06:55:00 9.4 C 8.77 g/m*3 9.4 C 0 km/h
2677 10-10-2018 07:00:00 9.3 C 8.72 g/m*3 9.3 C 0 km/h
2678 10-10-2018 07:05:00 9.3 C 8.72 g/m*3 9.3 C 0 km/h
2679 10-10-2018 07:10:00 9.3 C 8.72 g/m*3 9.3 C 0 km/h
2680 10-10-2018 07:15:00 9.3 C 8.72 g/m*3 9.3 C 0 km/h
2681 10-10-2018 07:20:00 9.3 C 8.72 g/m*3 9.3 C 0 km/h
2682 10-10-2018 07:25:00 9.3 C 8.72 g/m*3 9.3 C 0 km/h
2683 10-10-2018 07:30:00 9.3 C 8.72 g/m*3 9.3 C 0 km/h
2684 10-10-2018 07:35:00 9.3 C 8.72 g/m*3 9.3 C 0 km/h
2685 10-10-2018 07:40:00 9.3 C 8.72 g/m*3 9.3 C 0 km/h
2686 10-10-2018 07:45:00 9.3 C 8.72 g/m*3 9.3 C 0 km/h
2687 10-10-2018 07:50:00 9.4 C 8.77 g/m*3 9.4 C 0 km/h
2688 10-10-2018 07:55:00 9.4 C 8.77 g/m*3 9.4 C 0 km/h
2689 10-10-2018 08:00:00 9.4 C 8.77 g/m*3 9.4 C 0 km/h
2690 10-10-2018 08:05:00 9.4 C 8.77 g/m*3 9.4 C 0 km/h
2691 10-10-2018 08:10:00 9.4 C 8.77 g/m*3 9.4 C 0 km/h
2692 10-10-2018 08:15:00 9.4 C 8.77 g/m*3 9.4 C 0 km/h
2693 10-10-2018 08:20:00 9.4 C 8.77 g/m*3 9.4 C 0 km/h
2694 10-10-2018 08:25:00 9.4 C 8.77 g/m*3 9.4 C 0 km/h
2695 10-10-2018 08:30:00 9.5 C 8.83 g/m*3 9.5 C 0 km/h
2696 10-10-2018 08:35:00 9.6 C 8.89 g/m*3 9.6 C 0 km/h
2697 10-10-2018 08:40:00 9.6 C 8.89 g/m*3 9.6 C 0 km/h
2698 10-10-2018 08:45:00 9.7 C 8.94 g/m*3 9.7 C 0 km/h
2699 10-10-2018 08:50:00 9.8 C 9 g/m*3 9.8 C 0 km/h
2700 10-10-2018 08:55:00 9.9 C 9.06 g/m*3 9.9 C 0 km/h
Sensor: Nr:Datum:Temp:Abs-Feuchte:Windchill:Wind:
Aussen-T/F 2701 10-10-2018 09:00:00 9.9 C 9.06 g/m*3 9.9 C 0 km/h
2702 10-10-2018 09:05:00 9.9 C 9.06 g/m*3 9.9 C 0 km/h
2703 10-10-2018 09:10:00 9.9 C 9.06 g/m*3 9.9 C 0 km/h
2704 10-10-2018 09:15:00 9.8 C 9 g/m*3 9.8 C 0 km/h
2705 10-10-2018 09:20:00 9.8 C 9 g/m*3 9.8 C 0 km/h
2706 10-10-2018 09:25:00 9.7 C 8.94 g/m*3 9.7 C 0 km/h
2707 10-10-2018 09:30:00 9.7 C 8.94 g/m*3 9.7 C 0 km/h
2708 10-10-2018 09:35:00 9.8 C 9 g/m*3 9.8 C 0 km/h
2709 10-10-2018 09:40:00 9.8 C 9 g/m*3 9.8 C 0 km/h
2710 10-10-2018 09:45:00 9.9 C 9.06 g/m*3 9.9 C 0 km/h
2711 10-10-2018 09:50:00 9.9 C 9.06 g/m*3 9.9 C 0 km/h
2712 10-10-2018 09:55:00 10 C 9.11 g/m*3 10 C 0 km/h
2713 10-10-2018 10:00:00 10.1 C 9.17 g/m*3 10.1 C 0 km/h
2714 10-10-2018 10:05:00 10.2 C 9.23 g/m*3 10.2 C 0 km/h
2715 10-10-2018 10:10:00 10.3 C 9.29 g/m*3 10.3 C 0 km/h
2716 10-10-2018 10:15:00 10.4 C 9.35 g/m*3 10.4 C 0 km/h
2717 10-10-2018 10:20:00 10.6 C 9.47 g/m*3 10.6 C 0 km/h
2718 10-10-2018 10:25:00 10.6 C 9.47 g/m*3 10.6 C 0 km/h
2719 10-10-2018 10:30:00 10.8 C 9.59 g/m*3 10.8 C 0 km/h
2720 10-10-2018 10:35:00 10.8 C 9.59 g/m*3 10.8 C 0 km/h
2721 10-10-2018 10:40:00 10.9 C 9.65 g/m*3 10.9 C 0 km/h
2722 10-10-2018 10:45:00 11.1 C 9.77 g/m*3 11.1 C 0 km/h
2723 10-10-2018 10:50:00 11.1 C 9.77 g/m*3 11.1 C 0 km/h
2724 10-10-2018 10:55:00 11.2 C 9.93 g/m*3 11.2 C 0 km/h
2725 10-10-2018 11:00:00 11.2 C 9.83 g/m*3 11.2 C 0 km/h
Sensor: Nr:Datum:Temp:Abs-Feuchte:Windchill:Wind:
Aussen-T/F 2726 10-10-2018 11:05:00 11.3 C 9.89 g/m*3 11.3 C 0 km/h
2727 10-10-2018 11:10:00 11.4 C 9.96 g/m*3 11.4 C 0 km/h
2728 10-10-2018 11:15:00 11.4 C 9.96 g/m*3 11.4 C 0 km/h
2729 10-10-2018 11:20:00 11.6 C 10.19 g/m*3 11.6 C 0 km/h
2730 10-10-2018 11:25:00 11.6 C 10.19 g/m*3 11.6 C 0 km/h
2731 10-10-2018 11:30:00 11.7 C 10.15 g/m*3 11.7 C 0 km/h
2732 10-10-2018 11:35:00 11.8 C 10.21 g/m*3 11.8 C 0 km/h
2733 10-10-2018 11:40:00 11.8 C 10.21 g/m*3 11.8 C 0 km/h
2734 10-10-2018 11:45:00 11.8 C 10.21 g/m*3 11.8 C 0 km/h
2735 10-10-2018 11:50:00 11.9 C 10.38 g/m*3 11.9 C 0 km/h
2736 10-10-2018 11:55:00 12.1 C 10.4 g/m*3 12.1 C 0 km/h
2737 10-10-2018 12:00:00 12.1 C 10.4 g/m*3 12.1 C 0 km/h
2738 10-10-2018 12:05:00 12.2 C 10.47 g/m*3 12.2 C 0 km/h
2739 10-10-2018 12:10:00 12.3 C 10.64 g/m*3 12.3 C 0 km/h
2740 10-10-2018 12:15:00 12.3 C 10.64 g/m*3 12.3 C 0 km/h
2741 10-10-2018 12:20:00 12.3 C 10.64 g/m*3 12.3 C 0 km/h
2742 10-10-2018 12:25:00 12.4 C 10.6 g/m*3 12.4 C 0 km/h
2743 10-10-2018 12:30:00 12.6 C 10.73 g/m*3 12.6 C 0 km/h
2744 10-10-2018 12:35:00 12.7 C 10.91 g/m*3 12.7 C 0 km/h
2745 10-10-2018 12:40:00 12.8 C 10.98 g/m*3 12.8 C 0 km/h
2746 10-10-2018 12:45:00 13 C 11.11 g/m*3 13 C 0 km/h
2747 10-10-2018 12:50:00 13.2 C 11.25 g/m*3 13.2 C 0 km/h
2748 10-10-2018 12:55:00 13.4 C 11.39 g/m*3 13.4 C 0 km/h
2749 10-10-2018 13:00:00 13.7 C 11.6 g/m*3 13.7 C 0 km/h
2750 10-10-2018 13:05:00 14.1 C 11.89 g/m*3 14.1 C 0 km/h
Sensor: Nr:Datum:Temp:Abs-Feuchte:Windchill:Wind:
Aussen-T/F 2751 10-10-2018 13:10:00 14.3 C 12.04 g/m*3 14.3 C 0 km/h
2752 10-10-2018 13:15:00 14.4 C 12.11 g/m*3 14.4 C 0 km/h
2753 10-10-2018 13:20:00 14.5 C 12.19 g/m*3 14.5 C 0 km/h
2754 10-10-2018 13:25:00 14.6 C 12.26 g/m*3 14.6 C 0 km/h
2755 10-10-2018 13:30:00 14.8 C 12.41 g/m*3 14.8 C 0 km/h
2756 10-10-2018 13:35:00 14.9 C 12.49 g/m*3 14.9 C 0 km/h
2757 10-10-2018 13:40:00 15.1 C 12.64 g/m*3 15.1 C 0 km/h
2758 10-10-2018 13:45:00 15.3 C 12.8 g/m*3 15.3 C 0 km/h
2759 10-10-2018 13:50:00 15.5 C 12.95 g/m*3 15.5 C 0 km/h
2760 10-10-2018 13:55:00 15.7 C 13.11 g/m*3 15.7 C 0 km/h
2761 10-10-2018 14:00:00 15.8 C 13.19 g/m*3 15.8 C 0 km/h
2762 10-10-2018 14:05:00 15.9 C 13.27 g/m*3 15.9 C 4.8 km/h
2763 10-10-2018 14:10:00 16 C 13.35 g/m*3 16 C 1.6 km/h
2764 10-10-2018 14:15:00 16.3 C 13.6 g/m*3 16.3 C 0 km/h
2765 10-10-2018 14:20:00 16.6 C 13.84 g/m*3 16.6 C 0 km/h
2766 10-10-2018 14:25:00 16.6 C 13.84 g/m*3 16.6 C 3.2 km/h
2767 10-10-2018 14:30:00 16.7 C 13.79 g/m*3 16.7 C 3.2 km/h
2768 10-10-2018 14:35:00 16.9 C 13.52 g/m*3 16.9 C 4.8 km/h
2769 10-10-2018 14:40:00 17.3 C 13.7 g/m*3 17.3 C 1.6 km/h
2770 10-10-2018 14:45:00 17.6 C 13.65 g/m*3 17.6 C 1.6 km/h
2771 10-10-2018 14:50:00 17.8 C 13.66 g/m*3 17.8 C 1.6 km/h
2772 10-10-2018 14:55:00 18.1 C 13.44 g/m*3 18.1 C 4.8 km/h
2773 10-10-2018 15:00:00 18.2 C 13.52 g/m*3 18.2 C 3.2 km/h
2774 10-10-2018 15:05:00 18.3 C 12.82 g/m*3 18.3 C 3.2 km/h
2775 10-10-2018 15:10:00 18.6 C 12.89 g/m*3 18.6 C 1.6 km/h
Sensor: Nr:Datum:Temp:Abs-Feuchte:Windchill:Wind:
Aussen-T/F 2776 10-10-2018 15:15:00 18.9 C 12.8 g/m*3 18.9 C 0 km/h
2777 10-10-2018 15:20:00 19.2 C 12.86 g/m*3 19.2 C 0 km/h
2778 10-10-2018 15:25:00 19.4 C 13.01 g/m*3 19.4 C 3.2 km/h
2779 10-10-2018 15:30:00 19.7 C 12.57 g/m*3 19.7 C 12.9 km/h
2780 10-10-2018 15:35:00 19.8 C 12.47 g/m*3 19.8 C 8.1 km/h
2781 10-10-2018 15:40:00 20.1 C 12.34 g/m*3 20.1 C 12.9 km/h
2782 10-10-2018 15:45:00 20.4 C 12.56 g/m*3 20.4 C 8.1 km/h
2783 10-10-2018 15:50:00 20.7 C 12.42 g/m*3 20.7 C 8.1 km/h
2784 10-10-2018 15:55:00 20.9 C 12.38 g/m*3 20.9 C 9.7 km/h
2785 10-10-2018 16:00:00 21.1 C 12.53 g/m*3 21.1 C 11.3 km/h
2786 10-10-2018 16:05:00 21.2 C 12.6 g/m*3 21.2 C 9.7 km/h
2787 10-10-2018 16:10:00 21.2 C 12.42 g/m*3 21.2 C 9.7 km/h
2788 10-10-2018 16:15:00 21.2 C 12.97 g/m*3 21.2 C 3.2 km/h
2789 10-10-2018 16:20:00 21.1 C 12.53 g/m*3 21.1 C 6.4 km/h
2790 10-10-2018 16:25:00 21.1 C 12.71 g/m*3 21.1 C 4.8 km/h
2791 10-10-2018 16:30:00 21 C 13.01 g/m*3 21 C 3.2 km/h
2792 10-10-2018 16:35:00 20.9 C 13.11 g/m*3 20.9 C 3.2 km/h
2793 10-10-2018 16:40:00 20.7 C 13.14 g/m*3 20.7 C 3.2 km/h
2794 10-10-2018 16:45:00 20.4 C 13.09 g/m*3 20.4 C 0 km/h
2795 10-10-2018 16:50:00 20.3 C 12.49 g/m*3 20.3 C 8.1 km/h
2796 10-10-2018 16:55:00 20.5 C 12.81 g/m*3 20.5 C 1.6 km/h
2797 10-10-2018 17:00:00 20.4 C 13.09 g/m*3 20.4 C 1.6 km/h
2798 10-10-2018 17:05:00 20.3 C 12.66 g/m*3 20.3 C 3.2 km/h
2799 10-10-2018 17:10:00 20.3 C 12.84 g/m*3 20.3 C 4.8 km/h
2800 10-10-2018 17:15:00 20.2 C 13.11 g/m*3 20.2 C 1.6 km/h
Sensor: Nr:Datum:Temp:Abs-Feuchte:Windchill:Wind:
Aussen-T/F 2801 10-10-2018 17:20:00 20.1 C 12.17 g/m*3 20.1 C 3.2 km/h
2802 10-10-2018 17:25:00 20.2 C 13.11 g/m*3 20.2 C 0 km/h
2803 10-10-2018 17:30:00 19.9 C 12.89 g/m*3 19.9 C 0 km/h
2804 10-10-2018 17:35:00 19.7 C 12.91 g/m*3 19.7 C 0 km/h
2805 10-10-2018 17:40:00 19.4 C 12.68 g/m*3 19.4 C 0 km/h
2806 10-10-2018 17:45:00 19.3 C 12.77 g/m*3 19.3 C 0 km/h
2807 10-10-2018 17:50:00 19.2 C 12.7 g/m*3 19.2 C 0 km/h
2808 10-10-2018 17:55:00 19.2 C 12.7 g/m*3 19.2 C 0 km/h
2809 10-10-2018 18:00:00 19.2 C 12.86 g/m*3 19.2 C 0 km/h
2810 10-10-2018 18:05:00 19.2 C 12.7 g/m*3 19.2 C 0 km/h
2811 10-10-2018 18:10:00 19.2 C 12.7 g/m*3 19.2 C 0 km/h
2812 10-10-2018 18:15:00 19.1 C 12.62 g/m*3 19.1 C 0 km/h
2813 10-10-2018 18:20:00 18.9 C 12.47 g/m*3 18.9 C 0 km/h
2814 10-10-2018 18:25:00 18.7 C 12.49 g/m*3 18.7 C 0 km/h
2815 10-10-2018 18:30:00 18.5 C 12.34 g/m*3 18.5 C 0 km/h
2816 10-10-2018 18:35:00 18.3 C 12.2 g/m*3 18.3 C 0 km/h
2817 10-10-2018 18:40:00 18.1 C 12.21 g/m*3 18.1 C 0 km/h
2818 10-10-2018 18:45:00 17.8 C 11.99 g/m*3 17.8 C 0 km/h
2819 10-10-2018 18:50:00 17.6 C 12 g/m*3 17.6 C 0 km/h
2820 10-10-2018 18:55:00 17.4 C 11.86 g/m*3 17.4 C 0 km/h
2821 10-10-2018 19:00:00 17.3 C 11.93 g/m*3 17.3 C 0 km/h
2822 10-10-2018 19:05:00 17.2 C 11.86 g/m*3 17.2 C 0 km/h
2823 10-10-2018 19:10:00 17 C 11.72 g/m*3 17 C 0 km/h
2824 10-10-2018 19:15:00 16.9 C 11.65 g/m*3 16.9 C 0 km/h
2825 10-10-2018 19:20:00 16.7 C 11.51 g/m*3 16.7 C 0 km/h
Sensor: Nr:Datum:Temp:Abs-Feuchte:Windchill:Wind:
Aussen-T/F 2826 10-10-2018 19:25:00 16.6 C 11.58 g/m*3 16.6 C 0 km/h
2827 10-10-2018 19:30:00 16.4 C 11.45 g/m*3 16.4 C 0 km/h
2828 10-10-2018 19:35:00 16.3 C 11.52 g/m*3 16.3 C 0 km/h
2829 10-10-2018 19:40:00 16.2 C 11.45 g/m*3 16.2 C 0 km/h
2830 10-10-2018 19:45:00 16.2 C 11.45 g/m*3 16.2 C 0 km/h
2831 10-10-2018 19:50:00 16.1 C 11.38 g/m*3 16.1 C 0 km/h
2832 10-10-2018 19:55:00 16 C 11.31 g/m*3 16 C 0 km/h
2833 10-10-2018 20:00:00 15.9 C 11.24 g/m*3 15.9 C 0 km/h
2834 10-10-2018 20:05:00 15.9 C 11.38 g/m*3 15.9 C 0 km/h
2835 10-10-2018 20:10:00 15.8 C 11.31 g/m*3 15.8 C 0 km/h
2836 10-10-2018 20:15:00 15.8 C 11.31 g/m*3 15.8 C 0 km/h
2837 10-10-2018 20:20:00 15.8 C 11.31 g/m*3 15.8 C 0 km/h
2838 10-10-2018 20:25:00 15.8 C 11.31 g/m*3 15.8 C 0 km/h
2839 10-10-2018 20:30:00 15.7 C 11.24 g/m*3 15.7 C 0 km/h
2840 10-10-2018 20:35:00 15.7 C 11.24 g/m*3 15.7 C 0 km/h
2841 10-10-2018 20:40:00 15.6 C 11.17 g/m*3 15.6 C 0 km/h
2842 10-10-2018 20:45:00 15.4 C 11.04 g/m*3 15.4 C 0 km/h
2843 10-10-2018 20:50:00 15.3 C 10.97 g/m*3 15.3 C 0 km/h
2844 10-10-2018 20:55:00 15.2 C 11.03 g/m*3 15.2 C 0 km/h
2845 10-10-2018 21:00:00 15.1 C 10.97 g/m*3 15.1 C 0 km/h
2846 10-10-2018 21:05:00 15.1 C 10.97 g/m*3 15.1 C 0 km/h
2847 10-10-2018 21:10:00 15 C 11.03 g/m*3 15 C 0 km/h
2848 10-10-2018 21:15:00 14.9 C 10.96 g/m*3 14.9 C 0 km/h
2849 10-10-2018 21:20:00 14.9 C 10.96 g/m*3 14.9 C 0 km/h
2850 10-10-2018 21:25:00 14.9 C 10.96 g/m*3 14.9 C 0 km/h
Sensor: Nr:Datum:Temp:Abs-Feuchte:Windchill:Wind:
Aussen-T/F 2851 10-10-2018 21:30:00 14.9 C 10.96 g/m*3 14.9 C 0 km/h
2852 10-10-2018 21:35:00 14.8 C 10.89 g/m*3 14.8 C 0 km/h
2853 10-10-2018 21:40:00 14.8 C 11.02 g/m*3 14.8 C 0 km/h
2854 10-10-2018 21:45:00 14.8 C 11.02 g/m*3 14.8 C 0 km/h
2855 10-10-2018 21:50:00 14.8 C 10.89 g/m*3 14.8 C 0 km/h
2856 10-10-2018 21:55:00 14.9 C 10.96 g/m*3 14.9 C 0 km/h
2857 10-10-2018 22:00:00 14.9 C 10.96 g/m*3 14.9 C 0 km/h
2858 10-10-2018 22:05:00 14.9 C 10.96 g/m*3 14.9 C 0 km/h
2859 10-10-2018 22:10:00 14.9 C 10.96 g/m*3 14.9 C 0 km/h
2860 10-10-2018 22:15:00 14.8 C 10.89 g/m*3 14.8 C 0 km/h
2861 10-10-2018 22:20:00 14.8 C 10.89 g/m*3 14.8 C 0 km/h
2862 10-10-2018 22:25:00 14.7 C 10.83 g/m*3 14.7 C 0 km/h
2863 10-10-2018 22:30:00 14.6 C 10.76 g/m*3 14.6 C 0 km/h
2864 10-10-2018 22:35:00 14.6 C 10.89 g/m*3 14.6 C 0 km/h
2865 10-10-2018 22:40:00 14.6 C 10.89 g/m*3 14.6 C 0 km/h
2866 10-10-2018 22:45:00 14.5 C 10.82 g/m*3 14.5 C 0 km/h
2867 10-10-2018 22:50:00 14.4 C 10.75 g/m*3 14.4 C 0 km/h
2868 10-10-2018 22:55:00 14.4 C 10.75 g/m*3 14.4 C 0 km/h
2869 10-10-2018 23:00:00 14.3 C 10.69 g/m*3 14.3 C 0 km/h
2870 10-10-2018 23:05:00 14.2 C 10.62 g/m*3 14.2 C 0 km/h
2871 10-10-2018 23:10:00 14.2 C 10.62 g/m*3 14.2 C 0 km/h
2872 10-10-2018 23:15:00 14.1 C 10.56 g/m*3 14.1 C 0 km/h
2873 10-10-2018 23:20:00 14 C 10.49 g/m*3 14 C 1.6 km/h
2874 10-10-2018 23:25:00 13.9 C 10.43 g/m*3 13.9 C 0 km/h
2875 10-10-2018 23:30:00 13.8 C 10.37 g/m*3 13.8 C 0 km/h
Sensor: Nr:Datum:Temp:Abs-Feuchte:Windchill:Wind:
Aussen-T/F 2876 10-10-2018 23:35:00 13.7 C 10.42 g/m*3 13.7 C 0 km/h
2877 10-10-2018 23:40:00 13.6 C 10.24 g/m*3 13.6 C 0 km/h
2878 10-10-2018 23:45:00 13.4 C 10.23 g/m*3 13.4 C 0 km/h
2879 10-10-2018 23:50:00 13.3 C 10.17 g/m*3 13.3 C 1.6 km/h
2880 10-10-2018 23:55:00 13.1 C 10.04 g/m*3 13.1 C 0 km/h
2881 11-10-2018 00:00:00 13.1 C 10.27 g/m*3 13.1 C 0 km/h
2882 11-10-2018 00:05:00 13 C 10.21 g/m*3 13 C 0 km/h
2883 11-10-2018 00:10:00 12.9 C 10.14 g/m*3 12.9 C 0 km/h
2884 11-10-2018 00:15:00 12.8 C 10.08 g/m*3 12.8 C 0 km/h
2885 11-10-2018 00:20:00 12.8 C 10.08 g/m*3 12.8 C 0 km/h
2886 11-10-2018 00:25:00 12.7 C 10.02 g/m*3 12.7 C 0 km/h
2887 11-10-2018 00:30:00 12.4 C 9.83 g/m*3 12.4 C 0 km/h
2888 11-10-2018 00:35:00 12.4 C 9.83 g/m*3 12.4 C 0 km/h
2889 11-10-2018 00:40:00 12.3 C 9.77 g/m*3 12.3 C 0 km/h
2890 11-10-2018 00:45:00 12.2 C 9.82 g/m*3 12.2 C 0 km/h
2891 11-10-2018 00:50:00 12.2 C 9.82 g/m*3 12.2 C 0 km/h
2892 11-10-2018 00:55:00 12.1 C 9.76 g/m*3 12.1 C 0 km/h
2893 11-10-2018 01:00:00 12.1 C 9.87 g/m*3 12.1 C 0 km/h
2894 11-10-2018 01:05:00 12.1 C 9.87 g/m*3 12.1 C 0 km/h
2895 11-10-2018 01:10:00 11.9 C 9.64 g/m*3 11.9 C 0 km/h
2896 11-10-2018 01:15:00 11.8 C 9.68 g/m*3 11.8 C 0 km/h
2897 11-10-2018 01:20:00 11.8 C 9.68 g/m*3 11.8 C 0 km/h
2898 11-10-2018 01:25:00 11.8 C 9.79 g/m*3 11.8 C 0 km/h
2899 11-10-2018 01:30:00 11.7 C 9.62 g/m*3 11.7 C 0 km/h
2900 11-10-2018 01:35:00 11.7 C 9.62 g/m*3 11.7 C 0 km/h
Sensor: Nr:Datum:Temp:Abs-Feuchte:Windchill:Wind:
Aussen-T/F 2901 11-10-2018 01:40:00 11.7 C 9.73 g/m*3 11.7 C 0 km/h
2902 11-10-2018 01:45:00 11.6 C 9.56 g/m*3 11.6 C 0 km/h
2903 11-10-2018 01:50:00 11.4 C 9.44 g/m*3 11.4 C 0 km/h
2904 11-10-2018 01:55:00 11.3 C 9.38 g/m*3 11.3 C 1.6 km/h
2905 11-10-2018 02:00:00 11.2 C 9.43 g/m*3 11.2 C 1.6 km/h
2906 11-10-2018 02:05:00 11.3 C 9.49 g/m*3 11.3 C 1.6 km/h
2907 11-10-2018 02:10:00 11.4 C 9.65 g/m*3 11.4 C 3.2 km/h
2908 11-10-2018 02:15:00 11.5 C 9.71 g/m*3 11.5 C 1.6 km/h
2909 11-10-2018 02:20:00 11.6 C 9.77 g/m*3 11.6 C 3.2 km/h
2910 11-10-2018 02:25:00 11.7 C 9.83 g/m*3 11.7 C 8.1 km/h
2911 11-10-2018 02:30:00 11.7 C 9.83 g/m*3 11.7 C 0 km/h
2912 11-10-2018 02:35:00 11.7 C 9.83 g/m*3 11.7 C 1.6 km/h
2913 11-10-2018 02:40:00 11.7 C 9.83 g/m*3 11.7 C 0 km/h
2914 11-10-2018 02:45:00 11.7 C 9.73 g/m*3 11.7 C 0 km/h
2915 11-10-2018 02:50:00 11.6 C 9.67 g/m*3 11.6 C 0 km/h
2916 11-10-2018 02:55:00 11.4 C 9.55 g/m*3 11.4 C 3.2 km/h
2917 11-10-2018 03:00:00 11.3 C 9.49 g/m*3 11.3 C 0 km/h
2918 11-10-2018 03:05:00 11.2 C 9.43 g/m*3 11.2 C 0 km/h
2919 11-10-2018 03:10:00 11.1 C 9.37 g/m*3 11.1 C 0 km/h
2920 11-10-2018 03:15:00 11.1 C 9.37 g/m*3 11.1 C 0 km/h
2921 11-10-2018 03:20:00 11.1 C 9.37 g/m*3 11.1 C 0 km/h
2922 11-10-2018 03:25:00 11.1 C 9.47 g/m*3 11.1 C 0 km/h
2923 11-10-2018 03:30:00 10.9 C 9.25 g/m*3 10.9 C 0 km/h
2924 11-10-2018 03:35:00 10.9 C 9.25 g/m*3 10.9 C 0 km/h
2925 11-10-2018 03:40:00 10.8 C 9.19 g/m*3 10.8 C 0 km/h
Sensor: Nr:Datum:Temp:Abs-Feuchte:Windchill:Wind:
Aussen-T/F 2926 11-10-2018 03:45:00 10.7 C 9.13 g/m*3 10.7 C 0 km/h
2927 11-10-2018 03:50:00 10.6 C 9.08 g/m*3 10.6 C 0 km/h
2928 11-10-2018 03:55:00 10.4 C 9.06 g/m*3 10.4 C 1.6 km/h
2929 11-10-2018 04:00:00 10.4 C 9.06 g/m*3 10.4 C 0 km/h
2930 11-10-2018 04:05:00 10.6 C 9.17 g/m*3 10.6 C 3.2 km/h
2931 11-10-2018 04:10:00 10.6 C 9.17 g/m*3 10.6 C 0 km/h
2932 11-10-2018 04:15:00 10.4 C 9.06 g/m*3 10.4 C 0 km/h
2933 11-10-2018 04:20:00 10.4 C 9.06 g/m*3 10.4 C 0 km/h
2934 11-10-2018 04:25:00 10.3 C 9 g/m*3 10.3 C 0 km/h
2935 11-10-2018 04:30:00 10.4 C 9.16 g/m*3 10.4 C 0 km/h
2936 11-10-2018 04:35:00 10.3 C 9.1 g/m*3 10.3 C 0 km/h
2937 11-10-2018 04:40:00 10.3 C 9 g/m*3 10.3 C 0 km/h
2938 11-10-2018 04:45:00 10.3 C 9.1 g/m*3 10.3 C 0 km/h
2939 11-10-2018 04:50:00 10.2 C 8.95 g/m*3 10.2 C 0 km/h
2940 11-10-2018 04:55:00 10.2 C 8.95 g/m*3 10.2 C 0 km/h
2941 11-10-2018 05:00:00 10 C 8.83 g/m*3 10 C 0 km/h
2942 11-10-2018 05:05:00 9.8 C 8.72 g/m*3 9.8 C 0 km/h
2943 11-10-2018 05:10:00 9.8 C 8.72 g/m*3 9.8 C 0 km/h
2944 11-10-2018 05:15:00 9.8 C 8.72 g/m*3 9.8 C 0 km/h
2945 11-10-2018 05:20:00 9.8 C 8.81 g/m*3 9.8 C 0 km/h
2946 11-10-2018 05:25:00 9.8 C 8.81 g/m*3 9.8 C 0 km/h
2947 11-10-2018 05:30:00 9.7 C 8.67 g/m*3 9.7 C 0 km/h
2948 11-10-2018 05:35:00 9.6 C 8.7 g/m*3 9.6 C 0 km/h
2949 11-10-2018 05:40:00 9.7 C 8.76 g/m*3 9.7 C 0 km/h
2950 11-10-2018 05:45:00 9.6 C 8.7 g/m*3 9.6 C 0 km/h
Sensor: Nr:Datum:Temp:Abs-Feuchte:Windchill:Wind:
Aussen-T/F 2951 11-10-2018 05:50:00 9.5 C 8.65 g/m*3 9.5 C 0 km/h
2952 11-10-2018 05:55:00 9.3 C 8.54 g/m*3 9.3 C 0 km/h
2953 11-10-2018 06:00:00 9.2 C 8.39 g/m*3 9.2 C 0 km/h
2954 11-10-2018 06:05:00 9.1 C 8.34 g/m*3 9.1 C 0 km/h
2955 11-10-2018 06:10:00 9 C 8.38 g/m*3 9 C 0 km/h
2956 11-10-2018 06:15:00 8.9 C 8.32 g/m*3 8.9 C 0 km/h
2957 11-10-2018 06:20:00 8.9 C 8.32 g/m*3 8.9 C 0 km/h
2958 11-10-2018 06:25:00 9 C 8.38 g/m*3 9 C 0 km/h
2959 11-10-2018 06:30:00 9.1 C 8.52 g/m*3 9.1 C 0 km/h
2960 11-10-2018 06:35:00 9.2 C 8.57 g/m*3 9.2 C 0 km/h
2961 11-10-2018 06:40:00 9.2 C 8.57 g/m*3 9.2 C 0 km/h
2962 11-10-2018 06:45:00 9.1 C 8.43 g/m*3 9.1 C 0 km/h
2963 11-10-2018 06:50:00 9 C 8.38 g/m*3 9 C 0 km/h
2964 11-10-2018 06:55:00 8.9 C 8.32 g/m*3 8.9 C 0 km/h
2965 11-10-2018 07:00:00 8.9 C 8.32 g/m*3 8.9 C 0 km/h
2966 11-10-2018 07:05:00 8.9 C 8.32 g/m*3 8.9 C 0 km/h
2967 11-10-2018 07:10:00 8.9 C 8.32 g/m*3 8.9 C 0 km/h
2968 11-10-2018 07:15:00 8.9 C 8.41 g/m*3 8.9 C 0 km/h
2969 11-10-2018 07:20:00 8.9 C 8.41 g/m*3 8.9 C 0 km/h
2970 11-10-2018 07:25:00 8.8 C 8.36 g/m*3 8.8 C 0 km/h
2971 11-10-2018 07:30:00 8.8 C 8.27 g/m*3 8.8 C 0 km/h
2972 11-10-2018 07:35:00 8.7 C 8.22 g/m*3 8.7 C 0 km/h
2973 11-10-2018 07:40:00 8.7 C 8.22 g/m*3 8.7 C 0 km/h
2974 11-10-2018 07:45:00 8.6 C 8.16 g/m*3 8.6 C 0 km/h
2975 11-10-2018 07:50:00 8.7 C 8.3 g/m*3 8.7 C 0 km/h
Sensor: Nr:Datum:Temp:Abs-Feuchte:Windchill:Wind:
Aussen-T/F 2976 11-10-2018 07:55:00 8.7 C 8.22 g/m*3 8.7 C 0 km/h
2977 11-10-2018 08:00:00 8.6 C 8.25 g/m*3 8.6 C 0 km/h
2978 11-10-2018 08:05:00 8.8 C 8.36 g/m*3 8.8 C 0 km/h
2979 11-10-2018 08:10:00 8.8 C 8.36 g/m*3 8.8 C 0 km/h
2980 11-10-2018 08:15:00 8.9 C 8.41 g/m*3 8.9 C 3.2 km/h
2981 11-10-2018 08:20:00 8.9 C 8.41 g/m*3 8.9 C 1.6 km/h
2982 11-10-2018 08:25:00 8.9 C 8.41 g/m*3 8.9 C 0 km/h
2983 11-10-2018 08:30:00 8.8 C 8.36 g/m*3 8.8 C 1.6 km/h
2984 11-10-2018 08:35:00 8.8 C 8.36 g/m*3 8.8 C 0 km/h
2985 11-10-2018 08:40:00 8.8 C 8.36 g/m*3 8.8 C 0 km/h
2986 11-10-2018 08:45:00 8.8 C 8.36 g/m*3 8.8 C 1.6 km/h
2987 11-10-2018 08:50:00 8.9 C 8.41 g/m*3 8.9 C 0 km/h
2988 11-10-2018 08:55:00 9 C 8.46 g/m*3 9 C 3.2 km/h
2989 11-10-2018 09:00:00 9.1 C 8.52 g/m*3 9.1 C 1.6 km/h
2990 11-10-2018 09:05:00 9.2 C 8.57 g/m*3 9.2 C 0 km/h
2991 11-10-2018 09:10:00 9.2 C 8.57 g/m*3 9.2 C 0 km/h
2992 11-10-2018 09:15:00 9.3 C 8.63 g/m*3 9.3 C 0 km/h
2993 11-10-2018 09:20:00 9.3 C 8.63 g/m*3 9.3 C 0 km/h
2994 11-10-2018 09:25:00 9.3 C 8.63 g/m*3 9.3 C 1.6 km/h
2995 11-10-2018 09:30:00 9.3 C 8.63 g/m*3 9.3 C 0 km/h
2996 11-10-2018 09:35:00 9.3 C 8.63 g/m*3 9.3 C 0 km/h
2997 11-10-2018 09:40:00 9.3 C 8.63 g/m*3 8.56 C 6.4 km/h
2998 11-10-2018 09:45:00 9.4 C 8.68 g/m*3 9.4 C 0 km/h
2999 11-10-2018 09:50:00 9.6 C 8.79 g/m*3 9.6 C 0 km/h
3000 11-10-2018 09:55:00 9.6 C 8.79 g/m*3 9.6 C 0 km/h
Sensor: Nr:Datum:Temp:Abs-Feuchte:Windchill:Wind:
Aussen-T/F 3001 11-10-2018 10:00:00 9.7 C 8.94 g/m*3 9.7 C 0 km/h
3002 11-10-2018 10:05:00 9.7 C 8.94 g/m*3 9.7 C 0 km/h
3003 11-10-2018 10:10:00 9.7 C 8.94 g/m*3 9.7 C 0 km/h
3004 11-10-2018 10:15:00 9.8 C 9 g/m*3 9.8 C 0 km/h
3005 11-10-2018 10:20:00 9.8 C 9 g/m*3 9.8 C 0 km/h
3006 11-10-2018 10:25:00 10 C 9.11 g/m*3 10 C 1.6 km/h
3007 11-10-2018 10:30:00 10.2 C 9.23 g/m*3 10.2 C 1.6 km/h
3008 11-10-2018 10:35:00 10.4 C 9.35 g/m*3 10.4 C 0 km/h
3009 11-10-2018 10:40:00 10.6 C 9.47 g/m*3 10.6 C 0 km/h
3010 11-10-2018 10:45:00 10.7 C 9.53 g/m*3 10.7 C 0 km/h
3011 11-10-2018 10:50:00 10.9 C 9.65 g/m*3 10.9 C 0 km/h
3012 11-10-2018 10:55:00 11.1 C 9.77 g/m*3 11.1 C 0 km/h
3013 11-10-2018 11:00:00 11.4 C 9.96 g/m*3 11.4 C 0 km/h
3014 11-10-2018 11:05:00 11.6 C 10.08 g/m*3 11.6 C 0 km/h
3015 11-10-2018 11:10:00 11.8 C 10.21 g/m*3 11.8 C 0 km/h
3016 11-10-2018 11:15:00 11.9 C 10.27 g/m*3 11.9 C 0 km/h
3017 11-10-2018 11:20:00 12.2 C 10.47 g/m*3 12.2 C 0 km/h
3018 11-10-2018 11:25:00 12.4 C 10.6 g/m*3 12.4 C 0 km/h
3019 11-10-2018 11:30:00 12.6 C 10.73 g/m*3 12.6 C 0 km/h
3020 11-10-2018 11:35:00 12.7 C 10.8 g/m*3 12.7 C 0 km/h
3021 11-10-2018 11:40:00 12.8 C 10.87 g/m*3 12.8 C 0 km/h
3022 11-10-2018 11:45:00 13 C 11 g/m*3 13 C 0 km/h
3023 11-10-2018 11:50:00 13.1 C 11.07 g/m*3 13.1 C 0 km/h
3024 11-10-2018 11:55:00 13.2 C 11.14 g/m*3 13.2 C 0 km/h
3025 11-10-2018 12:00:00 13.3 C 11.21 g/m*3 13.3 C 0 km/h
Sensor: Nr:Datum:Temp:Abs-Feuchte:Windchill:Wind:
Aussen-T/F 3026 11-10-2018 12:05:00 13.5 C 11.35 g/m*3 13.5 C 0 km/h
3027 11-10-2018 12:10:00 13.8 C 11.56 g/m*3 13.8 C 0 km/h
3028 11-10-2018 12:15:00 13.9 C 11.63 g/m*3 13.9 C 0 km/h
3029 11-10-2018 12:20:00 14.1 C 11.77 g/m*3 14.1 C 0 km/h
3030 11-10-2018 12:25:00 14.3 C 11.92 g/m*3 14.3 C 0 km/h
3031 11-10-2018 12:30:00 14.4 C 11.99 g/m*3 14.4 C 0 km/h
3032 11-10-2018 12:35:00 14.5 C 12.06 g/m*3 14.5 C 0 km/h
3033 11-10-2018 12:40:00 14.7 C 12.21 g/m*3 14.7 C 1.6 km/h
3034 11-10-2018 12:45:00 14.8 C 12.29 g/m*3 14.8 C 0 km/h
3035 11-10-2018 12:50:00 15 C 12.44 g/m*3 15 C 0 km/h
3036 11-10-2018 12:55:00 15.2 C 12.59 g/m*3 15.2 C 0 km/h
3037 11-10-2018 13:00:00 15.5 C 12.82 g/m*3 15.5 C 0 km/h
3038 11-10-2018 13:05:00 15.9 C 13.14 g/m*3 15.9 C 0 km/h
3039 11-10-2018 13:10:00 16.1 C 13.3 g/m*3 16.1 C 0 km/h
3040 11-10-2018 13:15:00 16.3 C 13.46 g/m*3 16.3 C 0 km/h
3041 11-10-2018 13:20:00 16.3 C 13.46 g/m*3 16.3 C 0 km/h
3042 11-10-2018 13:25:00 16.5 C 13.48 g/m*3 16.5 C 0 km/h
3043 11-10-2018 13:30:00 16.6 C 13.56 g/m*3 16.6 C 0 km/h
3044 11-10-2018 13:35:00 16.7 C 13.5 g/m*3 16.7 C 0 km/h
3045 11-10-2018 13:40:00 16.8 C 13.44 g/m*3 16.8 C 0 km/h
3046 11-10-2018 13:45:00 17 C 13.46 g/m*3 17 C 0 km/h
3047 11-10-2018 13:50:00 17.1 C 13.54 g/m*3 17.1 C 0 km/h
3048 11-10-2018 13:55:00 17.3 C 13.7 g/m*3 17.3 C 0 km/h
3049 11-10-2018 14:00:00 17.6 C 13.95 g/m*3 17.6 C 0 km/h
3050 11-10-2018 14:05:00 17.9 C 13.89 g/m*3 17.9 C 0 km/h
Sensor: Nr:Datum:Temp:Abs-Feuchte:Windchill:Wind:
Aussen-T/F 3051 11-10-2018 14:10:00 18.2 C 13.99 g/m*3 18.2 C 0 km/h
3052 11-10-2018 14:15:00 18.6 C 14.01 g/m*3 18.6 C 0 km/h
3053 11-10-2018 14:20:00 18.9 C 13.93 g/m*3 18.9 C 0 km/h
3054 11-10-2018 14:25:00 19.3 C 13.93 g/m*3 19.3 C 0 km/h
3055 11-10-2018 14:30:00 19.6 C 14.18 g/m*3 19.6 C 0 km/h
3056 11-10-2018 14:35:00 19.9 C 14.09 g/m*3 19.9 C 0 km/h
3057 11-10-2018 14:40:00 20.2 C 14.16 g/m*3 20.2 C 0 km/h
3058 11-10-2018 14:45:00 20.3 C 13.89 g/m*3 20.3 C 0 km/h
3059 11-10-2018 14:50:00 20.3 C 13.89 g/m*3 20.3 C 0 km/h
3060 11-10-2018 14:55:00 20.3 C 13.72 g/m*3 20.3 C 0 km/h
3061 11-10-2018 15:00:00 20.2 C 13.81 g/m*3 20.2 C 0 km/h
3062 11-10-2018 15:05:00 20.2 C 13.99 g/m*3 20.2 C 0 km/h
3063 11-10-2018 15:10:00 20.3 C 13.54 g/m*3 20.3 C 1.6 km/h
3064 11-10-2018 15:15:00 20.4 C 13.27 g/m*3 20.4 C 1.6 km/h
3065 11-10-2018 15:20:00 20.6 C 12.53 g/m*3 20.6 C 4.8 km/h
3066 11-10-2018 15:25:00 20.8 C 13.04 g/m*3 20.8 C 0 km/h
3067 11-10-2018 15:30:00 21 C 13.74 g/m*3 21 C 0 km/h
3068 11-10-2018 15:35:00 21.1 C 13.63 g/m*3 21.1 C 1.6 km/h
3069 11-10-2018 15:40:00 21.1 C 14 g/m*3 21.1 C 0 km/h
3070 11-10-2018 15:45:00 21.2 C 14.08 g/m*3 21.2 C 1.6 km/h
3071 11-10-2018 15:50:00 21.2 C 13.9 g/m*3 21.2 C 0 km/h
3072 11-10-2018 15:55:00 21.3 C 13.98 g/m*3 21.3 C 0 km/h
3073 11-10-2018 16:00:00 21.3 C 13.42 g/m*3 21.3 C 8.1 km/h
3074 11-10-2018 16:05:00 21.4 C 12.94 g/m*3 21.4 C 8.1 km/h
3075 11-10-2018 16:10:00 21.7 C 13.73 g/m*3 21.7 C 4.8 km/h
Sensor: Nr:Datum:Temp:Abs-Feuchte:Windchill:Wind:
Aussen-T/F 3076 11-10-2018 16:15:00 21.9 C 13.89 g/m*3 21.9 C 1.6 km/h
3077 11-10-2018 16:20:00 22 C 13.39 g/m*3 22 C 0 km/h
3078 11-10-2018 16:25:00 22 C 13.2 g/m*3 22 C 0 km/h
3079 11-10-2018 16:30:00 22.1 C 13.66 g/m*3 22.1 C 0 km/h
3080 11-10-2018 16:35:00 22.1 C 14.25 g/m*3 22.1 C 0 km/h
3081 11-10-2018 16:40:00 21.9 C 14.09 g/m*3 21.9 C 0 km/h
3082 11-10-2018 16:45:00 21.8 C 13.81 g/m*3 21.8 C 0 km/h
3083 11-10-2018 16:50:00 21.7 C 13.93 g/m*3 21.7 C 0 km/h
3084 11-10-2018 16:55:00 21.6 C 14.03 g/m*3 21.6 C 0 km/h
3085 11-10-2018 17:00:00 21.4 C 13.87 g/m*3 21.4 C 0 km/h
3086 11-10-2018 17:05:00 21.3 C 13.79 g/m*3 21.3 C 0 km/h
3087 11-10-2018 17:10:00 21.2 C 14.08 g/m*3 21.2 C 0 km/h
3088 11-10-2018 17:15:00 21.1 C 14 g/m*3 21.1 C 0 km/h
3089 11-10-2018 17:20:00 20.9 C 13.66 g/m*3 20.9 C 0 km/h
3090 11-10-2018 17:25:00 20.9 C 13.84 g/m*3 20.9 C 0 km/h
3091 11-10-2018 17:30:00 20.8 C 13.76 g/m*3 20.8 C 0 km/h
3092 11-10-2018 17:35:00 20.8 C 13.58 g/m*3 20.8 C 0 km/h
3093 11-10-2018 17:40:00 20.7 C 12.78 g/m*3 20.7 C 3.2 km/h
3094 11-10-2018 17:45:00 21 C 13.56 g/m*3 21 C 4.8 km/h
3095 11-10-2018 17:50:00 21.3 C 12.86 g/m*3 21.3 C 6.4 km/h
3096 11-10-2018 17:55:00 21.6 C 13.09 g/m*3 21.6 C 3.2 km/h
3097 11-10-2018 18:00:00 21.8 C 12.85 g/m*3 21.8 C 6.4 km/h
3098 11-10-2018 18:05:00 21.9 C 13.31 g/m*3 21.9 C 3.2 km/h
3099 11-10-2018 18:10:00 21.9 C 13.12 g/m*3 21.9 C 8.1 km/h
3100 11-10-2018 18:15:00 21.8 C 12.85 g/m*3 21.8 C 6.4 km/h
Sensor: Nr:Datum:Temp:Abs-Feuchte:Windchill:Wind:
Aussen-T/F 3101 11-10-2018 18:20:00 21.6 C 12.71 g/m*3 21.6 C 9.7 km/h
3102 11-10-2018 18:25:00 21.5 C 12.82 g/m*3 21.5 C 8.1 km/h
3103 11-10-2018 18:30:00 21.2 C 12.6 g/m*3 21.2 C 4.8 km/h
3104 11-10-2018 18:35:00 20.8 C 12.31 g/m*3 20.8 C 6.4 km/h
3105 11-10-2018 18:40:00 20.5 C 12.28 g/m*3 20.5 C 4.8 km/h
3106 11-10-2018 18:45:00 20.3 C 12.31 g/m*3 20.3 C 6.4 km/h
3107 11-10-2018 18:50:00 19.9 C 12.03 g/m*3 19.9 C 4.8 km/h
3108 11-10-2018 18:55:00 19.7 C 12.23 g/m*3 19.7 C 4.8 km/h
3109 11-10-2018 19:00:00 19.4 C 12.18 g/m*3 19.4 C 6.4 km/h
3110 11-10-2018 19:05:00 19.2 C 11.87 g/m*3 19.2 C 6.4 km/h
3111 11-10-2018 19:10:00 19 C 12.06 g/m*3 19 C 0 km/h
3112 11-10-2018 19:15:00 18.8 C 11.92 g/m*3 18.8 C 8.1 km/h
3113 11-10-2018 19:20:00 18.6 C 11.94 g/m*3 18.6 C 3.2 km/h
3114 11-10-2018 19:25:00 18.2 C 11.81 g/m*3 18.2 C 0 km/h
3115 11-10-2018 19:30:00 17.8 C 11.69 g/m*3 17.8 C 0 km/h
3116 11-10-2018 19:35:00 17.4 C 11.56 g/m*3 17.4 C 1.6 km/h
3117 11-10-2018 19:40:00 17.1 C 11.5 g/m*3 17.1 C 0 km/h
3118 11-10-2018 19:45:00 16.8 C 11.58 g/m*3 16.8 C 0 km/h
3119 11-10-2018 19:50:00 16.6 C 11.44 g/m*3 16.6 C 3.2 km/h
3120 11-10-2018 19:55:00 16.4 C 11.45 g/m*3 16.4 C 8.1 km/h
3121 11-10-2018 20:00:00 16.3 C 11.52 g/m*3 16.3 C 3.2 km/h
3122 11-10-2018 20:05:00 16.3 C 11.65 g/m*3 16.3 C 3.2 km/h
3123 11-10-2018 20:10:00 16.3 C 11.52 g/m*3 16.3 C 3.2 km/h
3124 11-10-2018 20:15:00 16.4 C 11.72 g/m*3 16.4 C 0 km/h
3125 11-10-2018 20:20:00 16.4 C 11.72 g/m*3 16.4 C 0 km/h
Sensor: Nr:Datum:Temp:Abs-Feuchte:Windchill:Wind:
Aussen-T/F 3126 11-10-2018 20:25:00 16.4 C 11.72 g/m*3 16.4 C 0 km/h
3127 11-10-2018 20:30:00 16.4 C 11.72 g/m*3 16.4 C 0 km/h
3128 11-10-2018 20:35:00 16.5 C 11.8 g/m*3 16.5 C 0 km/h
3129 11-10-2018 20:40:00 16.5 C 11.8 g/m*3 16.5 C 0 km/h
3130 11-10-2018 20:45:00 16.4 C 11.72 g/m*3 16.4 C 0 km/h
3131 11-10-2018 20:50:00 16.4 C 11.72 g/m*3 16.4 C 0 km/h
3132 11-10-2018 20:55:00 16.3 C 11.65 g/m*3 16.3 C 0 km/h
3133 11-10-2018 21:00:00 16.3 C 11.65 g/m*3 16.3 C 0 km/h
3134 11-10-2018 21:05:00 16.2 C 11.58 g/m*3 16.2 C 0 km/h
3135 11-10-2018 21:10:00 16.2 C 11.72 g/m*3 16.2 C 0 km/h
3136 11-10-2018 21:15:00 16.3 C 11.65 g/m*3 16.3 C 1.6 km/h
3137 11-10-2018 21:20:00 16.4 C 11.86 g/m*3 16.4 C 0 km/h
3138 11-10-2018 21:25:00 16.4 C 11.72 g/m*3 16.4 C 0 km/h
3139 11-10-2018 21:30:00 16.4 C 11.86 g/m*3 16.4 C 0 km/h
3140 11-10-2018 21:35:00 16.4 C 11.86 g/m*3 16.4 C 0 km/h
3141 11-10-2018 21:40:00 16.3 C 11.79 g/m*3 16.3 C 0 km/h
3142 11-10-2018 21:45:00 16.3 C 11.65 g/m*3 16.3 C 0 km/h
3143 11-10-2018 21:50:00 16.3 C 11.65 g/m*3 16.3 C 0 km/h
3144 11-10-2018 21:55:00 16.2 C 11.58 g/m*3 16.2 C 0 km/h
3145 11-10-2018 22:00:00 16.2 C 11.72 g/m*3 16.2 C 0 km/h
3146 11-10-2018 22:05:00 16.2 C 11.72 g/m*3 16.2 C 0 km/h
3147 11-10-2018 22:10:00 16.2 C 11.72 g/m*3 16.2 C 0 km/h
3148 11-10-2018 22:15:00 16.2 C 11.72 g/m*3 16.2 C 0 km/h
3149 11-10-2018 22:20:00 16.2 C 11.72 g/m*3 16.2 C 0 km/h
3150 11-10-2018 22:25:00 16.1 C 11.65 g/m*3 16.1 C 0 km/h
Sensor: Nr:Datum:Temp:Abs-Feuchte:Windchill:Wind:
Aussen-T/F 3151 11-10-2018 22:30:00 16.1 C 11.65 g/m*3 16.1 C 0 km/h
3152 11-10-2018 22:35:00 15.9 C 11.51 g/m*3 15.9 C 0 km/h
3153 11-10-2018 22:40:00 15.8 C 11.58 g/m*3 15.8 C 0 km/h
3154 11-10-2018 22:45:00 15.7 C 11.51 g/m*3 15.7 C 0 km/h
3155 11-10-2018 22:50:00 15.6 C 11.3 g/m*3 15.6 C 0 km/h
3156 11-10-2018 22:55:00 15.3 C 11.1 g/m*3 15.3 C 0 km/h
3157 11-10-2018 23:00:00 15.2 C 11.16 g/m*3 15.2 C 0 km/h
3158 11-10-2018 23:05:00 15 C 11.03 g/m*3 15 C 0 km/h
3159 11-10-2018 23:10:00 14.9 C 10.96 g/m*3 14.9 C 0 km/h
3160 11-10-2018 23:15:00 14.7 C 10.95 g/m*3 14.7 C 0 km/h
3161 11-10-2018 23:20:00 14.5 C 10.82 g/m*3 14.5 C 0 km/h
3162 11-10-2018 23:25:00 14.4 C 10.88 g/m*3 14.4 C 0 km/h
3163 11-10-2018 23:30:00 14.2 C 10.75 g/m*3 14.2 C 0 km/h
3164 11-10-2018 23:35:00 14.1 C 10.68 g/m*3 14.1 C 0 km/h
3165 11-10-2018 23:40:00 13.9 C 10.55 g/m*3 13.9 C 0 km/h
3166 11-10-2018 23:45:00 13.8 C 10.6 g/m*3 13.8 C 0 km/h
3167 11-10-2018 23:50:00 13.8 C 10.72 g/m*3 13.8 C 0 km/h
3168 11-10-2018 23:55:00 13.8 C 10.72 g/m*3 13.8 C 0 km/h
3169 12-10-2018 00:00:00 13.8 C 10.72 g/m*3 13.8 C 0 km/h
3170 12-10-2018 00:05:00 13.7 C 10.54 g/m*3 13.7 C 0 km/h
3171 12-10-2018 00:10:00 13.6 C 10.59 g/m*3 13.6 C 0 km/h
3172 12-10-2018 00:15:00 13.5 C 10.53 g/m*3 13.5 C 0 km/h
3173 12-10-2018 00:20:00 13.3 C 10.4 g/m*3 13.3 C 0 km/h
3174 12-10-2018 00:25:00 13.3 C 10.51 g/m*3 13.3 C 0 km/h
3175 12-10-2018 00:30:00 13.3 C 10.51 g/m*3 13.3 C 0 km/h
Sensor: Nr:Datum:Temp:Abs-Feuchte:Windchill:Wind:
Aussen-T/F 3176 12-10-2018 00:35:00 13.2 C 10.45 g/m*3 13.2 C 0 km/h
3177 12-10-2018 00:40:00 13.1 C 10.27 g/m*3 13.1 C 0 km/h
3178 12-10-2018 00:45:00 12.9 C 10.14 g/m*3 12.9 C 0 km/h
3179 12-10-2018 00:50:00 12.9 C 10.26 g/m*3 12.9 C 0 km/h
3180 12-10-2018 00:55:00 13 C 10.43 g/m*3 13 C 0 km/h
3181 12-10-2018 01:00:00 12.9 C 10.26 g/m*3 12.9 C 0 km/h
3182 12-10-2018 01:05:00 12.8 C 10.19 g/m*3 12.8 C 0 km/h
3183 12-10-2018 01:10:00 12.7 C 10.13 g/m*3 12.7 C 0 km/h
3184 12-10-2018 01:15:00 12.6 C 10.07 g/m*3 12.6 C 0 km/h
3185 12-10-2018 01:20:00 12.4 C 9.94 g/m*3 12.4 C 0 km/h
3186 12-10-2018 01:25:00 12.3 C 9.99 g/m*3 12.3 C 0 km/h
3187 12-10-2018 01:30:00 12.3 C 9.99 g/m*3 12.3 C 0 km/h
3188 12-10-2018 01:35:00 12.3 C 9.99 g/m*3 12.3 C 0 km/h
3189 12-10-2018 01:40:00 12.2 C 9.93 g/m*3 12.2 C 0 km/h
3190 12-10-2018 01:45:00 12.2 C 9.93 g/m*3 12.2 C 0 km/h
3191 12-10-2018 01:50:00 12.1 C 9.97 g/m*3 12.1 C 0 km/h
3192 12-10-2018 01:55:00 12.1 C 9.97 g/m*3 12.1 C 0 km/h
3193 12-10-2018 02:00:00 12.1 C 9.97 g/m*3 12.1 C 0 km/h
3194 12-10-2018 02:05:00 12.1 C 9.97 g/m*3 12.1 C 0 km/h
3195 12-10-2018 02:10:00 12.2 C 10.14 g/m*3 12.2 C 0 km/h
3196 12-10-2018 02:15:00 12.3 C 10.21 g/m*3 12.3 C 0 km/h
3197 12-10-2018 02:20:00 12.3 C 10.21 g/m*3 12.3 C 0 km/h
3198 12-10-2018 02:25:00 12.3 C 10.21 g/m*3 12.3 C 0 km/h
3199 12-10-2018 02:30:00 12.3 C 10.21 g/m*3 12.3 C 0 km/h
3200 12-10-2018 02:35:00 12.2 C 10.04 g/m*3 12.2 C 0 km/h
Sensor: Nr:Datum:Temp:Abs-Feuchte:Windchill:Wind:
Aussen-T/F 3201 12-10-2018 02:40:00 12.1 C 9.97 g/m*3 12.1 C 0 km/h
3202 12-10-2018 02:45:00 12 C 9.91 g/m*3 12 C 0 km/h
3203 12-10-2018 02:50:00 11.9 C 9.96 g/m*3 11.9 C 0 km/h
3204 12-10-2018 02:55:00 11.9 C 9.96 g/m*3 11.9 C 0 km/h
3205 12-10-2018 03:00:00 11.8 C 9.89 g/m*3 11.8 C 0 km/h
3206 12-10-2018 03:05:00 11.9 C 9.96 g/m*3 11.9 C 1.6 km/h
3207 12-10-2018 03:10:00 11.8 C 9.89 g/m*3 11.8 C 0 km/h
3208 12-10-2018 03:15:00 11.8 C 9.89 g/m*3 11.8 C 1.6 km/h
3209 12-10-2018 03:20:00 11.8 C 9.89 g/m*3 11.8 C 0 km/h
3210 12-10-2018 03:25:00 11.8 C 9.89 g/m*3 11.8 C 0 km/h
3211 12-10-2018 03:30:00 11.8 C 9.89 g/m*3 11.8 C 0 km/h
3212 12-10-2018 03:35:00 11.8 C 9.89 g/m*3 11.8 C 0 km/h
3213 12-10-2018 03:40:00 11.7 C 9.83 g/m*3 11.7 C 0 km/h
3214 12-10-2018 03:45:00 11.6 C 9.77 g/m*3 11.6 C 0 km/h
3215 12-10-2018 03:50:00 11.6 C 9.77 g/m*3 11.6 C 0 km/h
3216 12-10-2018 03:55:00 11.5 C 9.71 g/m*3 11.5 C 0 km/h
3217 12-10-2018 04:00:00 11.4 C 9.65 g/m*3 11.4 C 0 km/h
3218 12-10-2018 04:05:00 11.4 C 9.65 g/m*3 11.4 C 0 km/h
3219 12-10-2018 04:10:00 11.3 C 9.59 g/m*3 11.3 C 0 km/h
3220 12-10-2018 04:15:00 11.3 C 9.59 g/m*3 11.3 C 0 km/h
3221 12-10-2018 04:20:00 11.3 C 9.59 g/m*3 11.3 C 0 km/h
3222 12-10-2018 04:25:00 11.3 C 9.59 g/m*3 11.3 C 0 km/h
3223 12-10-2018 04:30:00 11.2 C 9.53 g/m*3 11.2 C 0 km/h
3224 12-10-2018 04:35:00 11.2 C 9.63 g/m*3 11.2 C 0 km/h
3225 12-10-2018 04:40:00 11.2 C 9.53 g/m*3 11.2 C 0 km/h
Sensor: Nr:Datum:Temp:Abs-Feuchte:Windchill:Wind:
Aussen-T/F 3226 12-10-2018 04:45:00 11.1 C 9.47 g/m*3 11.1 C 0 km/h
3227 12-10-2018 04:50:00 11 C 9.